Darstellungsparameter: Aktuell verwendete Einstellungen:
Skalierung der Graphiken ... ?
xyx+y,   Skalierungsfaktor:      Skalierung: Modus: x, Faktor: 1
Darstellungszeitraum ... ?
Vom - - bis: - -   Zeitraum: 05.12.2019 - 02.01.2020
Min/Max/Avg-Anzeige ... ?
Zeige MMA aktuell
Zeige MMA Monat
Zeige MMA alles
Zeige --A aktuell
Zeige --A Monat
Zeige --A alles
Keine MMA-Anzeige
MMA:
Average (ber die Originaldaten)
MMA-Basis: 05.12.2019 - 02.01.2020
Quicknavigation für Darstellung... ?
Tage:      1T, 2T, 3T, 5T -1T -2T -3T -5T +1T +2T +3T +5T
Wochen: 1W, 2W, 3W -1W -2W -3W +1W +2W +3W
Monate: 1M, 3M, 6M -1M -3M -6M +1M +3M +6M
Jahre:    1J, 3J, 5J, 10J -1J -3J -5J -10J +1J +3J +5J +10J
Nutze für die Darstellung ... ?
Originaldaten oder Mittelwerte auf ...
Stundenbasis Tagesbasis Wochenbasis
Monatsbasis Jahresbasis      Datenbasis: Original-Daten
Darstellen als:
Statistik (Auto) Statistik J:M      Darstellung:
Zur Graphik,    zurück zur Übersicht aller Sensoren.
 
Tabellarische Datenbersicht: ?
 
Sensor: Nr:Datum:Temp:Feuchte:
Aussen-T/F 1 05-12-2019 00:01:17 -3 C 41 %
2 05-12-2019 00:11:17 -3 C 41 %
3 05-12-2019 00:21:17 -3.1 C 41 %
4 05-12-2019 00:31:18 -2.8 C 41 %
5 05-12-2019 00:41:18 -2.8 C 41 %
6 05-12-2019 00:51:17 -2.9 C 41 %
7 05-12-2019 01:01:17 -2.9 C 41 %
8 05-12-2019 01:11:17 -3.2 C 41 %
9 05-12-2019 01:21:17 -2.5 C 43 %
10 05-12-2019 01:31:18 -2.6 C 43 %
11 05-12-2019 01:41:18 -2.7 C 43 %
12 05-12-2019 01:51:17 -2.6 C 43 %
13 05-12-2019 02:01:17 -2.6 C 42 %
14 05-12-2019 02:11:18 -2.8 C 41 %
15 05-12-2019 02:21:17 -3 C 41 %
16 05-12-2019 02:31:17 -3.2 C 41 %
17 05-12-2019 02:41:17 -3.2 C 41 %
18 05-12-2019 02:51:17 -3.2 C 41 %
19 05-12-2019 03:01:17 -3.4 C 40 %
20 05-12-2019 03:11:17 -3.5 C 40 %
21 05-12-2019 03:21:17 -3.3 C 41 %
22 05-12-2019 03:31:17 -3.2 C 41 %
23 05-12-2019 03:41:17 -3.6 C 40 %
24 05-12-2019 03:51:17 -3 C 43 %
25 05-12-2019 04:01:17 -2.7 C 43 %
Sensor: Nr:Datum:Temp:Feuchte:
Aussen-T/F 26 05-12-2019 04:11:17 -2.7 C 43 %
27 05-12-2019 04:21:17 -2.7 C 43 %
28 05-12-2019 04:31:18 -2.9 C 42 %
29 05-12-2019 04:41:18 -3.3 C 40 %
30 05-12-2019 04:51:17 -2.9 C 42 %
31 05-12-2019 05:01:17 -2.8 C 43 %
32 05-12-2019 05:11:17 -2.8 C 42 %
33 05-12-2019 05:21:17 -2.7 C 43 %
34 05-12-2019 05:31:17 -2.7 C 43 %
35 05-12-2019 05:41:18 -2.5 C 43 %
36 05-12-2019 05:51:17 -2.5 C 43 %
37 05-12-2019 06:01:17 -2.6 C 43 %
38 05-12-2019 06:11:17 -2.7 C 43 %
39 05-12-2019 06:21:17 -2.9 C 43 %
40 05-12-2019 06:31:17 -2.9 C 43 %
41 05-12-2019 06:41:17 -3 C 42 %
42 05-12-2019 06:51:17 -2.9 C 43 %
43 05-12-2019 07:01:17 -2.9 C 42 %
44 05-12-2019 07:11:17 -2.9 C 42 %
45 05-12-2019 07:21:17 -3.2 C 42 %
46 05-12-2019 07:31:17 -3.1 C 42 %
47 05-12-2019 07:41:18 -2.9 C 42 %
48 05-12-2019 07:51:17 -2.9 C 42 %
49 05-12-2019 08:01:17 -3 C 42 %
50 05-12-2019 08:11:17 -2.8 C 43 %
Sensor: Nr:Datum:Temp:Feuchte:
Aussen-T/F 51 05-12-2019 08:21:18 -2.9 C 42 %
52 05-12-2019 08:31:17 -2.8 C 42 %
53 05-12-2019 08:41:17 -3 C 42 %
54 05-12-2019 08:51:17 -3 C 42 %
55 05-12-2019 09:01:18 -2.7 C 43 %
56 05-12-2019 09:11:18 -2.6 C 43 %
57 05-12-2019 09:21:17 -2.6 C 42 %
58 05-12-2019 09:31:17 -2.6 C 42 %
59 05-12-2019 09:41:17 -2.5 C 43 %
60 05-12-2019 09:51:17 -2.4 C 42 %
61 05-12-2019 10:01:18 -2.3 C 42 %
62 05-12-2019 10:11:18 -2.4 C 42 %
63 05-12-2019 10:21:17 -2.1 C 43 %
64 05-12-2019 10:31:17 -1.7 C 43 %
65 05-12-2019 10:41:17 -2 C 42 %
66 05-12-2019 10:51:18 -1.7 C 42 %
67 05-12-2019 11:01:17 -1.7 C 43 %
68 05-12-2019 11:11:17 -1.4 C 42 %
69 05-12-2019 11:21:17 -1.2 C 41 %
70 05-12-2019 11:31:18 -1.2 C 41 %
71 05-12-2019 11:41:18 -0.7 C 42 %
72 05-12-2019 11:51:17 -0.9 C 42 %
73 05-12-2019 12:01:18 -1 C 41 %
74 05-12-2019 12:11:18 -0.8 C 41 %
75 05-12-2019 12:21:17 -0.6 C 41 %
Sensor: Nr:Datum:Temp:Feuchte:
Aussen-T/F 76 05-12-2019 12:31:17 -0.8 C 40 %
77 05-12-2019 12:41:17 -0.9 C 40 %
78 05-12-2019 12:51:18 -0.6 C 41 %
79 05-12-2019 13:01:17 -0.5 C 40 %
80 05-12-2019 13:11:17 -0.6 C 40 %
81 05-12-2019 13:21:17 -0.4 C 41 %
82 05-12-2019 13:31:17 -0.4 C 41 %
83 05-12-2019 13:41:17 -0.2 C 41 %
84 05-12-2019 13:51:17 0.1 C 40 %
85 05-12-2019 14:01:18 0.1 C 40 %
86 05-12-2019 14:11:18 0.2 C 40 %
87 05-12-2019 14:21:17 0.2 C 40 %
88 05-12-2019 14:31:17 0.2 C 40 %
89 05-12-2019 14:41:17 0.2 C 40 %
90 05-12-2019 14:51:17 0.2 C 41 %
91 05-12-2019 15:01:17 0.1 C 41 %
92 05-12-2019 15:11:17 0 C 41 %
93 05-12-2019 15:21:17 -0.1 C 42 %
94 05-12-2019 15:31:17 -0.1 C 43 %
95 05-12-2019 15:41:17 -0.1 C 44 %
96 05-12-2019 15:51:18 -0.1 C 44 %
97 05-12-2019 16:01:17 -0.4 C 44 %
98 05-12-2019 16:11:17 -0.5 C 44 %
99 05-12-2019 16:21:17 -0.7 C 45 %
100 05-12-2019 16:31:18 -0.8 C 44 %
Sensor: Nr:Datum:Temp:Feuchte:
Aussen-T/F 101 05-12-2019 16:41:18 -1 C 44 %
102 05-12-2019 16:51:17 -1 C 44 %
103 05-12-2019 17:01:17 -1.2 C 44 %
104 05-12-2019 17:11:17 -1.1 C 45 %
105 05-12-2019 17:21:18 -1.2 C 45 %
106 05-12-2019 17:31:17 -1.3 C 44 %
107 05-12-2019 17:41:17 -1.7 C 44 %
108 05-12-2019 17:51:17 -1.6 C 44 %
109 05-12-2019 18:01:18 -1.8 C 43 %
110 05-12-2019 18:11:18 -2 C 43 %
111 05-12-2019 18:21:17 -2 C 43 %
112 05-12-2019 18:31:17 -2 C 43 %
113 05-12-2019 18:41:17 -2.2 C 43 %
114 05-12-2019 18:51:18 -2.5 C 42 %
115 05-12-2019 19:01:17 -2.1 C 43 %
116 05-12-2019 19:11:17 -2.1 C 44 %
117 05-12-2019 19:21:17 -2.6 C 42 %
118 05-12-2019 19:31:17 -2.9 C 41 %
119 05-12-2019 19:41:17 -2.6 C 42 %
120 05-12-2019 19:51:18 -1.9 C 43 %
121 05-12-2019 20:01:17 -1.5 C 44 %
122 05-12-2019 20:11:17 -1.6 C 43 %
123 05-12-2019 20:21:17 -1.5 C 43 %
124 05-12-2019 20:31:17 -1.9 C 42 %
125 05-12-2019 20:41:17 -2 C 42 %
Sensor: Nr:Datum:Temp:Feuchte:
Aussen-T/F 126 05-12-2019 20:51:18 -2.1 C 42 %
127 05-12-2019 21:01:17 -2.3 C 42 %
128 05-12-2019 21:11:17 -2.6 C 42 %
129 05-12-2019 21:21:17 -2.1 C 43 %
130 05-12-2019 21:31:17 -2 C 43 %
131 05-12-2019 21:41:17 -2 C 43 %
132 05-12-2019 21:51:17 -2 C 43 %
133 05-12-2019 22:01:17 -2.3 C 42 %
134 05-12-2019 22:11:17 -2.3 C 42 %
135 05-12-2019 22:21:18 -2.2 C 42 %
136 05-12-2019 22:31:17 -2.4 C 42 %
137 05-12-2019 22:41:17 -2.4 C 42 %
138 05-12-2019 22:51:17 -2.3 C 42 %
139 05-12-2019 23:01:17 -2.6 C 41 %
140 05-12-2019 23:11:17 -2.7 C 41 %
141 05-12-2019 23:21:18 -2.7 C 42 %
142 05-12-2019 23:31:17 -3.1 C 41 %
143 05-12-2019 23:41:17 -3.3 C 41 %
144 05-12-2019 23:51:17 -3.2 C 42 %
145 06-12-2019 00:01:18 -2.9 C 42 %
146 06-12-2019 00:11:18 -3.4 C 40 %
147 06-12-2019 00:21:17 -3.8 C 40 %
148 06-12-2019 00:31:17 -3.4 C 42 %
149 06-12-2019 00:41:17 -3.2 C 42 %
150 06-12-2019 00:51:17 -2.7 C 43 %
Sensor: Nr:Datum:Temp:Feuchte:
Aussen-T/F 151 06-12-2019 01:01:17 -2.4 C 43 %
152 06-12-2019 01:11:17 -2.1 C 43 %
153 06-12-2019 01:21:17 -2 C 41 %
154 06-12-2019 01:31:18 -1.8 C 42 %
155 06-12-2019 01:41:18 -1.6 C 43 %
156 06-12-2019 01:51:17 -1.6 C 43 %
157 06-12-2019 02:01:17 -1.4 C 42 %
158 06-12-2019 02:11:17 -1.4 C 40 %
159 06-12-2019 02:21:17 -1.6 C 40 %
160 06-12-2019 02:31:17 -1.5 C 40 %
161 06-12-2019 02:41:17 -1.7 C 39 %
162 06-12-2019 02:51:17 -1.6 C 40 %
163 06-12-2019 03:01:18 -1.4 C 39 %
164 06-12-2019 03:11:18 -1.2 C 39 %
165 06-12-2019 03:21:17 -1 C 38 %
166 06-12-2019 03:31:17 -1 C 37 %
167 06-12-2019 03:41:17 -1 C 38 %
168 06-12-2019 03:51:17 -1.1 C 37 %
169 06-12-2019 04:01:17 -1.2 C 38 %
170 06-12-2019 04:11:17 -1.3 C 37 %
171 06-12-2019 04:21:17 -1.3 C 38 %
172 06-12-2019 04:31:17 -1.1 C 38 %
173 06-12-2019 04:41:17 -1.1 C 38 %
174 06-12-2019 04:51:17 -0.8 C 38 %
175 06-12-2019 05:01:17 -1 C 38 %
Sensor: Nr:Datum:Temp:Feuchte:
Aussen-T/F 176 06-12-2019 05:11:17 -0.8 C 37 %
177 06-12-2019 05:21:17 -0.9 C 36 %
178 06-12-2019 05:31:18 -1 C 37 %
179 06-12-2019 05:41:18 -0.8 C 38 %
180 06-12-2019 05:51:17 -0.6 C 36 %
181 06-12-2019 06:01:17 -0.6 C 35 %
182 06-12-2019 06:11:17 -0.6 C 36 %
183 06-12-2019 06:21:17 -0.5 C 36 %
184 06-12-2019 06:31:17 -0.5 C 35 %
185 06-12-2019 06:41:17 -0.4 C 36 %
186 06-12-2019 06:51:18 -0.4 C 37 %
187 06-12-2019 07:01:17 -0.4 C 38 %
188 06-12-2019 07:11:17 -0.4 C 38 %
189 06-12-2019 07:21:17 -0.1 C 37 %
190 06-12-2019 07:31:17 0 C 36 %
191 06-12-2019 07:41:17 0.2 C 34 %
192 06-12-2019 07:51:18 0.4 C 32 %
193 06-12-2019 08:01:17 0.4 C 32 %
194 06-12-2019 08:11:17 0.4 C 32 %
195 06-12-2019 08:21:17 0.4 C 35 %
196 06-12-2019 08:31:17 0.6 C 32 %
197 06-12-2019 08:41:17 0.5 C 35 %
198 06-12-2019 08:51:18 0.5 C 35 %
199 06-12-2019 09:01:17 0.6 C 36 %
200 06-12-2019 09:11:17 0.8 C 36 %
Sensor: Nr:Datum:Temp:Feuchte:
Aussen-T/F 201 06-12-2019 09:21:17 1.2 C 33 %
202 06-12-2019 09:31:17 1.4 C 33 %
203 06-12-2019 09:41:17 1.5 C 33 %
204 06-12-2019 09:51:17 1.7 C 34 %
205 06-12-2019 10:01:17 1.8 C 33 %
206 06-12-2019 10:11:17 1.8 C 35 %
207 06-12-2019 10:21:18 1.9 C 36 %
208 06-12-2019 10:31:17 1.9 C 36 %
209 06-12-2019 10:41:17 2.4 C 35 %
210 06-12-2019 10:51:17 2.5 C 35 %
211 06-12-2019 11:01:18 2.7 C 35 %
212 06-12-2019 11:11:18 3.2 C 32 %
213 06-12-2019 11:21:17 3.3 C 32 %
214 06-12-2019 11:31:17 3.5 C 32 %
215 06-12-2019 11:41:17 3.5 C 32 %
216 06-12-2019 11:51:17 3.5 C 33 %
217 06-12-2019 12:01:17 3.6 C 33 %
218 06-12-2019 12:11:17 3.6 C 33 %
219 06-12-2019 12:21:17 3.6 C 35 %
220 06-12-2019 12:31:18 3.7 C 37 %
221 06-12-2019 12:41:18 3.7 C 39 %
222 06-12-2019 12:51:17 3.7 C 40 %
223 06-12-2019 13:01:17 3.8 C 39 %
224 06-12-2019 13:11:17 3.9 C 38 %
225 06-12-2019 13:21:17 4 C 36 %
Sensor: Nr:Datum:Temp:Feuchte:
Aussen-T/F 226 06-12-2019 13:31:18 4.2 C 35 %
227 06-12-2019 13:41:18 4.2 C 35 %
228 06-12-2019 13:51:17 4.1 C 36 %
229 06-12-2019 14:01:17 4.1 C 39 %
230 06-12-2019 14:11:17 4.2 C 40 %
231 06-12-2019 14:21:17 4.2 C 38 %
232 06-12-2019 14:31:18 4.2 C 38 %
233 06-12-2019 14:41:18 4.4 C 38 %
234 06-12-2019 14:51:17 4.4 C 39 %
235 06-12-2019 15:01:17 4.3 C 38 %
236 06-12-2019 15:11:17 4.4 C 38 %
237 06-12-2019 15:21:17 4.7 C 36 %
238 06-12-2019 15:31:17 4.5 C 37 %
239 06-12-2019 15:41:17 4.5 C 37 %
240 06-12-2019 15:51:18 4.6 C 37 %
241 06-12-2019 16:01:18 4.8 C 38 %
242 06-12-2019 16:11:18 5 C 34 %
243 06-12-2019 16:21:17 5.2 C 32 %
244 06-12-2019 16:31:17 5.1 C 32 %
245 06-12-2019 16:41:17 5.3 C 32 %
246 06-12-2019 16:51:17 5.2 C 31 %
247 06-12-2019 17:01:17 5.2 C 31 %
248 06-12-2019 17:11:17 5.3 C 31 %
249 06-12-2019 17:21:17 5.3 C 30 %
250 06-12-2019 17:31:18 5.5 C 30 %
Sensor: Nr:Datum:Temp:Feuchte:
Aussen-T/F 251 06-12-2019 17:41:18 5.6 C 29 %
252 06-12-2019 17:51:17 5.5 C 30 %
253 06-12-2019 18:01:17 5.9 C 29 %
254 06-12-2019 18:11:17 6 C 28 %
255 06-12-2019 18:21:18 6.2 C 29 %
256 06-12-2019 18:31:17 6.1 C 28 %
257 06-12-2019 18:41:17 6.1 C 29 %
258 06-12-2019 18:51:17 5.9 C 30 %
259 06-12-2019 19:01:17 5.6 C 31 %
260 06-12-2019 19:11:17 5.8 C 32 %
261 06-12-2019 19:21:17 5.9 C 31 %
262 06-12-2019 19:31:17 6.2 C 30 %
263 06-12-2019 19:41:17 6.5 C 28 %
264 06-12-2019 19:51:17 6.5 C 28 %
265 06-12-2019 20:01:17 6.8 C 28 %
266 06-12-2019 20:11:17 6.7 C 28 %
267 06-12-2019 20:21:17 6.8 C 28 %
268 06-12-2019 20:31:17 6.7 C 28 %
269 06-12-2019 20:41:17 6.7 C 28 %
270 06-12-2019 20:51:18 6.7 C 28 %
271 06-12-2019 21:01:17 6.8 C 27 %
272 06-12-2019 21:11:17 6.7 C 28 %
273 06-12-2019 21:21:17 6.7 C 28 %
274 06-12-2019 21:31:17 6.6 C 28 %
275 06-12-2019 21:41:17 6.5 C 28 %
Sensor: Nr:Datum:Temp:Feuchte:
Aussen-T/F 276 06-12-2019 21:51:17 6.5 C 29 %
277 06-12-2019 22:01:17 6.6 C 29 %
278 06-12-2019 22:11:17 6.7 C 28 %
279 06-12-2019 22:21:17 6.7 C 28 %
280 06-12-2019 22:31:17 6.7 C 28 %
281 06-12-2019 22:41:17 6.9 C 28 %
282 06-12-2019 22:51:17 6.9 C 27 %
283 06-12-2019 23:01:18 7 C 27 %
284 06-12-2019 23:11:18 6.9 C 28 %
285 06-12-2019 23:21:17 6.8 C 29 %
286 06-12-2019 23:31:17 6.8 C 29 %
287 06-12-2019 23:41:17 6.9 C 29 %
288 06-12-2019 23:51:18 6.8 C 30 %
289 07-12-2019 00:01:17 6.9 C 30 %
290 07-12-2019 00:11:17 7 C 28 %
291 07-12-2019 00:21:17 7.2 C 28 %
292 07-12-2019 00:31:17 7.2 C 28 %
293 07-12-2019 00:41:17 7.2 C 28 %
294 07-12-2019 00:51:17 7.4 C 28 %
295 07-12-2019 01:01:17 7.4 C 28 %
296 07-12-2019 01:11:17 7.6 C 28 %
297 07-12-2019 01:21:17 7.7 C 28 %
298 07-12-2019 01:31:18 7.8 C 28 %
299 07-12-2019 01:41:18 7.6 C 29 %
300 07-12-2019 01:51:17 7.6 C 29 %
Sensor: Nr:Datum:Temp:Feuchte:
Aussen-T/F 301 07-12-2019 02:01:17 7.5 C 30 %
302 07-12-2019 02:11:17 7.7 C 31 %
303 07-12-2019 02:21:17 7.5 C 31 %
304 07-12-2019 02:31:17 7.1 C 35 %
305 07-12-2019 02:41:17 7.2 C 38 %
306 07-12-2019 02:51:17 7.3 C 35 %
307 07-12-2019 03:01:17 7.4 C 35 %
308 07-12-2019 03:11:17 7.6 C 33 %
309 07-12-2019 03:21:17 8.4 C 30 %
310 07-12-2019 03:31:17 8.5 C 29 %
311 07-12-2019 03:41:17 8.7 C 28 %
312 07-12-2019 03:51:17 9 C 27 %
313 07-12-2019 04:01:18 8.4 C 29 %
314 07-12-2019 04:11:18 8.5 C 29 %
315 07-12-2019 04:21:17 8 C 30 %
316 07-12-2019 04:31:17 7.9 C 30 %
317 07-12-2019 04:41:17 8 C 30 %
318 07-12-2019 04:51:17 8 C 30 %
319 07-12-2019 05:01:17 7.7 C 30 %
320 07-12-2019 05:11:17 8 C 30 %
321 07-12-2019 05:21:17 8 C 30 %
322 07-12-2019 05:31:17 7.8 C 31 %
323 07-12-2019 05:41:17 8.2 C 30 %
324 07-12-2019 05:51:18 7.2 C 31 %
325 07-12-2019 06:01:18 7.6 C 30 %
Sensor: Nr:Datum:Temp:Feuchte:
Aussen-T/F 326 07-12-2019 06:11:18 8.7 C 26 %
327 07-12-2019 06:21:17 8.6 C 26 %
328 07-12-2019 06:31:18 8.2 C 26 %
329 07-12-2019 06:41:18 8.1 C 26 %
330 07-12-2019 06:51:17 7.5 C 27 %
331 07-12-2019 07:01:17 6.8 C 30 %
332 07-12-2019 07:11:17 7.1 C 28 %
333 07-12-2019 07:21:17 7.3 C 27 %
334 07-12-2019 07:31:17 6.8 C 30 %
335 07-12-2019 07:41:17 6.3 C 31 %
336 07-12-2019 07:51:18 7.8 C 28 %
337 07-12-2019 08:01:18 8 C 27 %
338 07-12-2019 08:11:18 7.9 C 28 %
339 07-12-2019 08:21:17 8.1 C 28 %
340 07-12-2019 08:31:17 8.1 C 27 %
341 07-12-2019 08:41:17 8.3 C 28 %
342 07-12-2019 08:51:17 8.4 C 27 %
343 07-12-2019 09:01:17 8.4 C 27 %
344 07-12-2019 09:11:17 8.3 C 28 %
345 07-12-2019 09:21:17 8.2 C 28 %
346 07-12-2019 09:31:17 8.1 C 29 %
347 07-12-2019 09:41:17 8.3 C 28 %
348 07-12-2019 09:51:18 8.6 C 27 %
349 07-12-2019 10:01:17 8.6 C 27 %
350 07-12-2019 10:11:17 8.8 C 27 %
Sensor: Nr:Datum:Temp:Feuchte:
Aussen-T/F 351 07-12-2019 10:21:17 9 C 26 %
352 07-12-2019 10:31:17 9.1 C 25 %
353 07-12-2019 10:41:17 9.1 C 26 %
354 07-12-2019 10:51:18 9.2 C 25 %
355 07-12-2019 11:01:18 9 C 26 %
356 07-12-2019 11:11:18 8.4 C 29 %
357 07-12-2019 11:21:17 8.3 C 30 %
358 07-12-2019 11:31:17 8.4 C 30 %
359 07-12-2019 11:41:17 8.5 C 30 %
360 07-12-2019 11:51:17 8.6 C 28 %
361 07-12-2019 12:01:17 8.8 C 27 %
362 07-12-2019 12:11:17 8.9 C 27 %
363 07-12-2019 12:21:17 9.2 C 25 %
364 07-12-2019 12:31:18 9.4 C 25 %
365 07-12-2019 12:41:18 9.5 C 25 %
366 07-12-2019 12:51:17 9.5 C 25 %
367 07-12-2019 13:01:17 9.7 C 23 %
368 07-12-2019 13:11:17 10 C 20 %
369 07-12-2019 13:21:17 9.8 C 20 %
370 07-12-2019 13:31:17 9.8 C 20 %
371 07-12-2019 13:41:17 9.9 C 20 %
372 07-12-2019 13:51:17 9.9 C 20 %
373 07-12-2019 14:01:17 9.8 C 20 %
374 07-12-2019 14:11:17 9.7 C 20 %
375 07-12-2019 14:21:17 9.9 C 20 %
Sensor: Nr:Datum:Temp:Feuchte:
Aussen-T/F 376 07-12-2019 14:31:18 9.9 C 20 %
377 07-12-2019 14:41:18 9.9 C 20 %
378 07-12-2019 14:51:17 9.9 C 20 %
379 07-12-2019 15:01:17 9.9 C 20 %
380 07-12-2019 15:11:17 9.7 C 21 %
381 07-12-2019 15:21:17 9.6 C 21 %
382 07-12-2019 15:31:17 9.7 C 21 %
383 07-12-2019 15:41:17 9.6 C 20 %
384 07-12-2019 15:51:17 9.4 C 23 %
385 07-12-2019 16:01:17 9 C 25 %
386 07-12-2019 16:11:17 8.9 C 25 %
387 07-12-2019 16:21:18 8.8 C 25 %
388 07-12-2019 16:31:17 8.6 C 26 %
389 07-12-2019 16:41:18 8.5 C 26 %
390 07-12-2019 16:51:17 8.2 C 27 %
391 07-12-2019 17:01:17 8.1 C 29 %
392 07-12-2019 17:11:17 8.2 C 28 %
393 07-12-2019 17:21:17 8.1 C 28 %
394 07-12-2019 17:31:18 8.2 C 28 %
395 07-12-2019 17:41:18 8.3 C 27 %
396 07-12-2019 17:51:17 8.1 C 27 %
397 07-12-2019 18:01:18 8 C 28 %
398 07-12-2019 18:11:18 8 C 27 %
399 07-12-2019 18:21:17 7.8 C 28 %
400 07-12-2019 18:31:17 7.7 C 29 %
Sensor: Nr:Datum:Temp:Feuchte:
Aussen-T/F 401 07-12-2019 18:41:17 7.6 C 30 %
402 07-12-2019 18:51:17 7.6 C 30 %
403 07-12-2019 19:01:17 7.5 C 31 %
404 07-12-2019 19:11:17 7.5 C 31 %
405 07-12-2019 19:21:17 7.5 C 32 %
406 07-12-2019 19:31:17 7.7 C 31 %
407 07-12-2019 19:41:17 7.6 C 30 %
408 07-12-2019 19:51:17 7.7 C 30 %
409 07-12-2019 20:01:18 7.4 C 30 %
410 07-12-2019 20:11:18 7.3 C 31 %
411 07-12-2019 20:21:17 7.3 C 31 %
412 07-12-2019 20:31:17 7.4 C 30 %
413 07-12-2019 20:41:17 7.6 C 30 %
414 07-12-2019 20:51:17 7.6 C 30 %
415 07-12-2019 21:01:17 7.5 C 30 %
416 07-12-2019 21:11:17 7.6 C 30 %
417 07-12-2019 21:21:17 8 C 28 %
418 07-12-2019 21:31:17 8.1 C 28 %
419 07-12-2019 21:41:17 8.2 C 28 %
420 07-12-2019 21:51:17 7.9 C 28 %
421 07-12-2019 22:01:17 8.2 C 28 %
422 07-12-2019 22:11:17 8.1 C 27 %
423 07-12-2019 22:21:17 7.8 C 28 %
424 07-12-2019 22:31:18 7.7 C 30 %
425 07-12-2019 22:41:18 7.6 C 30 %
Sensor: Nr:Datum:Temp:Feuchte:
Aussen-T/F 426 07-12-2019 22:51:17 7.5 C 31 %
427 07-12-2019 23:01:17 7.4 C 32 %
428 07-12-2019 23:11:17 7.6 C 31 %
429 07-12-2019 23:21:17 7.6 C 32 %
430 07-12-2019 23:31:17 7.5 C 32 %
431 07-12-2019 23:41:17 7.7 C 31 %
432 07-12-2019 23:51:18 7.9 C 28 %
433 08-12-2019 00:01:17 8.1 C 27 %
434 08-12-2019 00:11:17 8.9 C 23 %
435 08-12-2019 00:21:17 8.9 C 21 %
436 08-12-2019 00:31:18 9 C 21 %
437 08-12-2019 00:41:18 8.9 C 23 %
438 08-12-2019 00:51:17 8.5 C 25 %
439 08-12-2019 01:01:18 8.3 C 25 %
440 08-12-2019 01:11:18 8.5 C 25 %
441 08-12-2019 01:21:17 8.4 C 26 %
442 08-12-2019 01:31:17 8.9 C 25 %
443 08-12-2019 01:41:17 8.8 C 25 %
444 08-12-2019 01:51:18 9.2 C 20 %
445 08-12-2019 02:01:17 9.2 C 20 %
446 08-12-2019 02:11:17 8.9 C 20 %
447 08-12-2019 02:21:17 9 C 20 %
448 08-12-2019 02:31:17 9.1 C 20 %
449 08-12-2019 02:41:18 9 C 20 %
450 08-12-2019 02:51:17 9.1 C 20 %
Sensor: Nr:Datum:Temp:Feuchte:
Aussen-T/F 451 08-12-2019 03:01:17 9 C 20 %
452 08-12-2019 03:11:17 9.1 C 20 %
453 08-12-2019 03:21:17 9.1 C 20 %
454 08-12-2019 03:31:17 9.3 C 20 %
455 08-12-2019 03:41:17 9.3 C 20 %
456 08-12-2019 03:51:17 9.4 C 20 %
457 08-12-2019 04:01:17 9.7 C 20 %
458 08-12-2019 04:11:18 9.6 C 20 %
459 08-12-2019 04:21:17 9.5 C 20 %
460 08-12-2019 04:31:17 9.6 C 20 %
461 08-12-2019 04:41:17 9.6 C 20 %
462 08-12-2019 04:51:17 9.5 C 20 %
463 08-12-2019 05:01:17 9.6 C 20 %
464 08-12-2019 05:11:17 9.5 C 21 %
465 08-12-2019 05:21:17 9.5 C 21 %
466 08-12-2019 05:31:17 9.4 C 23 %
467 08-12-2019 05:41:17 9.5 C 23 %
468 08-12-2019 05:51:17 9.2 C 25 %
469 08-12-2019 06:01:17 9.3 C 25 %
470 08-12-2019 06:11:18 9.5 C 25 %
471 08-12-2019 06:21:17 9.9 C 21 %
472 08-12-2019 06:31:17 9.8 C 23 %
473 08-12-2019 06:41:17 9.7 C 25 %
474 08-12-2019 06:51:17 9.9 C 23 %
475 08-12-2019 07:01:18 10 C 21 %
Sensor: Nr:Datum:Temp:Feuchte:
Aussen-T/F 476 08-12-2019 07:11:18 10.1 C 20 %
477 08-12-2019 07:21:17 9.9 C 21 %
478 08-12-2019 07:31:17 10 C 21 %
479 08-12-2019 07:41:17 10.1 C 20 %
480 08-12-2019 07:51:17 10 C 20 %
481 08-12-2019 08:01:17 10 C 20 %
482 08-12-2019 08:11:17 10.2 C 20 %
483 08-12-2019 08:21:17 10.1 C 20 %
484 08-12-2019 08:31:17 10.3 C 21 %
485 08-12-2019 08:41:17 10.1 C 21 %
486 08-12-2019 08:51:17 10.3 C 21 %
487 08-12-2019 09:01:17 10.3 C 21 %
488 08-12-2019 09:11:17 10.1 C 21 %
489 08-12-2019 09:21:17 10.2 C 21 %
490 08-12-2019 09:31:17 10.3 C 21 %
491 08-12-2019 09:41:17 10.4 C 21 %
492 08-12-2019 09:51:17 10.4 C 21 %
493 08-12-2019 10:01:17 10.4 C 21 %
494 08-12-2019 10:11:17 10.5 C 21 %
495 08-12-2019 10:21:17 10.5 C 22 %
496 08-12-2019 10:31:17 10.5 C 22 %
497 08-12-2019 10:41:17 10.1 C 25 %
498 08-12-2019 10:51:17 10.2 C 25 %
499 08-12-2019 11:01:17 10.5 C 25 %
500 08-12-2019 11:11:17 10.6 C 23 %
Sensor: Nr:Datum:Temp:Feuchte:
Aussen-T/F 501 08-12-2019 11:21:17 10.8 C 23 %
502 08-12-2019 11:31:17 10.8 C 23 %
503 08-12-2019 11:41:17 10.8 C 22 %
504 08-12-2019 11:51:17 11 C 22 %
505 08-12-2019 12:01:18 11.1 C 22 %
506 08-12-2019 12:11:18 11.3 C 22 %
507 08-12-2019 12:21:17 11.4 C 22 %
508 08-12-2019 12:31:17 11.4 C 22 %
509 08-12-2019 12:41:17 11.4 C 23 %
510 08-12-2019 12:51:17 11.3 C 24 %
511 08-12-2019 13:01:18 11.5 C 24 %
512 08-12-2019 13:11:18 11.5 C 22 %
513 08-12-2019 13:21:17 11.3 C 25 %
514 08-12-2019 13:31:17 11.1 C 25 %
515 08-12-2019 13:41:17 11.4 C 25 %
516 08-12-2019 13:51:17 11.4 C 25 %
517 08-12-2019 14:01:17 11.5 C 25 %
518 08-12-2019 14:11:17 11.5 C 25 %
519 08-12-2019 14:21:17 11.5 C 25 %
520 08-12-2019 14:31:18 11.7 C 25 %
521 08-12-2019 14:41:18 11.7 C 25 %
522 08-12-2019 14:51:17 11.7 C 25 %
523 08-12-2019 15:01:18 11.8 C 25 %
524 08-12-2019 15:11:18 11.8 C 25 %
525 08-12-2019 15:21:18 11.7 C 25 %
Sensor: Nr:Datum:Temp:Feuchte:
Aussen-T/F 526 08-12-2019 15:31:18 11.7 C 25 %
527 08-12-2019 15:41:18 11.8 C 25 %
528 08-12-2019 15:51:17 11.8 C 25 %
529 08-12-2019 16:01:17 11.7 C 25 %
530 08-12-2019 16:11:17 11.8 C 25 %
531 08-12-2019 16:21:18 11.7 C 25 %
532 08-12-2019 16:31:18 11.6 C 26 %
533 08-12-2019 16:41:18 11.4 C 27 %
534 08-12-2019 16:51:17 9.4 C 31 %
535 08-12-2019 17:01:17 8.9 C 33 %
536 08-12-2019 17:11:17 8.8 C 33 %
537 08-12-2019 17:21:17 8.7 C 34 %
538 08-12-2019 17:31:17 9.2 C 27 %
539 08-12-2019 17:41:17 8.5 C 33 %
540 08-12-2019 17:51:17 8.5 C 33 %
541 08-12-2019 18:01:17 8.5 C 32 %
542 08-12-2019 18:11:17 8.6 C 31 %
543 08-12-2019 18:21:17 8.2 C 33 %
544 08-12-2019 18:31:18 8.5 C 29 %
545 08-12-2019 18:41:18 8.5 C 29 %
546 08-12-2019 18:51:17 8.6 C 28 %
547 08-12-2019 19:01:17 8.9 C 27 %
548 08-12-2019 19:11:17 8.5 C 28 %
549 08-12-2019 19:21:17 8.5 C 28 %
550 08-12-2019 19:31:17 8.6 C 27 %
Sensor: Nr:Datum:Temp:Feuchte:
Aussen-T/F 551 08-12-2019 19:41:17 8 C 31 %
552 08-12-2019 19:51:18 7.8 C 33 %
553 08-12-2019 20:01:17 7.5 C 36 %
554 08-12-2019 20:11:17 8.1 C 33 %
555 08-12-2019 20:21:17 8.2 C 30 %
556 08-12-2019 20:31:17 8.3 C 29 %
557 08-12-2019 20:41:17 8.5 C 28 %
558 08-12-2019 20:51:17 8.6 C 26 %
559 08-12-2019 21:01:18 8.8 C 26 %
560 08-12-2019 21:11:18 8.9 C 25 %
561 08-12-2019 21:21:17 8.4 C 26 %
562 08-12-2019 21:31:17 8.7 C 26 %
563 08-12-2019 21:41:17 8.4 C 26 %
564 08-12-2019 21:51:18 8.4 C 26 %
565 08-12-2019 22:01:17 8.5 C 26 %
566 08-12-2019 22:11:17 7.9 C 27 %
567 08-12-2019 22:21:17 8.1 C 26 %
568 08-12-2019 22:31:17 8.6 C 26 %
569 08-12-2019 22:41:17 8.8 C 26 %
570 08-12-2019 22:51:17 8.7 C 25 %
571 08-12-2019 23:01:17 8.8 C 25 %
572 08-12-2019 23:11:17 8.7 C 26 %
573 08-12-2019 23:21:17 8.8 C 25 %
574 08-12-2019 23:31:18 8.7 C 25 %
575 08-12-2019 23:41:18 8.5 C 25 %
Sensor: Nr:Datum:Temp:Feuchte:
Aussen-T/F 576 08-12-2019 23:51:17 8.4 C 21 %
577 09-12-2019 00:01:18 8.7 C 20 %
578 09-12-2019 00:11:18 8.1 C 21 %
579 09-12-2019 00:21:17 8.4 C 21 %
580 09-12-2019 00:31:17 8.4 C 21 %
581 09-12-2019 00:41:17 8.5 C 20 %
582 09-12-2019 00:51:17 8.4 C 20 %
583 09-12-2019 01:01:17 8.4 C 20 %
584 09-12-2019 01:11:17 8.5 C 20 %
585 09-12-2019 01:21:18 8.1 C 20 %
586 09-12-2019 01:31:17 8 C 20 %
587 09-12-2019 01:41:17 8.3 C 20 %
588 09-12-2019 01:51:17 8.2 C 20 %
589 09-12-2019 02:01:17 7.8 C 20 %
590 09-12-2019 02:11:17 7.6 C 20 %
591 09-12-2019 02:21:17 7.4 C 21 %
592 09-12-2019 02:31:18 7.4 C 21 %
593 09-12-2019 02:41:18 7.1 C 23 %
594 09-12-2019 02:51:18 7.5 C 20 %
595 09-12-2019 03:01:17 7.5 C 20 %
596 09-12-2019 03:11:17 7.5 C 20 %
597 09-12-2019 03:21:17 7.5 C 20 %
598 09-12-2019 03:31:17 7.3 C 20 %
599 09-12-2019 03:41:17 6.8 C 23 %
600 09-12-2019 03:51:17 7.3 C 21 %
Sensor: Nr:Datum:Temp:Feuchte:
Aussen-T/F 601 09-12-2019 04:01:17 7.3 C 20 %
602 09-12-2019 04:11:17 7.9 C 20 %
603 09-12-2019 04:21:18 8 C 20 %
604 09-12-2019 04:31:18 7.6 C 20 %
605 09-12-2019 04:41:18 7.4 C 21 %
606 09-12-2019 04:51:17 6.9 C 25 %
607 09-12-2019 05:01:17 6.9 C 25 %
608 09-12-2019 05:11:17 7.4 C 20 %
609 09-12-2019 05:21:17 7.5 C 20 %
610 09-12-2019 05:31:17 7.4 C 20 %
611 09-12-2019 05:41:18 7.1 C 20 %
612 09-12-2019 05:51:17 7.2 C 20 %
613 09-12-2019 06:01:17 7.4 C 20 %
614 09-12-2019 06:11:17 7.4 C 20 %
615 09-12-2019 06:21:17 7.4 C 20 %
616 09-12-2019 06:31:17 7.6 C 20 %
617 09-12-2019 06:41:17 7.8 C 20 %
618 09-12-2019 06:51:18 7.7 C 20 %
619 09-12-2019 07:01:17 7.6 C 20 %
620 09-12-2019 07:11:18 7.5 C 20 %
621 09-12-2019 07:21:17 7.2 C 20 %
622 09-12-2019 07:31:17 7.2 C 20 %
623 09-12-2019 07:41:17 7.6 C 20 %
624 09-12-2019 07:51:18 7.5 C 20 %
625 09-12-2019 08:01:17 7.9 C 20 %
Sensor: Nr:Datum:Temp:Feuchte:
Aussen-T/F 626 09-12-2019 08:11:17 7.8 C 20 %
627 09-12-2019 08:21:17 7.9 C 20 %
628 09-12-2019 08:31:17 8 C 20 %
629 09-12-2019 08:41:17 7.9 C 20 %
630 09-12-2019 08:51:17 7.9 C 20 %
631 09-12-2019 09:01:17 7.8 C 20 %
632 09-12-2019 09:11:17 7.9 C 20 %
633 09-12-2019 09:21:17 7.5 C 20 %
634 09-12-2019 09:31:17 7.4 C 23 %
635 09-12-2019 09:41:17 7.5 C 21 %
636 09-12-2019 09:51:17 7.7 C 21 %
637 09-12-2019 10:01:17 7.9 C 21 %
638 09-12-2019 10:11:17 7.9 C 21 %
639 09-12-2019 10:21:17 7.9 C 20 %
640 09-12-2019 10:31:18 7.9 C 21 %
641 09-12-2019 10:41:18 7.9 C 21 %
642 09-12-2019 10:51:17 8.1 C 20 %
643 09-12-2019 11:01:17 8 C 20 %
644 09-12-2019 11:11:17 8.2 C 20 %
645 09-12-2019 11:21:17 8.4 C 20 %
646 09-12-2019 11:31:18 8.4 C 20 %
647 09-12-2019 11:41:18 8.3 C 20 %
648 09-12-2019 11:51:17 8.1 C 20 %
649 09-12-2019 12:01:17 8.2 C 20 %
650 09-12-2019 12:11:17 8 C 20 %
Sensor: Nr:Datum:Temp:Feuchte:
Aussen-T/F 651 09-12-2019 12:21:18 8.1 C 20 %
652 09-12-2019 12:31:17 8.3 C 20 %
653 09-12-2019 12:41:17 8.2 C 20 %
654 09-12-2019 12:51:17 8.3 C 20 %
655 09-12-2019 13:01:18 8.3 C 20 %
656 09-12-2019 13:11:18 8.3 C 20 %
657 09-12-2019 13:21:17 8.2 C 20 %
658 09-12-2019 13:31:17 8.1 C 20 %
659 09-12-2019 13:41:17 8.5 C 20 %
660 09-12-2019 13:51:17 8.8 C 20 %
661 09-12-2019 14:01:17 8.6 C 20 %
662 09-12-2019 14:11:17 8.5 C 20 %
663 09-12-2019 14:21:17 8.6 C 20 %
664 09-12-2019 14:31:17 8.4 C 20 %
665 09-12-2019 14:41:17 7.9 C 20 %
666 09-12-2019 14:51:18 8.4 C 20 %
667 09-12-2019 15:01:17 7.9 C 20 %
668 09-12-2019 15:11:17 7.3 C 25 %
669 09-12-2019 15:21:17 7 C 27 %
670 09-12-2019 15:31:18 7.1 C 26 %
671 09-12-2019 15:41:18 7.1 C 25 %
672 09-12-2019 15:51:17 7.4 C 23 %
673 09-12-2019 16:01:18 7.5 C 20 %
674 09-12-2019 16:11:18 7.5 C 20 %
675 09-12-2019 16:21:17 7.6 C 20 %
Sensor: Nr:Datum:Temp:Feuchte:
Aussen-T/F 676 09-12-2019 16:31:18 7.3 C 20 %
677 09-12-2019 16:41:18 7.4 C 20 %
678 09-12-2019 16:51:17 7.3 C 20 %
679 09-12-2019 17:01:18 7.1 C 20 %
680 09-12-2019 17:11:18 7.2 C 20 %
681 09-12-2019 17:21:17 6.7 C 25 %
682 09-12-2019 17:31:17 6.1 C 32 %
683 09-12-2019 17:41:17 5.9 C 36 %
684 09-12-2019 17:51:17 6 C 34 %
685 09-12-2019 18:01:18 6 C 30 %
686 09-12-2019 18:11:18 6.1 C 31 %
687 09-12-2019 18:21:17 6 C 33 %
688 09-12-2019 18:31:17 5.8 C 35 %
689 09-12-2019 18:41:17 5.7 C 37 %
690 09-12-2019 18:51:18 5.7 C 38 %
691 09-12-2019 19:01:17 5.6 C 35 %
692 09-12-2019 19:11:17 5.5 C 38 %
693 09-12-2019 19:21:17 5.6 C 39 %
694 09-12-2019 19:31:17 5.6 C 38 %
695 09-12-2019 19:41:17 5.6 C 38 %
696 09-12-2019 19:51:17 5.6 C 37 %
697 09-12-2019 20:01:17 5.6 C 35 %
698 09-12-2019 20:11:17 5.6 C 34 %
699 09-12-2019 20:21:17 5.6 C 35 %
700 09-12-2019 20:31:17 5.6 C 32 %
Sensor: Nr:Datum:Temp:Feuchte:
Aussen-T/F 701 09-12-2019 20:41:17 5.4 C 33 %
702 09-12-2019 20:51:17 5.3 C 34 %
703 09-12-2019 21:01:17 5.2 C 33 %
704 09-12-2019 21:11:18 5.1 C 34 %
705 09-12-2019 21:21:17 5.2 C 35 %
706 09-12-2019 21:31:17 5.3 C 32 %
707 09-12-2019 21:41:17 5.1 C 31 %
708 09-12-2019 21:51:17 5 C 31 %
709 09-12-2019 22:01:17 4.8 C 32 %
710 09-12-2019 22:11:17 4.7 C 31 %
711 09-12-2019 22:21:17 4.9 C 30 %
712 09-12-2019 22:31:17 4.9 C 30 %
713 09-12-2019 22:41:17 4.9 C 30 %
714 09-12-2019 22:51:18 4.7 C 30 %
715 09-12-2019 23:01:17 4.6 C 29 %
716 09-12-2019 23:11:17 4.5 C 29 %
717 09-12-2019 23:21:17 4.1 C 30 %
718 09-12-2019 23:31:18 4 C 30 %
719 09-12-2019 23:41:18 4.1 C 29 %
720 09-12-2019 23:51:17 4.1 C 29 %
721 10-12-2019 00:01:17 3.7 C 30 %
722 10-12-2019 00:11:17 4.1 C 28 %
723 10-12-2019 00:21:17 3.4 C 30 %
724 10-12-2019 00:31:17 3.6 C 30 %
725 10-12-2019 00:41:17 3.1 C 31 %
Sensor: Nr:Datum:Temp:Feuchte:
Aussen-T/F 726 10-12-2019 00:51:17 3 C 31 %
727 10-12-2019 01:01:17 2.4 C 33 %
728 10-12-2019 01:11:17 2.4 C 36 %
729 10-12-2019 01:21:17 2.5 C 36 %
730 10-12-2019 01:31:18 2.8 C 34 %
731 10-12-2019 01:41:18 2.4 C 34 %
732 10-12-2019 01:51:17 2.4 C 33 %
733 10-12-2019 02:01:18 2.7 C 33 %
734 10-12-2019 02:11:18 2.9 C 32 %
735 10-12-2019 02:21:17 2.3 C 33 %
736 10-12-2019 02:31:17 2.1 C 35 %
737 10-12-2019 02:41:17 1.7 C 37 %
738 10-12-2019 02:51:17 1.6 C 39 %
739 10-12-2019 03:01:17 1.8 C 40 %
740 10-12-2019 03:11:17 1.8 C 40 %
741 10-12-2019 03:21:17 1.8 C 40 %
742 10-12-2019 03:31:17 2 C 40 %
743 10-12-2019 03:41:17 1.4 C 41 %
744 10-12-2019 03:51:17 1.4 C 43 %
745 10-12-2019 04:01:17 1.1 C 43 %
746 10-12-2019 04:11:17 1.3 C 41 %
747 10-12-2019 04:21:17 0.6 C 41 %
748 10-12-2019 04:31:18 0.6 C 44 %
749 10-12-2019 04:41:18 0.7 C 45 %
750 10-12-2019 04:51:17 0.9 C 46 %
Sensor: Nr:Datum:Temp:Feuchte:
Aussen-T/F 751 10-12-2019 05:01:17 1.1 C 44 %
752 10-12-2019 05:11:17 1.8 C 41 %
753 10-12-2019 05:21:18 2.2 C 35 %
754 10-12-2019 05:31:18 2 C 35 %
755 10-12-2019 05:41:18 2 C 35 %
756 10-12-2019 05:51:17 1.8 C 36 %
757 10-12-2019 06:01:17 1.5 C 36 %
758 10-12-2019 06:11:17 1.6 C 37 %
759 10-12-2019 06:21:18 1.4 C 36 %
760 10-12-2019 06:31:17 1.1 C 38 %
761 10-12-2019 06:41:17 0.9 C 42 %
762 10-12-2019 06:51:17 1.2 C 42 %
763 10-12-2019 07:01:18 1.3 C 40 %
764 10-12-2019 07:11:18 1.5 C 40 %
765 10-12-2019 07:21:17 1.7 C 36 %
766 10-12-2019 07:31:17 1.2 C 37 %
767 10-12-2019 07:41:17 0.8 C 41 %
768 10-12-2019 07:51:17 0.8 C 41 %
769 10-12-2019 08:01:17 0.7 C 41 %
770 10-12-2019 08:11:17 0.8 C 41 %
771 10-12-2019 08:21:17 0.4 C 42 %
772 10-12-2019 08:31:18 0.6 C 42 %
773 10-12-2019 08:41:18 0.4 C 42 %
774 10-12-2019 08:51:17 0.4 C 43 %
775 10-12-2019 09:01:17 0.1 C 42 %
Sensor: Nr:Datum:Temp:Feuchte:
Aussen-T/F 776 10-12-2019 09:11:17 0.5 C 44 %
777 10-12-2019 09:21:17 0.8 C 44 %
778 10-12-2019 09:31:17 1.4 C 42 %
779 10-12-2019 09:41:17 1.7 C 39 %
780 10-12-2019 09:51:17 1.8 C 39 %
781 10-12-2019 10:01:17 2.2 C 36 %
782 10-12-2019 10:11:17 2.5 C 35 %
783 10-12-2019 10:21:17 2.7 C 33 %
784 10-12-2019 10:31:17 2.7 C 33 %
785 10-12-2019 10:41:17 2.5 C 33 %
786 10-12-2019 10:51:17 2.4 C 35 %
787 10-12-2019 11:01:17 2.4 C 34 %
788 10-12-2019 11:11:17 2.5 C 34 %
789 10-12-2019 11:21:17 2.3 C 35 %
790 10-12-2019 11:31:18 2.2 C 36 %
791 10-12-2019 11:41:18 2.9 C 34 %
792 10-12-2019 11:51:17 3.5 C 30 %
793 10-12-2019 12:01:17 3.7 C 30 %
794 10-12-2019 12:11:17 3.8 C 30 %
795 10-12-2019 12:21:17 3.9 C 30 %
796 10-12-2019 12:31:17 3.9 C 30 %
797 10-12-2019 12:41:17 4.3 C 27 %
798 10-12-2019 12:51:17 4.5 C 27 %
799 10-12-2019 13:01:17 4.6 C 27 %
800 10-12-2019 13:11:17 4.7 C 27 %
Sensor: Nr:Datum:Temp:Feuchte:
Aussen-T/F 801 10-12-2019 13:21:17 4.7 C 27 %
802 10-12-2019 13:31:17 4.9 C 27 %
803 10-12-2019 13:41:17 5.1 C 25 %
804 10-12-2019 13:51:17 5 C 25 %
805 10-12-2019 14:01:17 4.6 C 27 %
806 10-12-2019 14:11:17 4.2 C 28 %
807 10-12-2019 14:21:17 3.8 C 30 %
808 10-12-2019 14:31:18 3.9 C 30 %
809 10-12-2019 14:41:18 3.8 C 30 %
810 10-12-2019 14:51:17 3.5 C 30 %
811 10-12-2019 15:01:17 3.5 C 30 %
812 10-12-2019 15:11:17 3.3 C 31 %
813 10-12-2019 15:21:17 3.2 C 31 %
814 10-12-2019 15:31:17 3.1 C 31 %
815 10-12-2019 15:41:18 3.2 C 31 %
816 10-12-2019 15:51:17 2.9 C 31 %
817 10-12-2019 16:01:17 2.4 C 32 %
818 10-12-2019 16:11:17 3.1 C 31 %
819 10-12-2019 16:21:17 3.4 C 30 %
820 10-12-2019 16:31:17 3.5 C 28 %
821 10-12-2019 16:41:17 3.3 C 28 %
822 10-12-2019 16:51:17 3.3 C 26 %
823 10-12-2019 17:01:17 2.8 C 27 %
824 10-12-2019 17:11:17 2.7 C 27 %
825 10-12-2019 17:21:18 2.7 C 27 %
Sensor: Nr:Datum:Temp:Feuchte:
Aussen-T/F 826 10-12-2019 17:31:17 2.7 C 27 %
827 10-12-2019 17:41:17 2.6 C 27 %
828 10-12-2019 17:51:17 2.4 C 28 %
829 10-12-2019 18:01:17 2.3 C 27 %
830 10-12-2019 18:11:17 1.7 C 31 %
831 10-12-2019 18:21:17 1.9 C 32 %
832 10-12-2019 18:31:17 1.8 C 33 %
833 10-12-2019 18:41:17 1.7 C 34 %
834 10-12-2019 18:51:17 1.6 C 35 %
835 10-12-2019 19:01:17 1.5 C 36 %
836 10-12-2019 19:11:17 1.5 C 36 %
837 10-12-2019 19:21:17 1.6 C 36 %
838 10-12-2019 19:31:17 1.5 C 36 %
839 10-12-2019 19:41:18 1.7 C 36 %
840 10-12-2019 19:51:17 1.7 C 35 %
841 10-12-2019 20:01:17 2.2 C 32 %
842 10-12-2019 20:11:17 2.1 C 32 %
843 10-12-2019 20:21:17 2.7 C 29 %
844 10-12-2019 20:31:18 2.9 C 28 %
845 10-12-2019 20:41:18 2.6 C 30 %
846 10-12-2019 20:51:17 2.3 C 30 %
847 10-12-2019 21:01:17 2.5 C 31 %
848 10-12-2019 21:11:17 2.3 C 31 %
849 10-12-2019 21:21:17 2.1 C 32 %
850 10-12-2019 21:31:17 2 C 33 %
Sensor: Nr:Datum:Temp:Feuchte:
Aussen-T/F 851 10-12-2019 21:41:18 1.8 C 35 %
852 10-12-2019 21:51:17 1.8 C 36 %
853 10-12-2019 22:01:17 1.8 C 36 %
854 10-12-2019 22:11:17 2.1 C 35 %
855 10-12-2019 22:21:17 2.2 C 34 %
856 10-12-2019 22:31:17 2.4 C 32 %
857 10-12-2019 22:41:17 2.5 C 33 %
858 10-12-2019 22:51:18 2.8 C 31 %
859 10-12-2019 23:01:17 2.9 C 30 %
860 10-12-2019 23:11:17 3 C 30 %
861 10-12-2019 23:21:17 3 C 30 %
862 10-12-2019 23:31:17 2.9 C 31 %
863 10-12-2019 23:41:17 3.3 C 28 %
864 10-12-2019 23:51:17 3.3 C 30 %
865 11-12-2019 00:01:18 3.2 C 30 %
866 11-12-2019 00:11:18 3.3 C 29 %
867 11-12-2019 00:21:17 3.4 C 28 %
868 11-12-2019 00:31:17 3.4 C 29 %
869 11-12-2019 00:41:17 3.5 C 27 %
870 11-12-2019 00:51:17 3.4 C 27 %
871 11-12-2019 01:01:17 3.5 C 25 %
872 11-12-2019 01:11:17 3.4 C 27 %
873 11-12-2019 01:21:18 3.4 C 28 %
874 11-12-2019 01:31:17 3.4 C 29 %
875 11-12-2019 01:41:17 3.2 C 30 %
Sensor: Nr:Datum:Temp:Feuchte:
Aussen-T/F 876 11-12-2019 01:51:17 3.1 C 32 %
877 11-12-2019 02:01:17 3 C 33 %
878 11-12-2019 02:11:17 2.9 C 33 %
879 11-12-2019 02:21:17 2.9 C 32 %
880 11-12-2019 02:31:18 2.8 C 34 %
881 11-12-2019 02:41:18 2.9 C 31 %
882 11-12-2019 02:51:17 3 C 30 %
883 11-12-2019 03:01:18 3.1 C 30 %
884 11-12-2019 03:11:18 3 C 32 %
885 11-12-2019 03:21:17 2.9 C 30 %
886 11-12-2019 03:31:17 3 C 30 %
887 11-12-2019 03:41:17 3 C 35 %
888 11-12-2019 03:51:17 2.8 C 36 %
889 11-12-2019 04:01:17 2.7 C 35 %
890 11-12-2019 04:11:17 2.8 C 35 %
891 11-12-2019 04:21:17 2.8 C 35 %
892 11-12-2019 04:31:18 2.8 C 38 %
893 11-12-2019 04:41:18 2.7 C 38 %
894 11-12-2019 04:51:17 2.7 C 39 %
895 11-12-2019 05:01:17 2.7 C 39 %
896 11-12-2019 05:11:17 2.7 C 39 %
897 11-12-2019 05:21:18 2.7 C 40 %
898 11-12-2019 05:31:17 2.6 C 42 %
899 11-12-2019 05:41:17 2.6 C 43 %
900 11-12-2019 05:51:17 2.5 C 44 %
Sensor: Nr:Datum:Temp:Feuchte:
Aussen-T/F 901 11-12-2019 06:01:18 2.5 C 44 %
902 11-12-2019 06:11:18 2.5 C 44 %
903 11-12-2019 06:21:17 2.5 C 44 %
904 11-12-2019 06:31:17 2.5 C 44 %
905 11-12-2019 06:41:17 2.5 C 44 %
906 11-12-2019 06:51:17 2.5 C 44 %
907 11-12-2019 07:01:17 2.4 C 44 %
908 11-12-2019 07:11:17 2.5 C 44 %
909 11-12-2019 07:21:17 2.4 C 44 %
910 11-12-2019 07:31:17 2.4 C 44 %
911 11-12-2019 07:41:18 2.4 C 43 %
912 11-12-2019 07:51:17 2.4 C 43 %
913 11-12-2019 08:01:17 2.4 C 43 %
914 11-12-2019 08:11:17 2.4 C 43 %
915 11-12-2019 08:21:17 2.4 C 43 %
916 11-12-2019 08:31:18 2.3 C 43 %
917 11-12-2019 08:41:18 2.3 C 43 %
918 11-12-2019 08:51:17 2.3 C 43 %
919 11-12-2019 09:01:18 2.3 C 43 %
920 11-12-2019 09:11:18 2.4 C 43 %
921 11-12-2019 09:21:17 2.5 C 43 %
922 11-12-2019 09:31:17 2.5 C 43 %
923 11-12-2019 09:41:17 2.5 C 43 %
924 11-12-2019 09:51:17 2.5 C 43 %
925 11-12-2019 10:01:17 2.6 C 43 %
Sensor: Nr:Datum:Temp:Feuchte:
Aussen-T/F 926 11-12-2019 10:11:17 2.7 C 43 %
927 11-12-2019 10:21:17 2.7 C 42 %
928 11-12-2019 10:31:17 2.7 C 42 %
929 11-12-2019 10:41:17 2.8 C 41 %
930 11-12-2019 10:51:17 3.1 C 40 %
931 11-12-2019 11:01:17 3 C 39 %
932 11-12-2019 11:11:17 3.1 C 39 %
933 11-12-2019 11:21:17 3.2 C 39 %
934 11-12-2019 11:31:17 3.1 C 38 %
935 11-12-2019 11:41:17 3.1 C 38 %
936 11-12-2019 11:51:17 3.2 C 39 %
937 11-12-2019 12:01:18 3.2 C 39 %
938 11-12-2019 12:11:18 3.1 C 39 %
939 11-12-2019 12:21:17 3.1 C 39 %
940 11-12-2019 12:31:17 3.1 C 40 %
941 11-12-2019 12:41:17 3.1 C 40 %
942 11-12-2019 12:51:17 3.1 C 40 %
943 11-12-2019 13:01:18 3.2 C 40 %
944 11-12-2019 13:11:18 3.2 C 40 %
945 11-12-2019 13:21:17 3.2 C 40 %
946 11-12-2019 13:31:17 3.2 C 40 %
947 11-12-2019 13:41:17 3.2 C 40 %
948 11-12-2019 13:51:17 3.2 C 40 %
949 11-12-2019 14:01:17 3.2 C 41 %
950 11-12-2019 14:11:18 3.2 C 41 %
Sensor: Nr:Datum:Temp:Feuchte:
Aussen-T/F 951 11-12-2019 14:21:17 3.2 C 41 %
952 11-12-2019 14:31:17 3.3 C 41 %
953 11-12-2019 14:41:17 3.3 C 42 %
954 11-12-2019 14:51:17 3.3 C 42 %
955 11-12-2019 15:01:17 3.3 C 42 %
956 11-12-2019 15:11:17 3.4 C 42 %
957 11-12-2019 15:21:17 3.3 C 42 %
958 11-12-2019 15:31:18 3.3 C 42 %
959 11-12-2019 15:41:18 3.3 C 42 %
960 11-12-2019 15:51:17 3.3 C 42 %
961 11-12-2019 16:01:17 3.2 C 42 %
962 11-12-2019 16:11:17 3.2 C 42 %
963 11-12-2019 16:21:17 3.2 C 42 %
964 11-12-2019 16:31:17 3.2 C 42 %
965 11-12-2019 16:41:17 3.1 C 42 %
966 11-12-2019 16:51:17 3.1 C 42 %
967 11-12-2019 17:01:17 3.1 C 43 %
968 11-12-2019 17:11:17 3.1 C 42 %
969 11-12-2019 17:21:17 3.1 C 42 %
970 11-12-2019 17:31:17 3.1 C 42 %
971 11-12-2019 17:41:17 3.1 C 42 %
972 11-12-2019 17:51:18 3.2 C 43 %
973 11-12-2019 18:01:17 3.2 C 43 %
974 11-12-2019 18:11:17 3.3 C 43 %
975 11-12-2019 18:21:17 3.3 C 43 %
Sensor: Nr:Datum:Temp:Feuchte:
Aussen-T/F 976 11-12-2019 18:31:18 3.4 C 43 %
977 11-12-2019 18:41:18 3.4 C 43 %
978 11-12-2019 18:51:17 3.5 C 43 %
979 11-12-2019 19:01:17 3.5 C 42 %
980 11-12-2019 19:11:17 3.5 C 42 %
981 11-12-2019 19:21:18 3.5 C 42 %
982 11-12-2019 19:31:17 3.5 C 42 %
983 11-12-2019 19:41:17 3.6 C 42 %
984 11-12-2019 19:51:18 3.6 C 42 %
985 11-12-2019 20:01:17 3.6 C 42 %
986 11-12-2019 20:11:17 3.7 C 42 %
987 11-12-2019 20:21:17 3.8 C 42 %
988 11-12-2019 20:31:18 3.8 C 42 %
989 11-12-2019 20:41:18 3.9 C 42 %
990 11-12-2019 20:51:17 4.1 C 41 %
991 11-12-2019 21:01:17 4.1 C 40 %
992 11-12-2019 21:11:17 4.3 C 39 %
993 11-12-2019 21:21:17 4.4 C 37 %
994 11-12-2019 21:31:17 4.1 C 37 %
995 11-12-2019 21:41:17 4.3 C 37 %
996 11-12-2019 21:51:17 4.3 C 36 %
997 11-12-2019 22:01:17 4.5 C 35 %
998 11-12-2019 22:11:17 4.1 C 35 %
999 11-12-2019 22:21:17 3.9 C 37 %
1000 11-12-2019 22:31:17 3.6 C 39 %
Sensor: Nr:Datum:Temp:Feuchte:
Aussen-T/F 1001 11-12-2019 22:41:17 3.8 C 39 %
1002 11-12-2019 22:51:18 3.5 C 40 %
1003 11-12-2019 23:01:17 3.8 C 40 %
1004 11-12-2019 23:11:17 3.8 C 40 %
1005 11-12-2019 23:21:17 3.4 C 40 %
1006 11-12-2019 23:31:17 3 C 41 %
1007 11-12-2019 23:41:17 3.4 C 43 %
1008 11-12-2019 23:51:18 3.2 C 42 %
1009 12-12-2019 00:01:17 3 C 42 %
1010 12-12-2019 00:11:17 2.9 C 43 %
1011 12-12-2019 00:21:17 2.8 C 43 %
1012 12-12-2019 00:31:17 2.5 C 43 %
1013 12-12-2019 00:41:17 2.4 C 43 %
1014 12-12-2019 00:51:17 2.3 C 43 %
1015 12-12-2019 01:01:17 2.7 C 44 %
1016 12-12-2019 01:11:17 2.8 C 44 %
1017 12-12-2019 01:21:18 2.6 C 43 %
1018 12-12-2019 01:31:17 2.2 C 43 %
1019 12-12-2019 01:41:17 2.5 C 43 %
1020 12-12-2019 01:51:18 2.1 C 43 %
1021 12-12-2019 02:01:17 1.8 C 44 %
1022 12-12-2019 02:11:17 1.6 C 44 %
1023 12-12-2019 02:21:17 1.7 C 44 %
1024 12-12-2019 02:31:18 1.6 C 44 %
1025 12-12-2019 02:41:18 2 C 43 %
Sensor: Nr:Datum:Temp:Feuchte:
Aussen-T/F 1026 12-12-2019 02:51:17 2 C 43 %
1027 12-12-2019 03:01:17 2.3 C 43 %
1028 12-12-2019 03:11:17 2.4 C 43 %
1029 12-12-2019 03:21:17 2.5 C 43 %
1030 12-12-2019 03:31:17 2.4 C 43 %
1031 12-12-2019 03:41:17 2.5 C 43 %
1032 12-12-2019 03:51:17 2.7 C 43 %
1033 12-12-2019 04:01:17 2.6 C 43 %
1034 12-12-2019 04:11:17 2.7 C 43 %
1035 12-12-2019 04:21:17 2.8 C 43 %
1036 12-12-2019 04:31:17 2.8 C 43 %
1037 12-12-2019 04:41:17 2.9 C 43 %
1038 12-12-2019 04:51:17 2.4 C 42 %
1039 12-12-2019 05:01:17 2 C 42 %
1040 12-12-2019 05:11:17 2.1 C 42 %
1041 12-12-2019 05:21:17 2.2 C 42 %
1042 12-12-2019 05:31:18 2.1 C 42 %
1043 12-12-2019 05:41:18 2.1 C 42 %
1044 12-12-2019 05:51:17 2.1 C 42 %
1045 12-12-2019 06:01:17 1.9 C 43 %
1046 12-12-2019 06:11:17 2 C 42 %
1047 12-12-2019 06:21:17 2.1 C 42 %
1048 12-12-2019 06:31:17 2.1 C 42 %
1049 12-12-2019 06:41:17 2.3 C 42 %
1050 12-12-2019 06:51:17 2.7 C 43 %
Sensor: Nr:Datum:Temp:Feuchte:
Aussen-T/F 1051 12-12-2019 07:01:17 3 C 42 %
1052 12-12-2019 07:11:17 3 C 42 %
1053 12-12-2019 07:21:17 3 C 42 %
1054 12-12-2019 07:31:17 3 C 42 %
1055 12-12-2019 07:41:17 2.8 C 42 %
1056 12-12-2019 07:51:17 2.9 C 42 %
1057 12-12-2019 08:01:17 2.9 C 42 %
1058 12-12-2019 08:11:17 3.1 C 42 %
1059 12-12-2019 08:21:17 3.2 C 42 %
1060 12-12-2019 08:31:18 3.3 C 42 %
1061 12-12-2019 08:41:18 3.5 C 42 %
1062 12-12-2019 08:51:17 3.5 C 42 %
1063 12-12-2019 09:01:18 3.5 C 42 %
1064 12-12-2019 09:11:18 3.6 C 42 %
1065 12-12-2019 09:21:17 3.9 C 42 %
1066 12-12-2019 09:31:17 3.9 C 42 %
1067 12-12-2019 09:41:17 3.7 C 41 %
1068 12-12-2019 09:51:17 3.5 C 41 %
1069 12-12-2019 10:01:17 3.9 C 41 %
1070 12-12-2019 10:11:17 4 C 40 %
1071 12-12-2019 10:21:18 4.4 C 37 %
1072 12-12-2019 10:31:17 4.6 C 35 %
1073 12-12-2019 10:41:17 4.7 C 32 %
1074 12-12-2019 10:51:17 4.8 C 31 %
1075 12-12-2019 11:01:18 4.7 C 32 %
Sensor: Nr:Datum:Temp:Feuchte:
Aussen-T/F 1076 12-12-2019 11:11:18 4.6 C 31 %
1077 12-12-2019 11:21:17 4.4 C 31 %
1078 12-12-2019 11:31:17 4.4 C 32 %
1079 12-12-2019 11:41:17 4.7 C 31 %
1080 12-12-2019 11:51:18 4.9 C 29 %
1081 12-12-2019 12:01:17 5.1 C 29 %
1082 12-12-2019 12:11:17 5.1 C 27 %
1083 12-12-2019 12:21:17 5 C 26 %
1084 12-12-2019 12:31:18 4.7 C 27 %
1085 12-12-2019 12:41:18 4.7 C 28 %
1086 12-12-2019 12:51:17 4.7 C 27 %
1087 12-12-2019 13:01:17 4.6 C 28 %
1088 12-12-2019 13:11:18 5 C 26 %
1089 12-12-2019 13:21:17 4.8 C 27 %
1090 12-12-2019 13:31:17 4.6 C 26 %
1091 12-12-2019 13:41:17 4.2 C 26 %
1092 12-12-2019 13:51:17 4.6 C 25 %
1093 12-12-2019 14:01:17 4.6 C 25 %
1094 12-12-2019 14:11:17 4.3 C 25 %
1095 12-12-2019 14:21:17 4 C 27 %
1096 12-12-2019 14:31:18 4.5 C 25 %
1097 12-12-2019 14:41:18 4.8 C 25 %
1098 12-12-2019 14:51:17 4.7 C 25 %
1099 12-12-2019 15:01:18 4 C 26 %
1100 12-12-2019 15:11:18 4.2 C 26 %
Sensor: Nr:Datum:Temp:Feuchte:
Aussen-T/F 1101 12-12-2019 15:21:17 3.6 C 29 %
1102 12-12-2019 15:31:17 3.5 C 29 %
1103 12-12-2019 15:41:17 3.8 C 28 %
1104 12-12-2019 15:51:17 3.7 C 28 %
1105 12-12-2019 16:01:17 3.6 C 28 %
1106 12-12-2019 16:11:17 3.7 C 26 %
1107 12-12-2019 16:21:18 3.5 C 27 %
1108 12-12-2019 16:31:17 3.4 C 26 %
1109 12-12-2019 16:41:17 3.3 C 28 %
1110 12-12-2019 16:51:17 3.1 C 30 %
1111 12-12-2019 17:01:17 2.6 C 30 %
1112 12-12-2019 17:11:17 1.7 C 35 %
1113 12-12-2019 17:21:17 1.2 C 36 %
1114 12-12-2019 17:31:17 1.1 C 38 %
1115 12-12-2019 17:41:17 0.9 C 41 %
1116 12-12-2019 17:51:17 1 C 40 %
1117 12-12-2019 18:01:17 1.1 C 40 %
1118 12-12-2019 18:11:17 1.1 C 40 %
1119 12-12-2019 18:21:17 1.1 C 40 %
1120 12-12-2019 18:31:17 1 C 40 %
1121 12-12-2019 18:41:17 0.9 C 41 %
1122 12-12-2019 18:51:17 0.7 C 41 %
1123 12-12-2019 19:01:17 0.7 C 41 %
1124 12-12-2019 19:11:17 0.6 C 41 %
1125 12-12-2019 19:21:17 0.6 C 42 %
Sensor: Nr:Datum:Temp:Feuchte:
Aussen-T/F 1126 12-12-2019 19:31:17 0.6 C 42 %
1127 12-12-2019 19:41:17 0.7 C 42 %
1128 12-12-2019 19:51:17 0.7 C 41 %
1129 12-12-2019 20:01:17 0.6 C 41 %
1130 12-12-2019 20:11:17 0.6 C 41 %
1131 12-12-2019 20:21:17 0.6 C 41 %
1132 12-12-2019 20:31:17 0.6 C 41 %
1133 12-12-2019 20:41:17 0.6 C 41 %
1134 12-12-2019 20:51:17 1.3 C 42 %
1135 12-12-2019 21:01:17 1.6 C 38 %
1136 12-12-2019 21:11:17 1.6 C 36 %
1137 12-12-2019 21:21:17 1.3 C 36 %
1138 12-12-2019 21:31:17 1.3 C 35 %
1139 12-12-2019 21:41:17 1 C 35 %
1140 12-12-2019 21:51:17 0.7 C 37 %
1141 12-12-2019 22:01:17 1.2 C 37 %
1142 12-12-2019 22:11:17 0.9 C 37 %
1143 12-12-2019 22:21:18 0.4 C 38 %
1144 12-12-2019 22:31:17 0.3 C 39 %
1145 12-12-2019 22:41:17 0.2 C 40 %
1146 12-12-2019 22:51:17 0.4 C 39 %
1147 12-12-2019 23:01:18 1.1 C 37 %
1148 12-12-2019 23:11:18 1.5 C 35 %
1149 12-12-2019 23:21:17 1.9 C 32 %
1150 12-12-2019 23:31:17 1.6 C 31 %
Sensor: Nr:Datum:Temp:Feuchte:
Aussen-T/F 1151 12-12-2019 23:41:17 1.4 C 32 %
1152 12-12-2019 23:51:17 1.5 C 31 %
1153 13-12-2019 00:01:17 0.9 C 33 %
1154 13-12-2019 00:11:17 0.6 C 35 %
1155 13-12-2019 00:21:17 1 C 33 %
1156 13-12-2019 00:31:18 0.7 C 34 %
1157 13-12-2019 00:41:18 0.9 C 35 %
1158 13-12-2019 00:51:17 1.3 C 32 %
1159 13-12-2019 01:01:18 1.7 C 30 %
1160 13-12-2019 01:11:18 1.8 C 29 %
1161 13-12-2019 01:21:17 2 C 27 %
1162 13-12-2019 01:31:17 1.9 C 28 %
1163 13-12-2019 01:41:17 2 C 27 %
1164 13-12-2019 01:51:17 2 C 27 %
1165 13-12-2019 02:01:18 1.9 C 29 %
1166 13-12-2019 02:11:18 2 C 27 %
1167 13-12-2019 02:21:17 2 C 27 %
1168 13-12-2019 02:31:17 2 C 27 %
1169 13-12-2019 02:41:17 2 C 27 %
1170 13-12-2019 02:51:17 2 C 27 %
1171 13-12-2019 03:01:17 1.8 C 29 %
1172 13-12-2019 03:11:17 1.8 C 30 %
1173 13-12-2019 03:21:17 1.7 C 30 %
1174 13-12-2019 03:31:17 1.6 C 30 %
1175 13-12-2019 03:41:17 1.7 C 30 %
Sensor: Nr:Datum:Temp:Feuchte:
Aussen-T/F 1176 13-12-2019 03:51:17 1.6 C 31 %
1177 13-12-2019 04:01:17 1.4 C 32 %
1178 13-12-2019 04:11:17 1.5 C 32 %
1179 13-12-2019 04:21:17 1.6 C 32 %
1180 13-12-2019 04:31:17 1.6 C 32 %
1181 13-12-2019 04:41:17 1.6 C 32 %
1182 13-12-2019 04:51:17 1.4 C 34 %
1183 13-12-2019 05:01:17 1.4 C 35 %
1184 13-12-2019 05:11:17 1.5 C 34 %
1185 13-12-2019 05:21:17 1.5 C 34 %
1186 13-12-2019 05:31:18 1.7 C 33 %
1187 13-12-2019 05:41:18 1.7 C 32 %
1188 13-12-2019 05:51:17 1.8 C 33 %
1189 13-12-2019 06:01:17 1.9 C 32 %
1190 13-12-2019 06:11:17 2 C 31 %
1191 13-12-2019 06:21:17 2 C 31 %
1192 13-12-2019 06:31:17 2 C 32 %
1193 13-12-2019 06:41:17 1.7 C 35 %
1194 13-12-2019 06:51:17 1.8 C 37 %
1195 13-12-2019 07:01:17 1.8 C 37 %
1196 13-12-2019 07:11:18 1.7 C 39 %
1197 13-12-2019 07:21:17 1.8 C 38 %
1198 13-12-2019 07:31:17 1.8 C 40 %
1199 13-12-2019 07:41:17 1.8 C 39 %
1200 13-12-2019 07:51:17 1.9 C 38 %
Sensor: Nr:Datum:Temp:Feuchte:
Aussen-T/F 1201 13-12-2019 08:01:17 1.8 C 38 %
1202 13-12-2019 08:11:17 1.8 C 39 %
1203 13-12-2019 08:21:17 1.7 C 40 %
1204 13-12-2019 08:31:17 1.7 C 41 %
1205 13-12-2019 08:41:17 1.6 C 41 %
1206 13-12-2019 08:51:17 1.7 C 41 %
1207 13-12-2019 09:01:17 1.9 C 40 %
1208 13-12-2019 09:11:17 1.9 C 40 %
1209 13-12-2019 09:21:17 1.9 C 40 %
1210 13-12-2019 09:31:17 1.7 C 42 %
1211 13-12-2019 09:41:17 1.7 C 42 %
1212 13-12-2019 09:51:18 1.9 C 43 %
1213 13-12-2019 10:01:17 1.8 C 43 %
1214 13-12-2019 10:11:17 1.9 C 43 %
1215 13-12-2019 10:21:18 2 C 41 %
1216 13-12-2019 10:31:17 2.2 C 41 %
1217 13-12-2019 10:41:17 2.3 C 41 %
1218 13-12-2019 10:51:18 2.3 C 41 %
1219 13-12-2019 11:01:17 2.4 C 41 %
1220 13-12-2019 11:11:17 2.3 C 40 %
1221 13-12-2019 11:21:17 2.3 C 40 %
1222 13-12-2019 11:31:17 2.4 C 41 %
1223 13-12-2019 11:41:17 2.5 C 41 %
1224 13-12-2019 11:51:18 2.8 C 42 %
1225 13-12-2019 12:01:17 3 C 41 %
Sensor: Nr:Datum:Temp:Feuchte:
Aussen-T/F 1226 13-12-2019 12:11:17 3.1 C 39 %
1227 13-12-2019 12:21:17 3.2 C 38 %
1228 13-12-2019 12:31:17 3.5 C 38 %
1229 13-12-2019 12:41:17 3.5 C 38 %
1230 13-12-2019 12:51:18 3.6 C 38 %
1231 13-12-2019 13:01:18 3.8 C 39 %
1232 13-12-2019 13:11:18 4.1 C 37 %
1233 13-12-2019 13:21:17 4.6 C 38 %
1234 13-12-2019 13:31:17 5.2 C 35 %
1235 13-12-2019 13:41:17 5.7 C 35 %
1236 13-12-2019 13:51:17 6.4 C 31 %
1237 13-12-2019 14:01:17 6.7 C 30 %
1238 13-12-2019 14:11:17 7 C 28 %
1239 13-12-2019 14:21:17 6.8 C 29 %
1240 13-12-2019 14:31:17 6.8 C 28 %
1241 13-12-2019 14:41:17 6.7 C 28 %
1242 13-12-2019 14:51:18 6.4 C 29 %
1243 13-12-2019 15:01:18 6.3 C 29 %
1244 13-12-2019 15:11:18 6.3 C 29 %
1245 13-12-2019 15:21:17 6.2 C 30 %
1246 13-12-2019 15:31:17 5.9 C 30 %
1247 13-12-2019 15:41:17 5.8 C 31 %
1248 13-12-2019 15:51:17 5.5 C 31 %
1249 13-12-2019 16:01:18 5.3 C 30 %
1250 13-12-2019 16:11:18 5.4 C 30 %
Sensor: Nr:Datum:Temp:Feuchte:
Aussen-T/F 1251 13-12-2019 16:21:17 5.3 C 30 %
1252 13-12-2019 16:31:17 5.1 C 30 %
1253 13-12-2019 16:41:17 4.8 C 31 %
1254 13-12-2019 16:51:17 4.5 C 31 %
1255 13-12-2019 17:01:17 4.6 C 31 %
1256 13-12-2019 17:11:17 4.5 C 31 %
1257 13-12-2019 17:21:17 4.3 C 34 %
1258 13-12-2019 17:31:18 4.3 C 34 %
1259 13-12-2019 17:41:18 4.2 C 33 %
1260 13-12-2019 17:51:17 4 C 33 %
1261 13-12-2019 18:01:17 3.8 C 36 %
1262 13-12-2019 18:11:17 3.7 C 40 %
1263 13-12-2019 18:21:17 3.8 C 39 %
1264 13-12-2019 18:31:17 3.8 C 40 %
1265 13-12-2019 18:41:18 3.8 C 39 %
1266 13-12-2019 18:51:17 3.9 C 36 %
1267 13-12-2019 19:01:17 3.9 C 36 %
1268 13-12-2019 19:11:17 3.9 C 35 %
1269 13-12-2019 19:21:17 4 C 34 %
1270 13-12-2019 19:31:17 4.1 C 35 %
1271 13-12-2019 19:41:17 4 C 36 %
1272 13-12-2019 19:51:17 4.6 C 32 %
1273 13-12-2019 20:01:17 4.6 C 32 %
1274 13-12-2019 20:11:17 4.8 C 31 %
1275 13-12-2019 20:21:17 4.7 C 31 %
Sensor: Nr:Datum:Temp:Feuchte:
Aussen-T/F 1276 13-12-2019 20:31:17 4.7 C 31 %
1277 13-12-2019 20:41:17 4.7 C 32 %
1278 13-12-2019 20:51:17 4.5 C 32 %
1279 13-12-2019 21:01:17 4.3 C 34 %
1280 13-12-2019 21:11:17 4 C 36 %
1281 13-12-2019 21:21:17 4.5 C 35 %
1282 13-12-2019 21:31:18 4.4 C 33 %
1283 13-12-2019 21:41:18 4.4 C 35 %
1284 13-12-2019 21:51:17 4.6 C 32 %
1285 13-12-2019 22:01:17 4.6 C 31 %
1286 13-12-2019 22:11:17 4.6 C 30 %
1287 13-12-2019 22:21:17 4.7 C 30 %
1288 13-12-2019 22:31:18 4.7 C 30 %
1289 13-12-2019 22:41:18 3.8 C 34 %
1290 13-12-2019 22:51:17 3.8 C 36 %
1291 13-12-2019 23:01:17 4.5 C 32 %
1292 13-12-2019 23:11:17 5.1 C 29 %
1293 13-12-2019 23:21:17 5.2 C 28 %
1294 13-12-2019 23:31:17 5.2 C 28 %
1295 13-12-2019 23:41:17 5 C 30 %
1296 13-12-2019 23:51:17 5 C 30 %
1297 14-12-2019 00:01:17 4.4 C 32 %
1298 14-12-2019 00:11:17 4.5 C 30 %
1299 14-12-2019 00:21:17 4.6 C 30 %
1300 14-12-2019 00:31:18 4.3 C 33 %
Sensor: Nr:Datum:Temp:Feuchte:
Aussen-T/F 1301 14-12-2019 00:41:18 4.7 C 32 %
1302 14-12-2019 00:51:17 5.1 C 28 %
1303 14-12-2019 01:01:17 5.4 C 27 %
1304 14-12-2019 01:11:17 5.3 C 27 %
1305 14-12-2019 01:21:17 5.2 C 26 %
1306 14-12-2019 01:31:17 5.1 C 26 %
1307 14-12-2019 01:41:17 5.3 C 25 %
1308 14-12-2019 01:51:17 5.2 C 25 %
1309 14-12-2019 02:01:17 5 C 26 %
1310 14-12-2019 02:11:17 4.5 C 30 %
1311 14-12-2019 02:21:17 4.6 C 29 %
1312 14-12-2019 02:31:18 4.7 C 29 %
1313 14-12-2019 02:41:18 4.8 C 28 %
1314 14-12-2019 02:51:17 4.5 C 30 %
1315 14-12-2019 03:01:18 4.2 C 33 %
1316 14-12-2019 03:11:18 4.1 C 36 %
1317 14-12-2019 03:21:17 3.9 C 38 %
1318 14-12-2019 03:31:17 3.9 C 39 %
1319 14-12-2019 03:41:17 3.9 C 36 %
1320 14-12-2019 03:51:18 3.8 C 36 %
1321 14-12-2019 04:01:17 3.8 C 40 %
1322 14-12-2019 04:11:17 3.8 C 41 %
1323 14-12-2019 04:21:17 3.7 C 42 %
1324 14-12-2019 04:31:18 3.5 C 42 %
1325 14-12-2019 04:41:18 3.5 C 42 %
Sensor: Nr:Datum:Temp:Feuchte:
Aussen-T/F 1326 14-12-2019 04:51:17 3.4 C 42 %
1327 14-12-2019 05:01:17 3.4 C 41 %
1328 14-12-2019 05:11:17 3.4 C 41 %
1329 14-12-2019 05:21:17 3.4 C 42 %
1330 14-12-2019 05:31:18 3.4 C 42 %
1331 14-12-2019 05:41:18 3.4 C 43 %
1332 14-12-2019 05:51:17 3.4 C 43 %
1333 14-12-2019 06:01:18 3.4 C 42 %
1334 14-12-2019 06:11:18 3.7 C 43 %
1335 14-12-2019 06:21:17 4 C 42 %
1336 14-12-2019 06:31:17 5 C 40 %
1337 14-12-2019 06:41:17 5.2 C 39 %
1338 14-12-2019 06:51:18 5.6 C 36 %
1339 14-12-2019 07:01:17 5.6 C 36 %
1340 14-12-2019 07:11:18 5.7 C 36 %
1341 14-12-2019 07:21:17 5.8 C 36 %
1342 14-12-2019 07:31:17 5.8 C 36 %
1343 14-12-2019 07:41:17 6.3 C 37 %
1344 14-12-2019 07:51:17 6.5 C 36 %
1345 14-12-2019 08:01:17 6.8 C 35 %
1346 14-12-2019 08:11:17 7 C 28 %
1347 14-12-2019 08:21:17 7.2 C 26 %
1348 14-12-2019 08:31:18 7.1 C 25 %
1349 14-12-2019 08:41:18 6.9 C 25 %
1350 14-12-2019 08:51:17 6.7 C 25 %
Sensor: Nr:Datum:Temp:Feuchte:
Aussen-T/F 1351 14-12-2019 09:01:17 6.9 C 23 %
1352 14-12-2019 09:11:17 6.7 C 23 %
1353 14-12-2019 09:21:18 6.5 C 23 %
1354 14-12-2019 09:31:18 6.7 C 20 %
1355 14-12-2019 09:41:18 6.5 C 21 %
1356 14-12-2019 09:51:17 6.7 C 21 %
1357 14-12-2019 10:01:17 6.7 C 21 %
1358 14-12-2019 10:11:17 6.6 C 23 %
1359 14-12-2019 10:21:17 6.6 C 25 %
1360 14-12-2019 10:31:17 6.7 C 25 %
1361 14-12-2019 10:41:17 6.4 C 26 %
1362 14-12-2019 10:51:17 5.9 C 29 %
1363 14-12-2019 11:01:18 5.9 C 29 %
1364 14-12-2019 11:11:18 6.4 C 27 %
1365 14-12-2019 11:21:17 6.7 C 26 %
1366 14-12-2019 11:31:17 6.3 C 26 %
1367 14-12-2019 11:41:17 6.4 C 25 %
1368 14-12-2019 11:51:17 6.9 C 20 %
1369 14-12-2019 12:01:17 7 C 20 %
1370 14-12-2019 12:11:17 7.2 C 20 %
1371 14-12-2019 12:21:18 7 C 20 %
1372 14-12-2019 12:31:17 7.3 C 20 %
1373 14-12-2019 12:41:17 7.6 C 20 %
1374 14-12-2019 12:51:17 7.8 C 20 %
1375 14-12-2019 13:01:17 7.9 C 20 %
Sensor: Nr:Datum:Temp:Feuchte:
Aussen-T/F 1376 14-12-2019 13:11:17 8 C 20 %
1377 14-12-2019 13:21:17 8.4 C 20 %
1378 14-12-2019 13:31:17 8.4 C 20 %
1379 14-12-2019 13:41:17 8.3 C 20 %
1380 14-12-2019 13:51:17 8.4 C 20 %
1381 14-12-2019 14:01:18 8.5 C 20 %
1382 14-12-2019 14:11:18 8.4 C 20 %
1383 14-12-2019 14:21:17 8.4 C 20 %
1384 14-12-2019 14:31:18 8.7 C 20 %
1385 14-12-2019 14:41:18 8.8 C 20 %
1386 14-12-2019 14:51:18 8.6 C 20 %
1387 14-12-2019 15:01:17 7.3 C 23 %
1388 14-12-2019 15:11:17 6.8 C 28 %
1389 14-12-2019 15:21:17 6.6 C 30 %
1390 14-12-2019 15:31:17 6.7 C 28 %
1391 14-12-2019 15:41:18 6.8 C 28 %
1392 14-12-2019 15:51:17 7.1 C 26 %
1393 14-12-2019 16:01:17 7 C 26 %
1394 14-12-2019 16:11:17 6.9 C 26 %
1395 14-12-2019 16:21:17 6.9 C 27 %
1396 14-12-2019 16:31:18 7.2 C 25 %
1397 14-12-2019 16:41:18 7.6 C 25 %
1398 14-12-2019 16:51:17 7.5 C 25 %
1399 14-12-2019 17:01:17 7.6 C 25 %
1400 14-12-2019 17:11:17 7.6 C 25 %
Sensor: Nr:Datum:Temp:Feuchte:
Aussen-T/F 1401 14-12-2019 17:21:17 7.4 C 25 %
1402 14-12-2019 17:31:18 7.2 C 26 %
1403 14-12-2019 17:41:18 6.9 C 27 %
1404 14-12-2019 17:51:17 7.1 C 26 %
1405 14-12-2019 18:01:17 7.1 C 26 %
1406 14-12-2019 18:11:17 7.3 C 26 %
1407 14-12-2019 18:22:17 7.6 C 25 %
1408 14-12-2019 18:31:17 7.8 C 25 %
1409 14-12-2019 18:41:17 7.4 C 25 %
1410 14-12-2019 18:52:17 7 C 26 %
1411 14-12-2019 19:01:18 6.7 C 27 %
1412 14-12-2019 19:11:18 6.2 C 28 %
1413 14-12-2019 19:21:17 6.4 C 26 %
1414 14-12-2019 19:31:17 6.1 C 26 %
1415 14-12-2019 19:41:17 6.4 C 25 %
1416 14-12-2019 19:52:17 6.4 C 25 %
1417 14-12-2019 20:01:18 6.6 C 25 %
1418 14-12-2019 20:11:18 6.7 C 25 %
1419 14-12-2019 20:21:17 6.9 C 25 %
1420 14-12-2019 20:31:17 5.8 C 27 %
1421 14-12-2019 20:41:17 5.9 C 27 %
1422 14-12-2019 20:52:17 7 C 25 %
1423 14-12-2019 21:01:17 7.2 C 25 %
1424 14-12-2019 21:11:17 7 C 25 %
1425 14-12-2019 21:22:17 7.1 C 25 %
Sensor: Nr:Datum:Temp:Feuchte:
Aussen-T/F 1426 14-12-2019 21:31:18 6.7 C 26 %
1427 14-12-2019 21:41:18 6.8 C 26 %
1428 14-12-2019 21:52:17 6.9 C 26 %
1429 14-12-2019 22:02:17 7.1 C 25 %
1430 14-12-2019 22:11:17 6.8 C 26 %
1431 14-12-2019 22:22:17 6.9 C 26 %
1432 14-12-2019 22:31:17 7.3 C 25 %
1433 14-12-2019 22:41:17 7 C 26 %
1434 14-12-2019 22:52:17 7.3 C 25 %
1435 14-12-2019 23:02:17 7.1 C 25 %
1436 14-12-2019 23:12:17 7.3 C 25 %
1437 14-12-2019 23:22:17 7 C 26 %
1438 14-12-2019 23:31:18 7 C 26 %
1439 14-12-2019 23:41:18 7.4 C 25 %
1440 14-12-2019 23:51:18 7 C 25 %
1441 15-12-2019 00:02:17 6.4 C 27 %
1442 15-12-2019 00:11:17 6 C 28 %
1443 15-12-2019 00:22:17 5.6 C 30 %
1444 15-12-2019 00:31:18 5.3 C 31 %
1445 15-12-2019 00:41:18 5.1 C 32 %
1446 15-12-2019 00:52:17 5.2 C 32 %
1447 15-12-2019 01:02:17 5.2 C 32 %
1448 15-12-2019 01:12:17 5.3 C 33 %
1449 15-12-2019 01:22:17 5.5 C 33 %
1450 15-12-2019 01:31:18 5.7 C 31 %
Sensor: Nr:Datum:Temp:Feuchte:
Aussen-T/F 1451 15-12-2019 01:41:18 5.6 C 31 %
1452 15-12-2019 01:52:17 5.6 C 31 %
1453 15-12-2019 02:02:17 5.9 C 31 %
1454 15-12-2019 02:12:17 5.8 C 32 %
1455 15-12-2019 02:22:17 5.9 C 32 %
1456 15-12-2019 02:32:18 5.7 C 35 %
1457 15-12-2019 02:42:18 5.8 C 37 %
1458 15-12-2019 02:52:17 5.9 C 39 %
1459 15-12-2019 03:02:18 5.9 C 40 %
1460 15-12-2019 03:12:18 5.9 C 41 %
1461 15-12-2019 03:22:17 6 C 41 %
1462 15-12-2019 03:32:17 6 C 42 %
1463 15-12-2019 03:42:17 6.3 C 42 %
1464 15-12-2019 03:52:17 6.4 C 42 %
1465 15-12-2019 04:02:17 6.8 C 42 %
1466 15-12-2019 04:12:17 7.3 C 41 %
1467 15-12-2019 04:22:17 7.3 C 41 %
1468 15-12-2019 04:32:17 7.5 C 41 %
1469 15-12-2019 04:42:17 7.9 C 40 %
1470 15-12-2019 04:52:17 8 C 39 %
1471 15-12-2019 05:02:17 8.2 C 38 %
1472 15-12-2019 05:12:17 8.2 C 37 %
1473 15-12-2019 05:22:17 8.4 C 37 %
1474 15-12-2019 05:32:18 9 C 34 %
1475 15-12-2019 05:42:18 10 C 30 %
Sensor: Nr:Datum:Temp:Feuchte:
Aussen-T/F 1476 15-12-2019 05:52:17 10.2 C 30 %
1477 15-12-2019 06:02:17 10.3 C 29 %
1478 15-12-2019 06:12:17 10.3 C 29 %
1479 15-12-2019 06:22:17 10.1 C 29 %
1480 15-12-2019 06:32:17 10.5 C 28 %
1481 15-12-2019 06:42:17 10.8 C 27 %
1482 15-12-2019 06:52:17 10.7 C 27 %
1483 15-12-2019 07:02:17 10.5 C 27 %
1484 15-12-2019 07:12:17 10.9 C 27 %
1485 15-12-2019 07:22:17 10.3 C 27 %
1486 15-12-2019 07:32:17 10.6 C 27 %
1487 15-12-2019 07:42:17 10.5 C 27 %
1488 15-12-2019 07:52:17 10.7 C 27 %
1489 15-12-2019 08:02:17 10.7 C 27 %
1490 15-12-2019 08:12:17 11 C 26 %
1491 15-12-2019 08:22:17 10.9 C 27 %
1492 15-12-2019 08:32:18 10.6 C 27 %
1493 15-12-2019 08:42:18 10.2 C 28 %
1494 15-12-2019 08:52:17 9.5 C 34 %
1495 15-12-2019 09:02:17 9.2 C 34 %
1496 15-12-2019 09:12:17 8.9 C 35 %
1497 15-12-2019 09:22:17 8.7 C 33 %
1498 15-12-2019 09:32:17 8.5 C 34 %
1499 15-12-2019 09:42:17 8.2 C 35 %
1500 15-12-2019 09:52:18 8 C 36 %
Sensor: Nr:Datum:Temp:Feuchte:
Aussen-T/F 1501 15-12-2019 10:02:18 8.1 C 34 %
1502 15-12-2019 10:12:18 8.2 C 32 %
1503 15-12-2019 10:22:18 8.2 C 34 %
1504 15-12-2019 10:32:17 8.1 C 33 %
1505 15-12-2019 10:42:17 8.5 C 31 %
1506 15-12-2019 10:52:17 8.7 C 30 %
1507 15-12-2019 11:02:17 8.4 C 30 %
1508 15-12-2019 11:12:17 8.5 C 30 %
1509 15-12-2019 11:22:17 8.5 C 28 %
1510 15-12-2019 11:32:17 8.6 C 28 %
1511 15-12-2019 11:42:17 8.6 C 28 %
1512 15-12-2019 11:52:17 8.3 C 27 %
1513 15-12-2019 12:02:17 8.3 C 27 %
1514 15-12-2019 12:12:17 8.1 C 27 %
1515 15-12-2019 12:22:17 8.1 C 28 %
1516 15-12-2019 12:32:17 7.9 C 29 %
1517 15-12-2019 12:42:17 8.2 C 28 %
1518 15-12-2019 12:52:18 8.4 C 28 %
1519 15-12-2019 13:02:18 8.7 C 27 %
1520 15-12-2019 13:12:18 9.1 C 25 %
1521 15-12-2019 13:22:17 9.3 C 23 %
1522 15-12-2019 13:32:17 9.2 C 21 %
1523 15-12-2019 13:42:17 9.2 C 20 %
1524 15-12-2019 13:52:18 9.2 C 20 %
1525 15-12-2019 14:02:17 9.2 C 20 %
Sensor: Nr:Datum:Temp:Feuchte:
Aussen-T/F 1526 15-12-2019 14:12:17 9.3 C 20 %
1527 15-12-2019 14:22:17 9.3 C 20 %
1528 15-12-2019 14:32:17 9.1 C 20 %
1529 15-12-2019 14:42:17 9.1 C 20 %
1530 15-12-2019 14:52:17 9 C 20 %
1531 15-12-2019 15:02:17 9 C 20 %
1532 15-12-2019 15:12:17 8.9 C 20 %
1533 15-12-2019 15:22:17 8.9 C 20 %
1534 15-12-2019 15:32:17 8.8 C 20 %
1535 15-12-2019 15:42:17 8.7 C 20 %
1536 15-12-2019 15:52:17 8.7 C 20 %
1537 15-12-2019 16:02:17 8.4 C 20 %
1538 15-12-2019 16:12:17 8.2 C 20 %
1539 15-12-2019 16:22:18 8.4 C 20 %
1540 15-12-2019 16:32:17 7.9 C 20 %
1541 15-12-2019 16:42:17 7.6 C 20 %
1542 15-12-2019 16:52:17 8 C 20 %
1543 15-12-2019 17:02:17 7.4 C 20 %
1544 15-12-2019 17:12:17 7.4 C 20 %
1545 15-12-2019 17:22:17 7.8 C 20 %
1546 15-12-2019 17:32:17 7.2 C 21 %
1547 15-12-2019 17:42:17 7.6 C 20 %
1548 15-12-2019 17:52:17 7.7 C 20 %
1549 15-12-2019 18:02:17 7.5 C 20 %
1550 15-12-2019 18:12:17 8.2 C 20 %
Sensor: Nr:Datum:Temp:Feuchte:
Aussen-T/F 1551 15-12-2019 18:22:17 7.5 C 20 %
1552 15-12-2019 18:32:17 6.9 C 25 %
1553 15-12-2019 18:42:17 6.2 C 27 %
1554 15-12-2019 18:52:18 5.9 C 29 %
1555 15-12-2019 19:02:17 5.4 C 30 %
1556 15-12-2019 19:12:17 5.3 C 31 %
1557 15-12-2019 19:22:17 4.9 C 32 %
1558 15-12-2019 19:32:18 5.3 C 32 %
1559 15-12-2019 19:42:18 5 C 33 %
1560 15-12-2019 19:52:17 5.4 C 33 %
1561 15-12-2019 20:02:17 5.2 C 33 %
1562 15-12-2019 20:12:17 4.7 C 35 %
1563 15-12-2019 20:22:17 4.4 C 36 %
1564 15-12-2019 20:32:17 4.3 C 37 %
1565 15-12-2019 20:42:17 3.9 C 39 %
1566 15-12-2019 20:52:17 3.7 C 40 %
1567 15-12-2019 21:02:17 3.5 C 41 %
1568 15-12-2019 21:12:17 3.3 C 41 %
1569 15-12-2019 21:22:17 3.1 C 41 %
1570 15-12-2019 21:32:18 2.8 C 42 %
1571 15-12-2019 21:42:18 2.9 C 43 %
1572 15-12-2019 21:52:17 3.3 C 43 %
1573 15-12-2019 22:02:17 3.3 C 44 %
1574 15-12-2019 22:12:17 3.3 C 43 %
1575 15-12-2019 22:22:17 3.5 C 43 %
Sensor: Nr:Datum:Temp:Feuchte:
Aussen-T/F 1576 15-12-2019 22:32:17 3.5 C 43 %
1577 15-12-2019 22:42:17 3.4 C 43 %
1578 15-12-2019 22:52:18 3.3 C 43 %
1579 15-12-2019 23:02:17 3.5 C 43 %
1580 15-12-2019 23:12:18 3.6 C 43 %
1581 15-12-2019 23:22:17 3.7 C 43 %
1582 15-12-2019 23:32:18 3.5 C 42 %
1583 15-12-2019 23:42:18 3.3 C 42 %
1584 15-12-2019 23:52:17 3.8 C 43 %
1585 16-12-2019 00:02:17 4 C 42 %
1586 16-12-2019 00:12:17 4.4 C 42 %
1587 16-12-2019 00:22:17 4.4 C 42 %
1588 16-12-2019 00:32:17 4.5 C 42 %
1589 16-12-2019 00:42:17 4.5 C 42 %
1590 16-12-2019 00:52:18 4.7 C 42 %
1591 16-12-2019 01:02:17 5.1 C 41 %
1592 16-12-2019 01:12:17 5 C 41 %
1593 16-12-2019 01:22:17 5.2 C 42 %
1594 16-12-2019 01:32:17 5.2 C 41 %
1595 16-12-2019 01:42:18 5.3 C 42 %
1596 16-12-2019 01:52:17 5.5 C 42 %
1597 16-12-2019 02:02:18 5.4 C 42 %
1598 16-12-2019 02:12:18 5.5 C 42 %
1599 16-12-2019 02:22:17 5.7 C 42 %
1600 16-12-2019 02:32:17 5.7 C 42 %
Sensor: Nr:Datum:Temp:Feuchte:
Aussen-T/F 1601 16-12-2019 02:42:17 5.9 C 42 %
1602 16-12-2019 02:52:18 5.8 C 41 %
1603 16-12-2019 03:02:17 5.8 C 41 %
1604 16-12-2019 03:12:17 5.9 C 41 %
1605 16-12-2019 03:22:17 5.9 C 41 %
1606 16-12-2019 03:32:18 5.9 C 41 %
1607 16-12-2019 03:42:18 5.8 C 41 %
1608 16-12-2019 03:52:17 6 C 41 %
1609 16-12-2019 04:02:17 6 C 41 %
1610 16-12-2019 04:12:17 6 C 41 %
1611 16-12-2019 04:22:17 5.9 C 41 %
1612 16-12-2019 04:32:17 6.1 C 41 %
1613 16-12-2019 04:42:17 6.2 C 41 %
1614 16-12-2019 04:52:17 6.3 C 41 %
1615 16-12-2019 05:02:17 6.4 C 41 %
1616 16-12-2019 05:12:17 6.4 C 41 %
1617 16-12-2019 05:22:17 6.5 C 41 %
1618 16-12-2019 05:32:17 6.6 C 41 %
1619 16-12-2019 05:42:17 6.6 C 41 %
1620 16-12-2019 05:52:17 6.8 C 41 %
1621 16-12-2019 06:02:17 6.9 C 41 %
1622 16-12-2019 06:12:17 6.9 C 41 %
1623 16-12-2019 06:22:17 6.8 C 40 %
1624 16-12-2019 06:32:17 6.7 C 40 %
1625 16-12-2019 06:42:17 6.8 C 40 %
Sensor: Nr:Datum:Temp:Feuchte:
Aussen-T/F 1626 16-12-2019 06:52:17 6.8 C 40 %
1627 16-12-2019 07:02:17 6.8 C 40 %
1628 16-12-2019 07:12:17 6.7 C 40 %
1629 16-12-2019 07:22:17 6.8 C 40 %
1630 16-12-2019 07:32:18 6.9 C 41 %
1631 16-12-2019 07:42:18 6.9 C 41 %
1632 16-12-2019 07:52:17 7 C 40 %
1633 16-12-2019 08:02:17 7.1 C 40 %
1634 16-12-2019 08:12:17 7 C 40 %
1635 16-12-2019 08:22:17 7.1 C 40 %
1636 16-12-2019 08:32:17 7.1 C 40 %
1637 16-12-2019 08:42:17 7.1 C 40 %
1638 16-12-2019 08:52:17 7.2 C 40 %
1639 16-12-2019 09:02:17 7.3 C 40 %
1640 16-12-2019 09:12:17 7.5 C 40 %
1641 16-12-2019 09:22:18 7.4 C 40 %
1642 16-12-2019 09:32:17 7.5 C 40 %
1643 16-12-2019 09:42:17 7.5 C 40 %
1644 16-12-2019 09:52:17 7.6 C 40 %
1645 16-12-2019 10:02:18 7.6 C 40 %
1646 16-12-2019 10:12:18 7.7 C 40 %
1647 16-12-2019 10:22:17 7.8 C 40 %
1648 16-12-2019 10:32:17 7.9 C 40 %
1649 16-12-2019 10:42:17 8.1 C 40 %
1650 16-12-2019 10:52:17 8.2 C 40 %
Sensor: Nr:Datum:Temp:Feuchte:
Aussen-T/F 1651 16-12-2019 11:02:17 8.3 C 40 %
1652 16-12-2019 11:12:17 8.5 C 40 %
1653 16-12-2019 11:22:17 8.9 C 40 %
1654 16-12-2019 11:32:18 8.8 C 39 %
1655 16-12-2019 11:42:18 9.1 C 39 %
1656 16-12-2019 11:52:17 9.4 C 39 %
1657 16-12-2019 12:02:17 9.3 C 38 %
1658 16-12-2019 12:12:17 9.3 C 37 %
1659 16-12-2019 12:22:17 9.3 C 37 %
1660 16-12-2019 12:32:17 9.4 C 37 %
1661 16-12-2019 12:42:17 9.4 C 38 %
1662 16-12-2019 12:52:17 9.8 C 38 %
1663 16-12-2019 13:02:17 9.9 C 36 %
1664 16-12-2019 13:12:17 9.9 C 36 %
1665 16-12-2019 13:22:17 10 C 35 %
1666 16-12-2019 13:32:17 10.2 C 34 %
1667 16-12-2019 13:42:17 10.2 C 35 %
1668 16-12-2019 13:52:18 10.3 C 34 %
1669 16-12-2019 14:02:17 10.1 C 34 %
1670 16-12-2019 14:12:17 10.2 C 34 %
1671 16-12-2019 14:22:17 10.3 C 34 %
1672 16-12-2019 14:32:17 10.2 C 33 %
1673 16-12-2019 14:42:17 10.1 C 34 %
1674 16-12-2019 14:52:18 10.1 C 34 %
1675 16-12-2019 15:02:17 9.9 C 35 %
Sensor: Nr:Datum:Temp:Feuchte:
Aussen-T/F 1676 16-12-2019 15:12:17 9.8 C 35 %
1677 16-12-2019 15:22:17 9.6 C 36 %
1678 16-12-2019 15:32:18 9.3 C 37 %
1679 16-12-2019 15:42:18 9.1 C 39 %
1680 16-12-2019 15:52:17 9 C 40 %
1681 16-12-2019 16:02:17 8.7 C 40 %
1682 16-12-2019 16:12:17 8.5 C 40 %
1683 16-12-2019 16:22:17 8.4 C 40 %
1684 16-12-2019 16:32:18 8.2 C 41 %
1685 16-12-2019 16:42:18 8 C 40 %
1686 16-12-2019 16:52:17 7.7 C 41 %
1687 16-12-2019 17:02:17 7.4 C 41 %
1688 16-12-2019 17:12:17 7.3 C 41 %
1689 16-12-2019 17:22:17 7.5 C 41 %
1690 16-12-2019 17:32:17 7.3 C 41 %
1691 16-12-2019 17:42:17 7.2 C 41 %
1692 16-12-2019 17:52:17 7 C 41 %
1693 16-12-2019 18:02:17 7.1 C 41 %
1694 16-12-2019 18:12:17 7.4 C 41 %
1695 16-12-2019 18:22:17 7.5 C 41 %
1696 16-12-2019 18:32:17 8.2 C 40 %
1697 16-12-2019 18:42:17 8.1 C 38 %
1698 16-12-2019 18:52:17 8.7 C 37 %
1699 16-12-2019 19:02:18 8.5 C 35 %
1700 16-12-2019 19:12:18 7.9 C 36 %
Sensor: Nr:Datum:Temp:Feuchte:
Aussen-T/F 1701 16-12-2019 19:22:17 7.7 C 37 %
1702 16-12-2019 19:32:17 8.5 C 40 %
1703 16-12-2019 19:42:17 7.9 C 37 %
1704 16-12-2019 19:52:18 8 C 37 %
1705 16-12-2019 20:02:17 7.9 C 37 %
1706 16-12-2019 20:12:17 8.1 C 36 %
1707 16-12-2019 20:22:17 7.7 C 37 %
1708 16-12-2019 20:32:17 8 C 39 %
1709 16-12-2019 20:42:17 7.9 C 36 %
1710 16-12-2019 20:52:17 7.8 C 36 %
1711 16-12-2019 21:02:17 7.3 C 37 %
1712 16-12-2019 21:12:17 7.2 C 40 %
1713 16-12-2019 21:22:17 7.5 C 39 %
1714 16-12-2019 21:32:17 7.2 C 38 %
1715 16-12-2019 21:42:17 7 C 40 %
1716 16-12-2019 21:52:17 6.7 C 41 %
1717 16-12-2019 22:02:17 6.9 C 41 %
1718 16-12-2019 22:12:17 7.5 C 40 %
1719 16-12-2019 22:22:17 7.4 C 38 %
1720 16-12-2019 22:32:17 7.9 C 37 %
1721 16-12-2019 22:42:17 7.8 C 36 %
1722 16-12-2019 22:52:18 7.3 C 37 %
1723 16-12-2019 23:02:17 7.3 C 39 %
1724 16-12-2019 23:12:17 7.3 C 39 %
1725 16-12-2019 23:22:17 7.5 C 40 %
Sensor: Nr:Datum:Temp:Feuchte:
Aussen-T/F 1726 16-12-2019 23:32:17 7.6 C 39 %
1727 16-12-2019 23:42:17 7.6 C 39 %
1728 16-12-2019 23:52:18 7.8 C 39 %
1729 17-12-2019 00:02:17 7.6 C 37 %
1730 17-12-2019 00:12:17 7.5 C 38 %
1731 17-12-2019 00:22:17 7.6 C 38 %
1732 17-12-2019 00:32:18 7.3 C 39 %
1733 17-12-2019 00:42:18 7.2 C 40 %
1734 17-12-2019 00:52:17 7.4 C 39 %
1735 17-12-2019 01:02:17 7.2 C 39 %
1736 17-12-2019 01:12:17 7.4 C 40 %
1737 17-12-2019 01:22:17 7.8 C 39 %
1738 17-12-2019 01:32:17 7.3 C 37 %
1739 17-12-2019 01:42:17 7.4 C 38 %
1740 17-12-2019 01:52:17 7.4 C 37 %
1741 17-12-2019 02:02:18 7.4 C 37 %
1742 17-12-2019 02:12:18 7.6 C 37 %
1743 17-12-2019 02:22:17 7.3 C 37 %
1744 17-12-2019 02:32:17 7.1 C 37 %
1745 17-12-2019 02:42:17 7.5 C 36 %
1746 17-12-2019 02:52:18 7.6 C 36 %
1747 17-12-2019 03:02:17 8 C 35 %
1748 17-12-2019 03:12:17 8.1 C 35 %
1749 17-12-2019 03:22:17 8.4 C 35 %
1750 17-12-2019 03:32:17 8.8 C 32 %
Sensor: Nr:Datum:Temp:Feuchte:
Aussen-T/F 1751 17-12-2019 03:42:17 8.9 C 32 %
1752 17-12-2019 03:52:18 8.8 C 32 %
1753 17-12-2019 04:02:17 8.5 C 32 %
1754 17-12-2019 04:12:17 8.5 C 32 %
1755 17-12-2019 04:22:17 8.4 C 32 %
1756 17-12-2019 04:32:17 8.4 C 32 %
1757 17-12-2019 04:42:17 8 C 32 %
1758 17-12-2019 04:52:18 8.3 C 33 %
1759 17-12-2019 05:02:17 8.5 C 33 %
1760 17-12-2019 05:12:17 8.5 C 33 %
1761 17-12-2019 05:22:17 8.2 C 33 %
1762 17-12-2019 05:32:17 8.1 C 34 %
1763 17-12-2019 05:42:17 7.9 C 35 %
1764 17-12-2019 05:52:17 7.9 C 36 %
1765 17-12-2019 06:02:17 7.8 C 36 %
1766 17-12-2019 06:12:17 7.3 C 36 %
1767 17-12-2019 06:22:18 7.3 C 38 %
1768 17-12-2019 06:32:17 7.5 C 38 %
1769 17-12-2019 06:42:17 7.6 C 36 %
1770 17-12-2019 06:52:17 7.6 C 38 %
1771 17-12-2019 07:02:17 7.7 C 36 %
1772 17-12-2019 07:12:17 7.6 C 37 %
1773 17-12-2019 07:22:17 7.5 C 36 %
1774 17-12-2019 07:32:18 7 C 37 %
1775 17-12-2019 07:42:18 7.4 C 38 %
Sensor: Nr:Datum:Temp:Feuchte:
Aussen-T/F 1776 17-12-2019 07:52:17 7.2 C 36 %
1777 17-12-2019 08:02:17 7.2 C 36 %
1778 17-12-2019 08:12:17 6.9 C 37 %
1779 17-12-2019 08:22:17 6.9 C 38 %
1780 17-12-2019 08:32:17 7 C 38 %
1781 17-12-2019 08:42:18 6.9 C 37 %
1782 17-12-2019 08:52:17 6.9 C 37 %
1783 17-12-2019 09:02:17 6.5 C 38 %
1784 17-12-2019 09:12:17 6.4 C 39 %
1785 17-12-2019 09:22:18 6.5 C 40 %
1786 17-12-2019 09:32:17 6.4 C 40 %
1787 17-12-2019 09:42:17 6.6 C 40 %
1788 17-12-2019 09:52:17 6.3 C 39 %
1789 17-12-2019 10:02:18 6.4 C 40 %
1790 17-12-2019 10:12:18 6.4 C 40 %
1791 17-12-2019 10:22:17 6.4 C 39 %
1792 17-12-2019 10:32:17 6.8 C 40 %
1793 17-12-2019 10:42:17 7.2 C 37 %
1794 17-12-2019 10:52:17 8 C 36 %
1795 17-12-2019 11:02:17 8.6 C 34 %
1796 17-12-2019 11:12:17 8.5 C 32 %
1797 17-12-2019 11:22:17 8.7 C 32 %
1798 17-12-2019 11:32:17 9 C 32 %
1799 17-12-2019 11:42:17 9.1 C 32 %
1800 17-12-2019 11:52:17 9 C 32 %
Sensor: Nr:Datum:Temp:Feuchte:
Aussen-T/F 1801 17-12-2019 12:02:17 9 C 34 %
1802 17-12-2019 12:12:17 9.2 C 34 %
1803 17-12-2019 12:22:17 9.5 C 33 %
1804 17-12-2019 12:32:17 9.7 C 32 %
1805 17-12-2019 12:42:17 9.8 C 32 %
1806 17-12-2019 12:52:17 9.6 C 32 %
1807 17-12-2019 13:02:17 10.1 C 31 %
1808 17-12-2019 13:12:17 10.4 C 30 %
1809 17-12-2019 13:22:17 10.6 C 30 %
1810 17-12-2019 13:32:17 11 C 29 %
1811 17-12-2019 13:42:17 11.6 C 28 %
1812 17-12-2019 13:52:18 12.3 C 26 %
1813 17-12-2019 14:02:17 12.5 C 26 %
1814 17-12-2019 14:12:17 12.4 C 26 %
1815 17-12-2019 14:22:17 11.6 C 27 %
1816 17-12-2019 14:32:17 11.4 C 27 %
1817 17-12-2019 14:42:17 11.5 C 27 %
1818 17-12-2019 14:52:17 11.8 C 27 %
1819 17-12-2019 15:02:17 12 C 26 %
1820 17-12-2019 15:12:17 12 C 26 %
1821 17-12-2019 15:22:17 11.8 C 27 %
1822 17-12-2019 15:32:17 11.8 C 27 %
1823 17-12-2019 15:42:17 12.3 C 25 %
1824 17-12-2019 15:52:18 12.2 C 25 %
1825 17-12-2019 16:02:17 12.4 C 25 %
Sensor: Nr:Datum:Temp:Feuchte:
Aussen-T/F 1826 17-12-2019 16:12:17 12.4 C 25 %
1827 17-12-2019 16:22:17 12.5 C 25 %
1828 17-12-2019 16:32:18 12.6 C 25 %
1829 17-12-2019 16:42:18 12.2 C 25 %
1830 17-12-2019 16:52:17 11.8 C 25 %
1831 17-12-2019 17:02:17 11.2 C 26 %
1832 17-12-2019 17:12:18 11.5 C 25 %
1833 17-12-2019 17:22:17 12 C 24 %
1834 17-12-2019 17:32:18 13.1 C 20 %
1835 17-12-2019 17:42:18 13.4 C 20 %
1836 17-12-2019 17:52:17 13.8 C 20 %
1837 17-12-2019 18:02:17 13.4 C 20 %
1838 17-12-2019 18:12:17 13.2 C 20 %
1839 17-12-2019 18:22:17 13.6 C 20 %
1840 17-12-2019 18:32:17 13.7 C 20 %
1841 17-12-2019 18:42:17 13.1 C 21 %
1842 17-12-2019 18:52:17 12.7 C 25 %
1843 17-12-2019 19:02:17 12.8 C 25 %
1844 17-12-2019 19:12:17 13.1 C 22 %
1845 17-12-2019 19:22:17 12.8 C 25 %
1846 17-12-2019 19:32:18 11.7 C 29 %
1847 17-12-2019 19:42:18 11.6 C 29 %
1848 17-12-2019 19:52:17 11.6 C 30 %
1849 17-12-2019 20:02:18 11.6 C 30 %
1850 17-12-2019 20:12:18 11.5 C 31 %
Sensor: Nr:Datum:Temp:Feuchte:
Aussen-T/F 1851 17-12-2019 20:22:17 11.6 C 31 %
1852 17-12-2019 20:32:17 11.3 C 33 %
1853 17-12-2019 20:42:17 11.2 C 35 %
1854 17-12-2019 20:52:17 11 C 36 %
1855 17-12-2019 21:02:17 10.9 C 36 %
1856 17-12-2019 21:12:17 10.5 C 38 %
1857 17-12-2019 21:22:17 10.3 C 39 %
1858 17-12-2019 21:32:17 10.4 C 38 %
1859 17-12-2019 21:42:17 11.5 C 31 %
1860 17-12-2019 21:52:17 11.3 C 31 %
1861 17-12-2019 22:02:17 13 C 25 %
1862 17-12-2019 22:12:17 12.5 C 26 %
1863 17-12-2019 22:22:17 13.1 C 25 %
1864 17-12-2019 22:32:17 13.4 C 25 %
1865 17-12-2019 22:42:17 13.2 C 25 %
1866 17-12-2019 22:52:17 13.1 C 25 %
1867 17-12-2019 23:02:17 12.4 C 26 %
1868 17-12-2019 23:12:17 11.9 C 29 %
1869 17-12-2019 23:22:17 11.3 C 30 %
1870 17-12-2019 23:32:17 11.1 C 31 %
1871 17-12-2019 23:42:17 11 C 30 %
1872 17-12-2019 23:52:17 10.8 C 33 %
1873 18-12-2019 00:02:17 10.4 C 35 %
1874 18-12-2019 00:12:17 10.4 C 34 %
1875 18-12-2019 00:22:17 10.5 C 34 %
Sensor: Nr:Datum:Temp:Feuchte:
Aussen-T/F 1876 18-12-2019 00:32:18 10.9 C 31 %
1877 18-12-2019 00:42:18 11 C 30 %
1878 18-12-2019 00:52:17 11 C 30 %
1879 18-12-2019 01:02:17 10.8 C 30 %
1880 18-12-2019 01:12:17 11 C 29 %
1881 18-12-2019 01:22:17 11.1 C 29 %
1882 18-12-2019 01:32:18 10.9 C 30 %
1883 18-12-2019 01:42:18 10.4 C 30 %
1884 18-12-2019 01:52:17 10.8 C 30 %
1885 18-12-2019 02:02:17 11.1 C 30 %
1886 18-12-2019 02:12:17 11.1 C 29 %
1887 18-12-2019 02:22:17 11.2 C 30 %
1888 18-12-2019 02:32:17 11.3 C 29 %
1889 18-12-2019 02:42:18 10.9 C 30 %
1890 18-12-2019 02:52:17 10.9 C 31 %
1891 18-12-2019 03:02:17 10.6 C 33 %
1892 18-12-2019 03:12:17 10.3 C 35 %
1893 18-12-2019 03:22:18 10.3 C 37 %
1894 18-12-2019 03:32:17 10.1 C 37 %
1895 18-12-2019 03:42:17 10 C 38 %
1896 18-12-2019 03:52:18 10.1 C 38 %
1897 18-12-2019 04:02:18 10 C 38 %
1898 18-12-2019 04:12:18 9.9 C 38 %
1899 18-12-2019 04:22:17 9.8 C 35 %
1900 18-12-2019 04:32:18 9.6 C 34 %
Sensor: Nr:Datum:Temp:Feuchte:
Aussen-T/F 1901 18-12-2019 04:42:18 9.5 C 33 %
1902 18-12-2019 04:52:17 9.3 C 33 %
1903 18-12-2019 05:02:18 9.2 C 33 %
1904 18-12-2019 05:12:18 9.1 C 33 %
1905 18-12-2019 05:22:17 8.8 C 35 %
1906 18-12-2019 05:32:17 8.7 C 36 %
1907 18-12-2019 05:42:17 8.2 C 36 %
1908 18-12-2019 05:52:17 8.2 C 39 %
1909 18-12-2019 06:02:18 8.1 C 39 %
1910 18-12-2019 06:12:18 8 C 37 %
1911 18-12-2019 06:22:17 8 C 37 %
1912 18-12-2019 06:32:18 7.9 C 37 %
1913 18-12-2019 06:42:18 7.5 C 37 %
1914 18-12-2019 06:52:17 7.4 C 39 %
1915 18-12-2019 07:02:17 7.2 C 40 %
1916 18-12-2019 07:12:17 7.3 C 40 %
1917 18-12-2019 07:22:17 7.3 C 40 %
1918 18-12-2019 07:32:17 7.1 C 39 %
1919 18-12-2019 07:42:17 6.8 C 40 %
1920 18-12-2019 07:52:17 6.9 C 41 %
1921 18-12-2019 08:02:17 6.7 C 41 %
1922 18-12-2019 08:12:17 6.5 C 41 %
1923 18-12-2019 08:22:17 6.5 C 41 %
1924 18-12-2019 08:32:17 6.3 C 41 %
1925 18-12-2019 08:42:17 6.4 C 42 %
Sensor: Nr:Datum:Temp:Feuchte:
Aussen-T/F 1926 18-12-2019 08:52:17 6.6 C 42 %
1927 18-12-2019 09:02:17 6.5 C 41 %
1928 18-12-2019 09:12:17 6.1 C 40 %
1929 18-12-2019 09:22:17 6 C 41 %
1930 18-12-2019 09:32:17 6.5 C 42 %
1931 18-12-2019 09:42:17 6.7 C 42 %
1932 18-12-2019 09:52:17 6.9 C 41 %
1933 18-12-2019 10:02:17 7 C 40 %
1934 18-12-2019 10:12:18 7.1 C 40 %
1935 18-12-2019 10:22:17 7.5 C 38 %
1936 18-12-2019 10:32:17 7.5 C 36 %
1937 18-12-2019 10:42:17 7.4 C 36 %
1938 18-12-2019 10:52:17 6.9 C 38 %
1939 18-12-2019 11:02:17 6.8 C 38 %
1940 18-12-2019 11:12:17 6.8 C 38 %
1941 18-12-2019 11:22:17 6.6 C 38 %
1942 18-12-2019 11:32:18 6.7 C 39 %
1943 18-12-2019 11:42:18 6.9 C 38 %
1944 18-12-2019 11:52:17 7.6 C 35 %
1945 18-12-2019 12:02:17 8.1 C 33 %
1946 18-12-2019 12:12:17 8 C 32 %
1947 18-12-2019 12:22:17 8.3 C 31 %
1948 18-12-2019 12:32:17 8.6 C 30 %
1949 18-12-2019 12:42:17 8.8 C 29 %
1950 18-12-2019 12:52:17 8.7 C 29 %
Sensor: Nr:Datum:Temp:Feuchte:
Aussen-T/F 1951 18-12-2019 13:02:17 8.4 C 30 %
1952 18-12-2019 13:12:17 8.2 C 30 %
1953 18-12-2019 13:22:17 7.9 C 31 %
1954 18-12-2019 13:32:18 7.8 C 32 %
1955 18-12-2019 13:42:18 7.7 C 33 %
1956 18-12-2019 13:52:17 7.8 C 32 %
1957 18-12-2019 14:02:18 7.8 C 33 %
1958 18-12-2019 14:12:18 7.7 C 33 %
1959 18-12-2019 14:22:17 7.5 C 34 %
1960 18-12-2019 14:32:17 7.3 C 35 %
1961 18-12-2019 14:42:17 7.2 C 35 %
1962 18-12-2019 14:52:17 7.2 C 35 %
1963 18-12-2019 15:02:17 7.2 C 35 %
1964 18-12-2019 15:12:17 7 C 36 %
1965 18-12-2019 15:22:17 7 C 36 %
1966 18-12-2019 15:32:17 6.7 C 37 %
1967 18-12-2019 15:42:17 6.8 C 37 %
1968 18-12-2019 15:52:17 6.7 C 36 %
1969 18-12-2019 16:02:17 6.6 C 36 %
1970 18-12-2019 16:12:17 6.5 C 36 %
1971 18-12-2019 16:22:17 6.4 C 36 %
1972 18-12-2019 16:32:17 6 C 36 %
1973 18-12-2019 16:42:17 5.8 C 37 %
1974 18-12-2019 16:52:17 5.7 C 39 %
1975 18-12-2019 17:02:17 5.3 C 38 %
Sensor: Nr:Datum:Temp:Feuchte:
Aussen-T/F 1976 18-12-2019 17:12:17 4.9 C 40 %
1977 18-12-2019 17:22:17 5 C 42 %
1978 18-12-2019 17:32:17 4.4 C 41 %
1979 18-12-2019 17:42:17 4.2 C 42 %
1980 18-12-2019 17:52:18 4.1 C 42 %
1981 18-12-2019 18:02:17 4.1 C 43 %
1982 18-12-2019 18:12:17 4.1 C 43 %
1983 18-12-2019 18:22:17 4.4 C 43 %
1984 18-12-2019 18:32:17 4.5 C 43 %
1985 18-12-2019 18:42:17 4.3 C 42 %
1986 18-12-2019 18:52:17 4.6 C 43 %
1987 18-12-2019 19:02:17 5 C 42 %
1988 18-12-2019 19:12:17 4.7 C 42 %
1989 18-12-2019 19:22:17 4.3 C 42 %
1990 18-12-2019 19:32:18 4.9 C 43 %
1991 18-12-2019 19:42:18 4.7 C 42 %
1992 18-12-2019 19:52:17 4.6 C 42 %
1993 18-12-2019 20:02:17 5 C 42 %
1994 18-12-2019 20:12:17 5 C 41 %
1995 18-12-2019 20:22:17 4.5 C 41 %
1996 18-12-2019 20:32:17 4.5 C 41 %
1997 18-12-2019 20:42:18 4.1 C 41 %
1998 18-12-2019 20:52:17 3.9 C 42 %
1999 18-12-2019 21:02:17 3.7 C 43 %
2000 18-12-2019 21:12:17 3.6 C 42 %
Sensor: Nr:Datum:Temp:Feuchte:
Aussen-T/F 2001 18-12-2019 21:22:17 3.6 C 43 %
2002 18-12-2019 21:32:17 3.7 C 43 %
2003 18-12-2019 21:42:17 3.6 C 43 %
2004 18-12-2019 21:52:17 3.4 C 43 %
2005 18-12-2019 22:02:17 3.1 C 43 %
2006 18-12-2019 22:12:17 3.1 C 43 %
2007 18-12-2019 22:22:17 2.7 C 43 %
2008 18-12-2019 22:32:17 2.6 C 43 %
2009 18-12-2019 22:42:17 2.5 C 43 %
2010 18-12-2019 22:52:17 2.4 C 43 %
2011 18-12-2019 23:02:17 2.4 C 43 %
2012 18-12-2019 23:12:17 2.3 C 43 %
2013 18-12-2019 23:22:18 2.3 C 43 %
2014 18-12-2019 23:32:17 2 C 43 %
2015 18-12-2019 23:42:17 2 C 43 %
2016 18-12-2019 23:52:17 2 C 43 %
2017 19-12-2019 00:02:18 2.3 C 44 %
2018 19-12-2019 00:12:18 2 C 43 %
2019 19-12-2019 00:22:17 2 C 43 %
2020 19-12-2019 00:32:17 2.1 C 43 %
2021 19-12-2019 00:42:17 2.4 C 44 %
2022 19-12-2019 00:52:18 2.3 C 43 %
2023 19-12-2019 01:02:17 2.1 C 43 %
2024 19-12-2019 01:12:17 2 C 43 %
2025 19-12-2019 01:22:17 2 C 43 %
Sensor: Nr:Datum:Temp:Feuchte:
Aussen-T/F 2026 19-12-2019 01:32:18 1.6 C 44 %
2027 19-12-2019 01:42:18 1.9 C 44 %
2028 19-12-2019 01:52:17 2.3 C 43 %
2029 19-12-2019 02:02:17 2.2 C 43 %
2030 19-12-2019 02:12:17 2 C 43 %
2031 19-12-2019 02:22:17 2 C 43 %
2032 19-12-2019 02:32:18 2 C 43 %
2033 19-12-2019 02:42:18 1.8 C 44 %
2034 19-12-2019 02:52:17 2.1 C 43 %
2035 19-12-2019 03:02:18 1.5 C 44 %
2036 19-12-2019 03:12:18 1.6 C 44 %
2037 19-12-2019 03:22:17 1.6 C 44 %
2038 19-12-2019 03:32:17 1.8 C 44 %
2039 19-12-2019 03:42:17 1.7 C 44 %
2040 19-12-2019 03:52:17 1.7 C 44 %
2041 19-12-2019 04:02:17 1.6 C 44 %
2042 19-12-2019 04:12:17 1.5 C 44 %
2043 19-12-2019 04:22:18 1.5 C 44 %
2044 19-12-2019 04:32:17 1.5 C 44 %
2045 19-12-2019 04:42:17 1.4 C 44 %
2046 19-12-2019 04:52:18 1.6 C 44 %
2047 19-12-2019 05:02:17 1.4 C 44 %
2048 19-12-2019 05:12:17 1.5 C 44 %
2049 19-12-2019 05:22:17 1.4 C 44 %
2050 19-12-2019 05:32:17 1.3 C 44 %
Sensor: Nr:Datum:Temp:Feuchte:
Aussen-T/F 2051 19-12-2019 05:42:17 1.3 C 44 %
2052 19-12-2019 05:52:17 1.1 C 44 %
2053 19-12-2019 06:02:17 1.1 C 44 %
2054 19-12-2019 06:12:17 1.2 C 44 %
2055 19-12-2019 06:22:17 1 C 44 %
2056 19-12-2019 06:32:17 1.1 C 44 %
2057 19-12-2019 06:42:18 1 C 43 %
2058 19-12-2019 06:52:17 0.7 C 45 %
2059 19-12-2019 07:02:17 1 C 44 %
2060 19-12-2019 07:12:17 0.9 C 45 %
2061 19-12-2019 07:22:17 1.7 C 44 %
2062 19-12-2019 07:32:17 3.5 C 43 %
2063 19-12-2019 07:42:18 3.2 C 42 %
2064 19-12-2019 07:52:17 3.1 C 42 %
2065 19-12-2019 08:02:18 4.6 C 42 %
2066 19-12-2019 08:12:18 3.8 C 42 %
2067 19-12-2019 08:22:17 3.7 C 42 %
2068 19-12-2019 08:32:18 4.6 C 41 %
2069 19-12-2019 08:42:18 4 C 41 %
2070 19-12-2019 08:52:17 3.3 C 41 %
2071 19-12-2019 09:02:17 4 C 41 %
2072 19-12-2019 09:12:17 4.4 C 41 %
2073 19-12-2019 09:22:17 4.1 C 41 %
2074 19-12-2019 09:32:17 4.6 C 41 %
2075 19-12-2019 09:42:17 4.4 C 41 %
Sensor: Nr:Datum:Temp:Feuchte:
Aussen-T/F 2076 19-12-2019 09:52:17 4.5 C 41 %
2077 19-12-2019 10:02:17 4.7 C 41 %
2078 19-12-2019 10:12:17 4.9 C 41 %
2079 19-12-2019 10:22:17 5.2 C 41 %
2080 19-12-2019 10:32:17 7 C 40 %
2081 19-12-2019 10:42:17 7.2 C 40 %
2082 19-12-2019 10:52:18 6.7 C 40 %
2083 19-12-2019 11:02:17 6.4 C 39 %
2084 19-12-2019 11:12:17 6.3 C 39 %
2085 19-12-2019 11:22:17 6.3 C 40 %
2086 19-12-2019 11:32:17 6.4 C 40 %
2087 19-12-2019 11:42:17 6.6 C 40 %
2088 19-12-2019 11:52:18 6.7 C 40 %
2089 19-12-2019 12:02:17 6.6 C 40 %
2090 19-12-2019 12:12:17 6.7 C 40 %
2091 19-12-2019 12:22:17 6.7 C 40 %
2092 19-12-2019 12:32:17 7 C 39 %
2093 19-12-2019 12:42:17 7 C 39 %
2094 19-12-2019 12:52:17 7.1 C 39 %
2095 19-12-2019 13:02:17 7.3 C 39 %
2096 19-12-2019 13:12:17 7.1 C 38 %
2097 19-12-2019 13:22:17 7.2 C 39 %
2098 19-12-2019 13:32:17 7.2 C 39 %
2099 19-12-2019 13:42:17 7.3 C 38 %
2100 19-12-2019 13:52:17 7.3 C 38 %
Sensor: Nr:Datum:Temp:Feuchte:
Aussen-T/F 2101 19-12-2019 14:02:17 7.3 C 38 %
2102 19-12-2019 14:12:17 7.1 C 38 %
2103 19-12-2019 14:22:17 7.1 C 38 %
2104 19-12-2019 14:32:17 7.2 C 38 %
2105 19-12-2019 14:42:17 7.3 C 37 %
2106 19-12-2019 14:52:17 7.9 C 36 %
2107 19-12-2019 15:02:17 8.1 C 34 %
2108 19-12-2019 15:12:17 8.1 C 33 %
2109 19-12-2019 15:22:17 8.4 C 32 %
2110 19-12-2019 15:32:18 8.6 C 32 %
2111 19-12-2019 15:42:18 8.7 C 31 %
2112 19-12-2019 15:52:17 8.8 C 31 %
2113 19-12-2019 16:02:17 8.7 C 30 %
2114 19-12-2019 16:12:17 8.3 C 31 %
2115 19-12-2019 16:22:18 8.1 C 31 %
2116 19-12-2019 16:32:17 7.9 C 32 %
2117 19-12-2019 16:42:17 7.9 C 31 %
2118 19-12-2019 16:52:17 7.6 C 32 %
2119 19-12-2019 17:02:17 7.4 C 32 %
2120 19-12-2019 17:12:17 6 C 35 %
2121 19-12-2019 17:22:17 5.7 C 37 %
2122 19-12-2019 17:32:17 5.5 C 39 %
2123 19-12-2019 17:42:17 5 C 39 %
2124 19-12-2019 17:52:17 4.9 C 41 %
2125 19-12-2019 18:02:17 5.2 C 42 %
Sensor: Nr:Datum:Temp:Feuchte:
Aussen-T/F 2126 19-12-2019 18:12:18 4.9 C 42 %
2127 19-12-2019 18:22:17 5.2 C 42 %
2128 19-12-2019 18:32:17 5 C 41 %
2129 19-12-2019 18:42:17 5 C 41 %
2130 19-12-2019 18:52:18 5.8 C 42 %
2131 19-12-2019 19:02:17 5.7 C 41 %
2132 19-12-2019 19:12:17 5.2 C 39 %
2133 19-12-2019 19:22:18 4.7 C 40 %
2134 19-12-2019 19:32:17 4.9 C 42 %
2135 19-12-2019 19:42:17 4.7 C 42 %
2136 19-12-2019 19:52:17 4.8 C 42 %
2137 19-12-2019 20:02:17 5 C 42 %
2138 19-12-2019 20:12:17 5 C 41 %
2139 19-12-2019 20:22:17 4.8 C 42 %
2140 19-12-2019 20:32:17 5.1 C 42 %
2141 19-12-2019 20:42:17 6 C 41 %
2142 19-12-2019 20:52:17 6 C 38 %
2143 19-12-2019 21:02:17 5.8 C 38 %
2144 19-12-2019 21:12:18 5.8 C 39 %
2145 19-12-2019 21:22:17 5.7 C 39 %
2146 19-12-2019 21:32:17 5.8 C 40 %
2147 19-12-2019 21:42:17 6 C 40 %
2148 19-12-2019 21:52:17 5.7 C 40 %
2149 19-12-2019 22:02:17 5.6 C 40 %
2150 19-12-2019 22:12:17 5.8 C 41 %
Sensor: Nr:Datum:Temp:Feuchte:
Aussen-T/F 2151 19-12-2019 22:22:18 6.2 C 41 %
2152 19-12-2019 22:32:18 5.9 C 40 %
2153 19-12-2019 22:42:18 5.1 C 38 %
2154 19-12-2019 22:52:17 5 C 41 %
2155 19-12-2019 23:02:17 5.4 C 43 %
2156 19-12-2019 23:12:17 5.5 C 42 %
2157 19-12-2019 23:22:17 5.5 C 42 %
2158 19-12-2019 23:32:17 5.4 C 42 %
2159 19-12-2019 23:42:17 5.4 C 42 %
2160 19-12-2019 23:52:17 5.1 C 41 %
2161 20-12-2019 00:02:17 4.8 C 42 %
2162 20-12-2019 00:12:17 4.3 C 41 %
2163 20-12-2019 00:22:17 4 C 41 %
2164 20-12-2019 00:32:17 3.9 C 43 %
2165 20-12-2019 00:42:17 3.7 C 42 %
2166 20-12-2019 00:52:17 3.4 C 43 %
2167 20-12-2019 01:02:17 3.1 C 42 %
2168 20-12-2019 01:12:17 3 C 43 %
2169 20-12-2019 01:22:17 3.3 C 44 %
2170 20-12-2019 01:32:17 3.1 C 43 %
2171 20-12-2019 01:42:17 3.1 C 43 %
2172 20-12-2019 01:52:17 2.8 C 44 %
2173 20-12-2019 02:02:17 2.8 C 44 %
2174 20-12-2019 02:12:17 2.6 C 44 %
2175 20-12-2019 02:22:17 2.5 C 44 %
Sensor: Nr:Datum:Temp:Feuchte:
Aussen-T/F 2176 20-12-2019 02:32:18 3.2 C 44 %
2177 20-12-2019 02:42:18 3.4 C 44 %
2178 20-12-2019 02:52:17 3.8 C 44 %
2179 20-12-2019 03:02:17 4.7 C 42 %
2180 20-12-2019 03:12:17 4.2 C 41 %
2181 20-12-2019 03:22:17 4.6 C 41 %
2182 20-12-2019 03:32:17 4.4 C 40 %
2183 20-12-2019 03:42:17 4.4 C 40 %
2184 20-12-2019 03:52:17 4.6 C 41 %
2185 20-12-2019 04:02:17 4.4 C 40 %
2186 20-12-2019 04:12:17 4.2 C 40 %
2187 20-12-2019 04:22:17 4 C 41 %
2188 20-12-2019 04:32:18 4.8 C 42 %
2189 20-12-2019 04:42:18 4.5 C 41 %
2190 20-12-2019 04:52:17 4.7 C 40 %
2191 20-12-2019 05:02:17 4.7 C 40 %
2192 20-12-2019 05:12:17 5.3 C 38 %
2193 20-12-2019 05:22:17 5.2 C 36 %
2194 20-12-2019 05:32:17 5.3 C 36 %
2195 20-12-2019 05:42:17 5.4 C 35 %
2196 20-12-2019 05:52:18 5.5 C 35 %
2197 20-12-2019 06:02:18 5.2 C 35 %
2198 20-12-2019 06:12:18 5.3 C 35 %
2199 20-12-2019 06:22:17 5.6 C 35 %
2200 20-12-2019 06:32:17 6 C 32 %
Sensor: Nr:Datum:Temp:Feuchte:
Aussen-T/F 2201 20-12-2019 06:42:17 6 C 31 %
2202 20-12-2019 06:52:17 5.7 C 32 %
2203 20-12-2019 07:02:17 5.8 C 31 %
2204 20-12-2019 07:12:17 5.9 C 31 %
2205 20-12-2019 07:22:17 6.1 C 31 %
2206 20-12-2019 07:32:17 5.9 C 33 %
2207 20-12-2019 07:42:17 6.4 C 31 %
2208 20-12-2019 07:52:17 6.8 C 30 %
2209 20-12-2019 08:02:17 7.1 C 27 %
2210 20-12-2019 08:12:17 6.4 C 31 %
2211 20-12-2019 08:22:17 6.4 C 32 %
2212 20-12-2019 08:32:18 6.5 C 32 %
2213 20-12-2019 08:42:18 6.3 C 32 %
2214 20-12-2019 08:52:17 6.3 C 33 %
2215 20-12-2019 09:02:17 6.5 C 33 %
2216 20-12-2019 09:12:17 6.7 C 31 %
2217 20-12-2019 09:22:17 6.5 C 33 %
2218 20-12-2019 09:32:17 6.4 C 35 %
2219 20-12-2019 09:42:17 6.5 C 35 %
2220 20-12-2019 09:52:17 6.5 C 34 %
2221 20-12-2019 10:02:17 6.2 C 31 %
2222 20-12-2019 10:12:17 6 C 33 %
2223 20-12-2019 10:22:17 5.7 C 35 %
2224 20-12-2019 10:32:17 5.8 C 40 %
2225 20-12-2019 10:42:17 5.9 C 42 %
Sensor: Nr:Datum:Temp:Feuchte:
Aussen-T/F 2226 20-12-2019 10:52:17 6 C 42 %
2227 20-12-2019 11:02:17 6.1 C 42 %
2228 20-12-2019 11:12:17 6 C 42 %
2229 20-12-2019 11:22:17 6.3 C 42 %
2230 20-12-2019 11:32:17 6.5 C 42 %
2231 20-12-2019 11:42:17 6.7 C 41 %
2232 20-12-2019 11:52:17 6.8 C 40 %
2233 20-12-2019 12:02:18 7 C 39 %
2234 20-12-2019 12:12:18 7.3 C 39 %
2235 20-12-2019 12:22:18 7.5 C 39 %
2236 20-12-2019 12:32:17 7.7 C 39 %
2237 20-12-2019 12:42:18 8 C 39 %
2238 20-12-2019 12:52:17 8.1 C 38 %
2239 20-12-2019 13:02:18 8.1 C 39 %
2240 20-12-2019 13:12:18 8.2 C 39 %
2241 20-12-2019 13:22:17 8.3 C 37 %
2242 20-12-2019 13:32:17 8.4 C 36 %
2243 20-12-2019 13:42:17 8.6 C 37 %
2244 20-12-2019 13:52:17 8.5 C 36 %
2245 20-12-2019 14:02:17 8.6 C 36 %
2246 20-12-2019 14:12:17 8.6 C 35 %
2247 20-12-2019 14:22:17 8.7 C 36 %
2248 20-12-2019 14:32:17 8.7 C 36 %
2249 20-12-2019 14:42:17 8.5 C 35 %
2250 20-12-2019 14:52:18 8.3 C 36 %
Sensor: Nr:Datum:Temp:Feuchte:
Aussen-T/F 2251 20-12-2019 15:02:17 8.2 C 37 %
2252 20-12-2019 15:12:17 8.3 C 38 %
2253 20-12-2019 15:22:17 8.3 C 39 %
2254 20-12-2019 15:32:17 8.2 C 40 %
2255 20-12-2019 15:42:17 8.3 C 41 %
2256 20-12-2019 15:52:17 8.2 C 40 %
2257 20-12-2019 16:02:17 8.2 C 40 %
2258 20-12-2019 16:12:18 8.3 C 40 %
2259 20-12-2019 16:22:17 8.3 C 41 %
2260 20-12-2019 16:32:17 8.4 C 41 %
2261 20-12-2019 16:42:17 8.4 C 41 %
2262 20-12-2019 16:52:18 8.6 C 41 %
2263 20-12-2019 17:02:17 9 C 41 %
2264 20-12-2019 17:12:18 9 C 40 %
2265 20-12-2019 17:22:17 9.1 C 36 %
2266 20-12-2019 17:32:17 8.7 C 38 %
2267 20-12-2019 17:42:17 8.8 C 37 %
2268 20-12-2019 17:52:18 8.7 C 38 %
2269 20-12-2019 18:02:17 8.9 C 37 %
2270 20-12-2019 18:12:17 8.9 C 36 %
2271 20-12-2019 18:22:17 8.9 C 37 %
2272 20-12-2019 18:32:17 8.9 C 37 %
2273 20-12-2019 18:42:17 9.7 C 33 %
2274 20-12-2019 18:52:18 9.5 C 31 %
2275 20-12-2019 19:02:17 9.8 C 30 %
Sensor: Nr:Datum:Temp:Feuchte:
Aussen-T/F 2276 20-12-2019 19:12:17 10.1 C 28 %
2277 20-12-2019 19:22:17 9.9 C 29 %
2278 20-12-2019 19:32:17 9.8 C 29 %
2279 20-12-2019 19:42:17 10 C 27 %
2280 20-12-2019 19:52:18 9.7 C 29 %
2281 20-12-2019 20:02:18 9.6 C 28 %
2282 20-12-2019 20:12:18 9.5 C 28 %
2283 20-12-2019 20:22:17 9.5 C 27 %
2284 20-12-2019 20:32:18 9 C 28 %
2285 20-12-2019 20:42:18 9 C 27 %
2286 20-12-2019 20:52:17 8.9 C 28 %
2287 20-12-2019 21:02:18 8.5 C 28 %
2288 20-12-2019 21:12:18 8.6 C 28 %
2289 20-12-2019 21:22:17 8.9 C 27 %
2290 20-12-2019 21:32:17 8.7 C 27 %
2291 20-12-2019 21:42:17 8.3 C 28 %
2292 20-12-2019 21:52:17 8.3 C 28 %
2293 20-12-2019 22:02:17 8.3 C 28 %
2294 20-12-2019 22:12:17 8.1 C 28 %
2295 20-12-2019 22:22:17 8.7 C 27 %
2296 20-12-2019 22:32:17 8.9 C 26 %
2297 20-12-2019 22:42:17 8.7 C 27 %
2298 20-12-2019 22:52:17 8.7 C 27 %
2299 20-12-2019 23:02:17 8.5 C 27 %
2300 20-12-2019 23:12:17 8.4 C 27 %
Sensor: Nr:Datum:Temp:Feuchte:
Aussen-T/F 2301 20-12-2019 23:22:17 8.2 C 28 %
2302 20-12-2019 23:32:17 8 C 28 %
2303 20-12-2019 23:42:17 8.3 C 27 %
2304 20-12-2019 23:52:18 8.1 C 27 %
2305 21-12-2019 00:02:17 7.9 C 28 %
2306 21-12-2019 00:12:17 7.7 C 28 %
2307 21-12-2019 00:22:17 7.5 C 30 %
2308 21-12-2019 00:32:17 7.5 C 30 %
2309 21-12-2019 00:42:17 7.2 C 30 %
2310 21-12-2019 00:52:18 7 C 30 %
2311 21-12-2019 01:02:17 6.9 C 32 %
2312 21-12-2019 01:12:17 7.3 C 31 %
2313 21-12-2019 01:22:17 7.4 C 31 %
2314 21-12-2019 01:32:17 7.3 C 32 %
2315 21-12-2019 01:42:17 7.5 C 31 %
2316 21-12-2019 01:52:17 7.5 C 32 %
2317 21-12-2019 02:02:17 7.9 C 30 %
2318 21-12-2019 02:12:17 8 C 29 %
2319 21-12-2019 02:22:17 8.2 C 28 %
2320 21-12-2019 02:32:18 7.8 C 30 %
2321 21-12-2019 02:42:18 7.8 C 30 %
2322 21-12-2019 02:52:17 7.8 C 30 %
2323 21-12-2019 03:02:17 7.5 C 30 %
2324 21-12-2019 03:12:17 7.5 C 31 %
2325 21-12-2019 03:22:17 7.4 C 31 %
Sensor: Nr:Datum:Temp:Feuchte:
Aussen-T/F 2326 21-12-2019 03:32:18 7.3 C 31 %
2327 21-12-2019 03:42:18 7.1 C 31 %
2328 21-12-2019 03:52:17 7.1 C 32 %
2329 21-12-2019 04:02:17 6.9 C 33 %
2330 21-12-2019 04:12:17 6.7 C 36 %
2331 21-12-2019 04:22:17 6.4 C 37 %
2332 21-12-2019 04:32:18 6 C 38 %
2333 21-12-2019 04:42:18 5.9 C 38 %
2334 21-12-2019 04:52:17 5.7 C 40 %
2335 21-12-2019 05:02:17 6 C 40 %
2336 21-12-2019 05:12:17 5.6 C 39 %
2337 21-12-2019 05:22:17 5.4 C 38 %
2338 21-12-2019 05:32:18 5.4 C 38 %
2339 21-12-2019 05:42:18 5.1 C 38 %
2340 21-12-2019 05:52:17 5.3 C 40 %
2341 21-12-2019 06:02:17 4.9 C 41 %
2342 21-12-2019 06:12:17 4.8 C 41 %
2343 21-12-2019 06:22:18 4.3 C 40 %
2344 21-12-2019 06:32:17 4.3 C 42 %
2345 21-12-2019 06:42:17 5 C 40 %
2346 21-12-2019 06:52:18 3.8 C 41 %
2347 21-12-2019 07:02:17 3.8 C 43 %
2348 21-12-2019 07:12:18 3.5 C 42 %
2349 21-12-2019 07:22:17 3.4 C 43 %
2350 21-12-2019 07:32:17 3.3 C 43 %
Sensor: Nr:Datum:Temp:Feuchte:
Aussen-T/F 2351 21-12-2019 07:42:17 3 C 42 %
2352 21-12-2019 07:52:17 3 C 43 %
2353 21-12-2019 08:02:17 3.1 C 44 %
2354 21-12-2019 08:12:17 3.6 C 44 %
2355 21-12-2019 08:22:17 3.7 C 44 %
2356 21-12-2019 08:32:17 3.9 C 43 %
2357 21-12-2019 08:42:17 4.6 C 43 %
2358 21-12-2019 08:52:17 4.9 C 42 %
2359 21-12-2019 09:02:17 5 C 39 %
2360 21-12-2019 09:12:17 4.5 C 38 %
2361 21-12-2019 09:22:17 4.4 C 38 %
2362 21-12-2019 09:32:17 4.4 C 39 %
2363 21-12-2019 09:42:17 4.6 C 40 %
2364 21-12-2019 09:52:17 4.6 C 38 %
2365 21-12-2019 10:02:17 4.8 C 38 %
2366 21-12-2019 10:12:17 4.8 C 37 %
2367 21-12-2019 10:22:17 5.1 C 37 %
2368 21-12-2019 10:32:17 5.2 C 36 %
2369 21-12-2019 10:42:17 5.1 C 37 %
2370 21-12-2019 10:52:17 5.2 C 37 %
2371 21-12-2019 11:02:17 5.3 C 37 %
2372 21-12-2019 11:12:17 5.3 C 37 %
2373 21-12-2019 11:22:17 5.4 C 37 %
2374 21-12-2019 11:32:17 5.8 C 37 %
2375 21-12-2019 11:42:17 5.9 C 37 %
Sensor: Nr:Datum:Temp:Feuchte:
Aussen-T/F 2376 21-12-2019 11:52:17 5.8 C 37 %
2377 21-12-2019 12:02:17 5.8 C 36 %
2378 21-12-2019 12:12:17 6.2 C 36 %
2379 21-12-2019 12:22:17 6.2 C 35 %
2380 21-12-2019 12:32:17 7 C 32 %
2381 21-12-2019 12:42:17 6.8 C 33 %
2382 21-12-2019 12:52:17 8 C 30 %
2383 21-12-2019 13:02:17 7.8 C 30 %
2384 21-12-2019 13:12:17 7.1 C 30 %
2385 21-12-2019 13:22:17 6.9 C 31 %
2386 21-12-2019 13:32:17 7.2 C 30 %
2387 21-12-2019 13:42:17 8 C 28 %
2388 21-12-2019 13:52:18 7.7 C 28 %
2389 21-12-2019 14:02:17 8.3 C 27 %
2390 21-12-2019 14:12:17 8.8 C 26 %
2391 21-12-2019 14:22:17 8.2 C 27 %
2392 21-12-2019 14:32:18 8.2 C 27 %
2393 21-12-2019 14:42:18 8.5 C 27 %
2394 21-12-2019 14:52:17 8.8 C 26 %
2395 21-12-2019 15:02:18 9 C 25 %
2396 21-12-2019 15:12:18 8.7 C 26 %
2397 21-12-2019 15:22:18 8.8 C 25 %
2398 21-12-2019 15:32:17 8.7 C 25 %
2399 21-12-2019 15:42:17 8 C 26 %
2400 21-12-2019 15:52:17 7.5 C 28 %
Sensor: Nr:Datum:Temp:Feuchte:
Aussen-T/F 2401 21-12-2019 16:02:17 7.7 C 27 %
2402 21-12-2019 16:12:17 7.6 C 29 %
2403 21-12-2019 16:22:17 7.4 C 30 %
2404 21-12-2019 16:32:17 7.4 C 30 %
2405 21-12-2019 16:42:17 7.7 C 28 %
2406 21-12-2019 16:52:17 7.9 C 27 %
2407 21-12-2019 17:02:17 7.6 C 29 %
2408 21-12-2019 17:12:17 7.3 C 30 %
2409 21-12-2019 17:22:17 7.2 C 30 %
2410 21-12-2019 17:32:17 7.3 C 30 %
2411 21-12-2019 17:42:17 7.3 C 29 %
2412 21-12-2019 17:52:17 7.2 C 29 %
2413 21-12-2019 18:02:17 7.6 C 27 %
2414 21-12-2019 18:12:17 7.6 C 27 %
2415 21-12-2019 18:22:17 7.6 C 26 %
2416 21-12-2019 18:32:18 7.9 C 25 %
2417 21-12-2019 18:42:18 7.7 C 26 %
2418 21-12-2019 18:52:17 7.5 C 26 %
2419 21-12-2019 19:02:17 7.3 C 27 %
2420 21-12-2019 19:12:17 7 C 27 %
2421 21-12-2019 19:22:17 7 C 27 %
2422 21-12-2019 19:32:17 6.9 C 30 %
2423 21-12-2019 19:42:17 6.8 C 30 %
2424 21-12-2019 19:52:17 7 C 27 %
2425 21-12-2019 20:02:17 7.1 C 26 %
Sensor: Nr:Datum:Temp:Feuchte:
Aussen-T/F 2426 21-12-2019 20:12:17 7.1 C 26 %
2427 21-12-2019 20:22:17 7.1 C 26 %
2428 21-12-2019 20:32:17 6.9 C 28 %
2429 21-12-2019 20:42:17 7 C 27 %
2430 21-12-2019 20:52:17 6.8 C 27 %
2431 21-12-2019 21:02:18 6.4 C 29 %
2432 21-12-2019 21:12:18 6.1 C 30 %
2433 21-12-2019 21:22:17 6.1 C 31 %
2434 21-12-2019 21:32:17 6.3 C 31 %
2435 21-12-2019 21:42:17 5.9 C 31 %
2436 21-12-2019 21:52:18 5.1 C 34 %
2437 21-12-2019 22:02:18 4.9 C 36 %
2438 21-12-2019 22:12:18 5.2 C 34 %
2439 21-12-2019 22:22:17 5.7 C 30 %
2440 21-12-2019 22:32:17 6.1 C 27 %
2441 21-12-2019 22:42:17 6.1 C 27 %
2442 21-12-2019 22:52:17 6 C 27 %
2443 21-12-2019 23:02:17 5.8 C 27 %
2444 21-12-2019 23:12:17 5.8 C 27 %
2445 21-12-2019 23:22:17 6.3 C 26 %
2446 21-12-2019 23:32:18 6.5 C 25 %
2447 21-12-2019 23:42:18 6.7 C 25 %
2448 21-12-2019 23:52:17 6.3 C 26 %
2449 22-12-2019 00:02:17 6.8 C 26 %
2450 22-12-2019 00:12:17 6.9 C 26 %
Sensor: Nr:Datum:Temp:Feuchte:
Aussen-T/F 2451 22-12-2019 00:22:17 6.8 C 26 %
2452 22-12-2019 00:32:17 6.8 C 26 %
2453 22-12-2019 00:42:17 6.7 C 27 %
2454 22-12-2019 00:52:17 6.3 C 30 %
2455 22-12-2019 01:02:17 6.2 C 30 %
2456 22-12-2019 01:12:18 5.8 C 35 %
2457 22-12-2019 01:22:17 5.8 C 36 %
2458 22-12-2019 01:32:17 5.8 C 39 %
2459 22-12-2019 01:42:17 5.7 C 40 %
2460 22-12-2019 01:52:17 5.7 C 40 %
2461 22-12-2019 02:02:17 5.7 C 38 %
2462 22-12-2019 02:12:18 5.7 C 38 %
2463 22-12-2019 02:22:17 5.8 C 38 %
2464 22-12-2019 02:32:17 5.9 C 37 %
2465 22-12-2019 02:42:17 5.9 C 36 %
2466 22-12-2019 02:52:18 6 C 35 %
2467 22-12-2019 03:02:17 6.1 C 35 %
2468 22-12-2019 03:12:17 6.2 C 34 %
2469 22-12-2019 03:22:17 6.2 C 35 %
2470 22-12-2019 03:32:17 6.2 C 34 %
2471 22-12-2019 03:42:17 6.1 C 35 %
2472 22-12-2019 03:52:17 6.2 C 35 %
2473 22-12-2019 04:02:18 6.2 C 35 %
2474 22-12-2019 04:12:18 6 C 35 %
2475 22-12-2019 04:22:17 6.2 C 34 %
Sensor: Nr:Datum:Temp:Feuchte:
Aussen-T/F 2476 22-12-2019 04:32:17 6.2 C 34 %
2477 22-12-2019 04:42:17 6.3 C 33 %
2478 22-12-2019 04:52:17 6.3 C 33 %
2479 22-12-2019 05:02:17 6.2 C 34 %
2480 22-12-2019 05:12:17 5.8 C 34 %
2481 22-12-2019 05:22:17 5.4 C 36 %
2482 22-12-2019 05:32:17 5.7 C 40 %
2483 22-12-2019 05:42:17 6.1 C 38 %
2484 22-12-2019 05:52:17 5.5 C 35 %
2485 22-12-2019 06:02:17 5.1 C 39 %
2486 22-12-2019 06:12:17 5.3 C 41 %
2487 22-12-2019 06:22:17 4.9 C 41 %
2488 22-12-2019 06:32:17 5.4 C 42 %
2489 22-12-2019 06:42:17 5.9 C 41 %
2490 22-12-2019 06:52:17 6.2 C 39 %
2491 22-12-2019 07:02:17 6.2 C 38 %
2492 22-12-2019 07:12:17 6 C 38 %
2493 22-12-2019 07:22:17 5.7 C 38 %
2494 22-12-2019 07:32:17 5.4 C 39 %
2495 22-12-2019 07:42:17 6 C 42 %
2496 22-12-2019 07:52:17 6.1 C 41 %
2497 22-12-2019 08:02:18 6.3 C 41 %
2498 22-12-2019 08:12:18 6.2 C 40 %
2499 22-12-2019 08:22:17 5.9 C 40 %
2500 22-12-2019 08:32:17 5.8 C 41 %
Sensor: Nr:Datum:Temp:Feuchte:
Aussen-T/F 2501 22-12-2019 08:42:17 6.3 C 41 %
2502 22-12-2019 08:52:18 6.2 C 39 %
2503 22-12-2019 09:02:17 6 C 39 %
2504 22-12-2019 09:12:17 6.2 C 40 %
2505 22-12-2019 09:22:17 6.4 C 39 %
2506 22-12-2019 09:32:17 6.3 C 39 %
2507 22-12-2019 09:42:17 6.8 C 39 %
2508 22-12-2019 09:52:17 7 C 37 %
2509 22-12-2019 10:02:17 7.1 C 37 %
2510 22-12-2019 10:12:17 7.9 C 33 %
2511 22-12-2019 10:22:17 8.1 C 33 %
2512 22-12-2019 10:32:17 8.8 C 30 %
2513 22-12-2019 10:42:17 9 C 29 %
2514 22-12-2019 10:52:17 9.3 C 28 %
2515 22-12-2019 11:02:17 9.5 C 28 %
2516 22-12-2019 11:12:17 10 C 26 %
2517 22-12-2019 11:22:17 10 C 26 %
2518 22-12-2019 11:32:18 10.4 C 26 %
2519 22-12-2019 11:42:18 10.2 C 26 %
2520 22-12-2019 11:52:17 10.4 C 26 %
2521 22-12-2019 12:02:17 10.5 C 25 %
2522 22-12-2019 12:12:17 10.5 C 26 %
2523 22-12-2019 12:22:17 10.5 C 25 %
2524 22-12-2019 12:32:17 10.7 C 26 %
2525 22-12-2019 12:42:17 10.8 C 26 %
Sensor: Nr:Datum:Temp:Feuchte:
Aussen-T/F 2526 22-12-2019 12:52:17 11.2 C 25 %
2527 22-12-2019 13:02:17 11.1 C 25 %
2528 22-12-2019 13:12:17 10.8 C 25 %
2529 22-12-2019 13:22:17 10.7 C 25 %
2530 22-12-2019 13:32:17 10.7 C 25 %
2531 22-12-2019 13:42:17 10.7 C 25 %
2532 22-12-2019 13:52:17 10.8 C 25 %
2533 22-12-2019 14:02:17 11.1 C 23 %
2534 22-12-2019 14:12:17 11 C 23 %
2535 22-12-2019 14:22:17 10.8 C 23 %
2536 22-12-2019 14:32:17 10.9 C 23 %
2537 22-12-2019 14:42:17 10.8 C 23 %
2538 22-12-2019 14:52:17 10.7 C 25 %
2539 22-12-2019 15:02:17 10.6 C 25 %
2540 22-12-2019 15:12:17 10.3 C 25 %
2541 22-12-2019 15:22:17 10.1 C 25 %
2542 22-12-2019 15:32:17 9.9 C 26 %
2543 22-12-2019 15:42:17 9.7 C 26 %
2544 22-12-2019 15:52:18 9.6 C 25 %
2545 22-12-2019 16:02:18 9.6 C 25 %
2546 22-12-2019 16:12:18 9.3 C 25 %
2547 22-12-2019 16:22:17 8.9 C 26 %
2548 22-12-2019 16:32:17 8.3 C 26 %
2549 22-12-2019 16:42:17 8.4 C 27 %
2550 22-12-2019 16:52:17 7.9 C 28 %
Sensor: Nr:Datum:Temp:Feuchte:
Aussen-T/F 2551 22-12-2019 17:02:18 7.5 C 30 %
2552 22-12-2019 17:12:18 7.5 C 30 %
2553 22-12-2019 17:22:17 7.4 C 30 %
2554 22-12-2019 17:32:17 7.5 C 29 %
2555 22-12-2019 17:42:17 7.5 C 28 %
2556 22-12-2019 17:52:17 7.2 C 28 %
2557 22-12-2019 18:02:17 7.2 C 30 %
2558 22-12-2019 18:12:17 7.1 C 30 %
2559 22-12-2019 18:22:17 7.3 C 30 %
2560 22-12-2019 18:32:17 7.4 C 29 %
2561 22-12-2019 18:42:17 7.5 C 29 %
2562 22-12-2019 18:52:17 7.2 C 29 %
2563 22-12-2019 19:02:17 7.1 C 30 %
2564 22-12-2019 19:12:17 7 C 31 %
2565 22-12-2019 19:22:17 7 C 32 %
2566 22-12-2019 19:32:17 7.1 C 31 %
2567 22-12-2019 19:42:17 7.5 C 30 %
2568 22-12-2019 19:52:17 8 C 27 %
2569 22-12-2019 20:02:17 7.9 C 27 %
2570 22-12-2019 20:12:17 8.1 C 26 %
2571 22-12-2019 20:22:17 8.3 C 25 %
2572 22-12-2019 20:32:17 8.2 C 25 %
2573 22-12-2019 20:42:17 8 C 25 %
2574 22-12-2019 20:52:17 8 C 25 %
2575 22-12-2019 21:02:17 8.1 C 25 %
Sensor: Nr:Datum:Temp:Feuchte:
Aussen-T/F 2576 22-12-2019 21:12:17 8.1 C 25 %
2577 22-12-2019 21:22:17 7.8 C 25 %
2578 22-12-2019 21:32:17 8.1 C 25 %
2579 22-12-2019 21:42:17 7.8 C 26 %
2580 22-12-2019 21:52:17 7.7 C 26 %
2581 22-12-2019 22:02:17 7.9 C 26 %
2582 22-12-2019 22:12:17 7.6 C 26 %
2583 22-12-2019 22:22:17 7.5 C 26 %
2584 22-12-2019 22:32:17 7.1 C 27 %
2585 22-12-2019 22:42:17 6.9 C 28 %
2586 22-12-2019 22:52:17 6.7 C 29 %
2587 22-12-2019 23:02:17 6.2 C 31 %
2588 22-12-2019 23:12:17 6.4 C 31 %
2589 22-12-2019 23:22:17 6.6 C 31 %
2590 22-12-2019 23:32:17 6.6 C 31 %
2591 22-12-2019 23:42:17 6.7 C 31 %
2592 22-12-2019 23:52:17 6.7 C 31 %
2593 23-12-2019 00:02:17 6.6 C 32 %
2594 23-12-2019 00:12:17 6.5 C 31 %
2595 23-12-2019 00:22:17 6.4 C 32 %
2596 23-12-2019 00:32:17 6.6 C 31 %
2597 23-12-2019 00:42:17 7 C 30 %
2598 23-12-2019 00:52:17 6.9 C 30 %
2599 23-12-2019 01:02:17 6.8 C 30 %
2600 23-12-2019 01:12:17 7.1 C 28 %
Sensor: Nr:Datum:Temp:Feuchte:
Aussen-T/F 2601 23-12-2019 01:22:17 7 C 28 %
2602 23-12-2019 01:32:17 7.1 C 28 %
2603 23-12-2019 01:42:17 7.4 C 27 %
2604 23-12-2019 01:52:17 7.4 C 27 %
2605 23-12-2019 02:02:17 6.8 C 29 %
2606 23-12-2019 02:12:17 6.5 C 30 %
2607 23-12-2019 02:22:17 6.8 C 29 %
2608 23-12-2019 02:32:17 6.9 C 29 %
2609 23-12-2019 02:42:17 7.3 C 28 %
2610 23-12-2019 02:52:17 6.9 C 30 %
2611 23-12-2019 03:02:17 6.8 C 31 %
2612 23-12-2019 03:12:17 6.4 C 31 %
2613 23-12-2019 03:22:17 6.5 C 30 %
2614 23-12-2019 03:32:17 7 C 28 %
2615 23-12-2019 03:42:17 6.6 C 29 %
2616 23-12-2019 03:52:17 7 C 28 %
2617 23-12-2019 04:02:17 6.9 C 30 %
2618 23-12-2019 04:12:17 7.1 C 28 %
2619 23-12-2019 04:22:17 6.8 C 30 %
2620 23-12-2019 04:32:17 6.9 C 31 %
2621 23-12-2019 04:42:17 6.5 C 31 %
2622 23-12-2019 04:52:17 6.1 C 31 %
2623 23-12-2019 05:02:17 6.4 C 32 %
2624 23-12-2019 05:12:17 7 C 30 %
2625 23-12-2019 05:22:17 7.1 C 30 %
Sensor: Nr:Datum:Temp:Feuchte:
Aussen-T/F 2626 23-12-2019 05:32:17 7 C 30 %
2627 23-12-2019 05:42:17 6.8 C 31 %
2628 23-12-2019 05:52:17 6.3 C 32 %
2629 23-12-2019 06:02:18 6.3 C 34 %
2630 23-12-2019 06:12:18 6.6 C 33 %
2631 23-12-2019 06:22:17 6.9 C 31 %
2632 23-12-2019 06:32:18 7.1 C 30 %
2633 23-12-2019 06:42:18 6.9 C 31 %
2634 23-12-2019 06:52:17 6.9 C 31 %
2635 23-12-2019 07:02:17 6.8 C 32 %
2636 23-12-2019 07:12:17 6.8 C 34 %
2637 23-12-2019 07:22:17 6.8 C 32 %
2638 23-12-2019 07:32:17 7.1 C 30 %
2639 23-12-2019 07:42:17 7.4 C 29 %
2640 23-12-2019 07:52:17 7.1 C 30 %
2641 23-12-2019 08:02:17 7.3 C 30 %
2642 23-12-2019 08:12:17 7.4 C 28 %
2643 23-12-2019 08:22:17 7.5 C 28 %
2644 23-12-2019 08:32:18 7.5 C 28 %
2645 23-12-2019 08:42:18 7.6 C 28 %
2646 23-12-2019 08:52:17 7.6 C 27 %
2647 23-12-2019 09:02:17 7.6 C 27 %
2648 23-12-2019 09:12:18 7.7 C 27 %
2649 23-12-2019 09:22:17 7.8 C 27 %
2650 23-12-2019 09:32:18 7.8 C 27 %
Sensor: Nr:Datum:Temp:Feuchte:
Aussen-T/F 2651 23-12-2019 09:42:18 7.8 C 27 %
2652 23-12-2019 09:52:18 7.9 C 26 %
2653 23-12-2019 10:02:17 7.3 C 30 %
2654 23-12-2019 10:12:18 7 C 33 %
2655 23-12-2019 10:22:17 7 C 35 %
2656 23-12-2019 10:32:18 6.8 C 35 %
2657 23-12-2019 10:42:18 6.9 C 34 %
2658 23-12-2019 10:52:17 7.4 C 30 %
2659 23-12-2019 11:02:18 7.8 C 28 %
2660 23-12-2019 11:12:18 8.1 C 28 %
2661 23-12-2019 11:22:17 8.4 C 26 %
2662 23-12-2019 11:32:18 8.3 C 26 %
2663 23-12-2019 11:42:18 8.6 C 26 %
2664 23-12-2019 11:52:17 8.9 C 25 %
2665 23-12-2019 12:02:18 9.1 C 25 %
2666 23-12-2019 12:12:18 9.1 C 25 %
2667 23-12-2019 12:22:17 8.9 C 25 %
2668 23-12-2019 12:32:17 9 C 25 %
2669 23-12-2019 12:42:17 9.3 C 25 %
2670 23-12-2019 12:52:17 8.4 C 26 %
2671 23-12-2019 13:02:17 8.4 C 26 %
2672 23-12-2019 13:12:17 8.3 C 27 %
2673 23-12-2019 13:22:17 8.2 C 27 %
2674 23-12-2019 13:32:18 8.1 C 29 %
2675 23-12-2019 13:42:18 8.2 C 28 %
Sensor: Nr:Datum:Temp:Feuchte:
Aussen-T/F 2676 23-12-2019 13:52:17 8.5 C 28 %
2677 23-12-2019 14:02:17 8.9 C 27 %
2678 23-12-2019 14:12:17 8.9 C 26 %
2679 23-12-2019 14:22:18 9 C 25 %
2680 23-12-2019 14:32:17 9.1 C 25 %
2681 23-12-2019 14:42:17 9.1 C 25 %
2682 23-12-2019 14:52:17 8.9 C 25 %
2683 23-12-2019 15:02:18 8.7 C 26 %
2684 23-12-2019 15:12:18 9.1 C 25 %
2685 23-12-2019 15:22:17 9.1 C 25 %
2686 23-12-2019 15:32:17 9 C 25 %
2687 23-12-2019 15:42:17 9 C 25 %
2688 23-12-2019 15:52:17 8.8 C 25 %
2689 23-12-2019 16:02:17 8.8 C 25 %
2690 23-12-2019 16:12:17 8.6 C 26 %
2691 23-12-2019 16:22:18 8.5 C 25 %
2692 23-12-2019 16:32:17 8.4 C 25 %
2693 23-12-2019 16:42:17 8.5 C 25 %
2694 23-12-2019 16:52:18 8.5 C 25 %
2695 23-12-2019 17:02:17 8.2 C 25 %
2696 23-12-2019 17:12:17 8.4 C 25 %
2697 23-12-2019 17:22:17 8 C 25 %
2698 23-12-2019 17:32:17 7.9 C 25 %
2699 23-12-2019 17:42:18 7.8 C 25 %
2700 23-12-2019 17:52:17 7.8 C 25 %
Sensor: Nr:Datum:Temp:Feuchte:
Aussen-T/F 2701 23-12-2019 18:02:17 7.9 C 25 %
2702 23-12-2019 18:12:17 8 C 23 %
2703 23-12-2019 18:22:17 7.9 C 23 %
2704 23-12-2019 18:32:17 7.9 C 25 %
2705 23-12-2019 18:42:17 7.6 C 25 %
2706 23-12-2019 18:52:17 7.5 C 26 %
2707 23-12-2019 19:02:17 7.3 C 26 %
2708 23-12-2019 19:12:17 6.7 C 29 %
2709 23-12-2019 19:22:17 6.4 C 30 %
2710 23-12-2019 19:32:17 7.4 C 26 %
2711 23-12-2019 19:42:17 7 C 26 %
2712 23-12-2019 19:52:17 7 C 27 %
2713 23-12-2019 20:02:17 7 C 28 %
2714 23-12-2019 20:12:17 6.5 C 30 %
2715 23-12-2019 20:22:17 6.8 C 30 %
2716 23-12-2019 20:32:18 6.8 C 30 %
2717 23-12-2019 20:42:18 6.9 C 30 %
2718 23-12-2019 20:52:17 6.9 C 30 %
2719 23-12-2019 21:02:18 6.7 C 30 %
2720 23-12-2019 21:12:18 7.1 C 28 %
2721 23-12-2019 21:22:17 7 C 28 %
2722 23-12-2019 21:32:17 6.7 C 31 %
2723 23-12-2019 21:42:17 6.5 C 31 %
2724 23-12-2019 21:52:17 6.5 C 32 %
2725 23-12-2019 22:02:18 6.4 C 31 %
Sensor: Nr:Datum:Temp:Feuchte:
Aussen-T/F 2726 23-12-2019 22:12:18 5.8 C 32 %
2727 23-12-2019 22:22:17 5.4 C 37 %
2728 23-12-2019 22:32:17 5.7 C 33 %
2729 23-12-2019 22:42:17 5.3 C 34 %
2730 23-12-2019 22:52:17 5.5 C 34 %
2731 23-12-2019 23:02:17 5.4 C 33 %
2732 23-12-2019 23:12:17 5.5 C 32 %
2733 23-12-2019 23:22:18 5.4 C 30 %
2734 23-12-2019 23:32:17 5.8 C 30 %
2735 23-12-2019 23:42:17 4.8 C 33 %
2736 23-12-2019 23:52:17 4.8 C 36 %
2737 24-12-2019 00:02:17 5.6 C 35 %
2738 24-12-2019 00:12:17 5.8 C 32 %
2739 24-12-2019 00:22:17 5.7 C 32 %
2740 24-12-2019 00:32:18 6 C 32 %
2741 24-12-2019 00:42:18 6.1 C 31 %
2742 24-12-2019 00:52:17 6.3 C 31 %
2743 24-12-2019 01:02:17 5.6 C 32 %
2744 24-12-2019 01:12:17 5.9 C 32 %
2745 24-12-2019 01:22:17 6.1 C 30 %
2746 24-12-2019 01:32:17 6.3 C 30 %
2747 24-12-2019 01:42:17 5.9 C 31 %
2748 24-12-2019 01:52:17 5.7 C 33 %
2749 24-12-2019 02:02:17 5.7 C 35 %
2750 24-12-2019 02:12:17 5.8 C 35 %
Sensor: Nr:Datum:Temp:Feuchte:
Aussen-T/F 2751 24-12-2019 02:22:17 5.6 C 35 %
2752 24-12-2019 02:32:18 5.5 C 36 %
2753 24-12-2019 02:42:18 5.5 C 36 %
2754 24-12-2019 02:52:17 6.6 C 30 %
2755 24-12-2019 03:02:18 6.7 C 29 %
2756 24-12-2019 03:12:18 6.3 C 30 %
2757 24-12-2019 03:22:17 5.7 C 31 %
2758 24-12-2019 03:32:17 5.5 C 31 %
2759 24-12-2019 03:42:17 5.7 C 31 %
2760 24-12-2019 03:52:17 5 C 32 %
2761 24-12-2019 04:02:17 5 C 38 %
2762 24-12-2019 04:12:17 5.2 C 37 %
2763 24-12-2019 04:22:17 5.2 C 36 %
2764 24-12-2019 04:32:17 4.8 C 37 %
2765 24-12-2019 04:42:17 4.8 C 39 %
2766 24-12-2019 04:52:17 5.3 C 38 %
2767 24-12-2019 05:02:18 5.4 C 35 %
2768 24-12-2019 05:12:18 5.2 C 35 %
2769 24-12-2019 05:22:17 4.7 C 37 %
2770 24-12-2019 05:32:18 5 C 37 %
2771 24-12-2019 05:42:18 4.6 C 36 %
2772 24-12-2019 05:52:17 4.9 C 37 %
2773 24-12-2019 06:02:18 4.3 C 36 %
2774 24-12-2019 06:12:18 4.6 C 39 %
2775 24-12-2019 06:22:17 4.6 C 38 %
Sensor: Nr:Datum:Temp:Feuchte:
Aussen-T/F 2776 24-12-2019 06:32:17 4.6 C 39 %
2777 24-12-2019 06:42:17 4.5 C 38 %
2778 24-12-2019 06:52:17 4.5 C 39 %
2779 24-12-2019 07:02:17 4.8 C 37 %
2780 24-12-2019 07:12:17 5 C 36 %
2781 24-12-2019 07:22:17 5.4 C 34 %
2782 24-12-2019 07:32:17 5.6 C 33 %
2783 24-12-2019 07:42:17 5.6 C 32 %
2784 24-12-2019 07:52:17 5.8 C 32 %
2785 24-12-2019 08:02:17 5.8 C 31 %
2786 24-12-2019 08:12:17 6 C 30 %
2787 24-12-2019 08:22:17 6.2 C 29 %
2788 24-12-2019 08:32:17 6.2 C 30 %
2789 24-12-2019 08:42:17 6.3 C 30 %
2790 24-12-2019 08:52:18 6.4 C 30 %
2791 24-12-2019 09:02:17 6.5 C 29 %
2792 24-12-2019 09:12:17 6.8 C 29 %
2793 24-12-2019 09:22:17 6.8 C 28 %
2794 24-12-2019 09:32:17 6.8 C 29 %
2795 24-12-2019 09:42:17 6.8 C 28 %
2796 24-12-2019 09:52:17 6.5 C 30 %
2797 24-12-2019 10:02:17 6.4 C 30 %
2798 24-12-2019 10:12:17 6.2 C 31 %
2799 24-12-2019 10:22:17 6.2 C 33 %
2800 24-12-2019 10:32:17 6.3 C 37 %
Sensor: Nr:Datum:Temp:Feuchte:
Aussen-T/F 2801 24-12-2019 10:42:17 6.8 C 37 %
2802 24-12-2019 10:52:17 6.7 C 33 %
2803 24-12-2019 11:02:17 6.8 C 35 %
2804 24-12-2019 11:12:17 6.9 C 34 %
2805 24-12-2019 11:22:17 7.5 C 32 %
2806 24-12-2019 11:32:17 8 C 30 %
2807 24-12-2019 11:42:17 8.2 C 29 %
2808 24-12-2019 11:52:18 8 C 29 %
2809 24-12-2019 12:02:17 7.8 C 30 %
2810 24-12-2019 12:12:17 7.6 C 30 %
2811 24-12-2019 12:22:17 8 C 28 %
2812 24-12-2019 12:32:17 8.2 C 27 %
2813 24-12-2019 12:42:17 8.4 C 27 %
2814 24-12-2019 12:52:18 8.9 C 27 %
2815 24-12-2019 13:02:17 9.2 C 25 %
2816 24-12-2019 13:12:17 9.3 C 25 %
2817 24-12-2019 13:22:17 9.3 C 25 %
2818 24-12-2019 13:32:17 9.2 C 26 %
2819 24-12-2019 13:42:17 9.3 C 26 %
2820 24-12-2019 13:52:17 9.3 C 26 %
2821 24-12-2019 14:02:18 9.4 C 25 %
2822 24-12-2019 14:12:18 9.5 C 25 %
2823 24-12-2019 14:22:17 9.6 C 25 %
2824 24-12-2019 14:32:18 9.7 C 25 %
2825 24-12-2019 14:42:18 9.3 C 26 %
Sensor: Nr:Datum:Temp:Feuchte:
Aussen-T/F 2826 24-12-2019 14:52:17 9.2 C 27 %
2827 24-12-2019 15:02:18 9.1 C 27 %
2828 24-12-2019 15:12:18 9.5 C 26 %
2829 24-12-2019 15:22:17 9.8 C 25 %
2830 24-12-2019 15:32:17 10 C 22 %
2831 24-12-2019 15:42:17 10.1 C 20 %
2832 24-12-2019 15:52:17 10.5 C 20 %
2833 24-12-2019 16:02:17 10.1 C 20 %
2834 24-12-2019 16:12:17 10 C 20 %
2835 24-12-2019 16:22:17 10.2 C 20 %
2836 24-12-2019 16:32:17 9.8 C 20 %
2837 24-12-2019 16:42:17 9.7 C 21 %
2838 24-12-2019 16:52:17 10.1 C 20 %
2839 24-12-2019 17:02:17 9.8 C 20 %
2840 24-12-2019 17:12:17 9.4 C 20 %
2841 24-12-2019 17:22:18 9.6 C 20 %
2842 24-12-2019 17:32:17 8.8 C 20 %
2843 24-12-2019 17:42:17 9.1 C 20 %
2844 24-12-2019 17:52:17 9.3 C 20 %
2845 24-12-2019 18:02:17 9 C 20 %
2846 24-12-2019 18:12:17 8.5 C 26 %
2847 24-12-2019 18:22:17 8.9 C 25 %
2848 24-12-2019 18:32:17 8.2 C 28 %
2849 24-12-2019 18:42:17 7.8 C 31 %
2850 24-12-2019 18:52:17 7.5 C 35 %
Sensor: Nr:Datum:Temp:Feuchte:
Aussen-T/F 2851 24-12-2019 19:02:17 7.6 C 31 %
2852 24-12-2019 19:12:17 7.3 C 31 %
2853 24-12-2019 19:22:17 6.7 C 35 %
2854 24-12-2019 19:32:17 6.5 C 40 %
2855 24-12-2019 19:42:17 6.5 C 36 %
2856 24-12-2019 19:52:17 6.2 C 36 %
2857 24-12-2019 20:02:17 6.7 C 35 %
2858 24-12-2019 20:12:17 7.3 C 30 %
2859 24-12-2019 20:22:17 7.2 C 32 %
2860 24-12-2019 20:32:18 7.1 C 30 %
2861 24-12-2019 20:42:18 7.3 C 31 %
2862 24-12-2019 20:52:17 7.3 C 30 %
2863 24-12-2019 21:02:17 7.1 C 31 %
2864 24-12-2019 21:12:17 7.7 C 30 %
2865 24-12-2019 21:22:17 7.4 C 30 %
2866 24-12-2019 21:32:17 7.6 C 30 %
2867 24-12-2019 21:42:17 7.9 C 29 %
2868 24-12-2019 21:52:17 8.1 C 28 %
2869 24-12-2019 22:02:17 8.6 C 26 %
2870 24-12-2019 22:12:17 8.5 C 26 %
2871 24-12-2019 22:22:17 8.3 C 26 %
2872 24-12-2019 22:32:17 8.4 C 26 %
2873 24-12-2019 22:42:17 8.2 C 27 %
2874 24-12-2019 22:52:17 8 C 28 %
2875 24-12-2019 23:02:17 8.4 C 27 %
Sensor: Nr:Datum:Temp:Feuchte:
Aussen-T/F 2876 24-12-2019 23:12:17 8.4 C 27 %
2877 24-12-2019 23:22:17 8.4 C 27 %
2878 24-12-2019 23:32:17 8.5 C 27 %
2879 24-12-2019 23:42:17 8.5 C 27 %
2880 24-12-2019 23:52:17 8.4 C 27 %
2881 25-12-2019 00:02:17 8.4 C 27 %
2882 25-12-2019 00:12:17 8.4 C 27 %
2883 25-12-2019 00:22:17 8.4 C 28 %
2884 25-12-2019 00:32:17 8.3 C 28 %
2885 25-12-2019 00:42:18 8.2 C 29 %
2886 25-12-2019 00:52:17 8.2 C 29 %
2887 25-12-2019 01:02:17 7.8 C 32 %
2888 25-12-2019 01:12:17 7.7 C 33 %
2889 25-12-2019 01:22:17 7.5 C 35 %
2890 25-12-2019 01:32:18 7.3 C 35 %
2891 25-12-2019 01:42:18 7.5 C 35 %
2892 25-12-2019 01:52:17 7.6 C 33 %
2893 25-12-2019 02:02:17 7.7 C 32 %
2894 25-12-2019 02:12:17 8 C 31 %
2895 25-12-2019 02:22:17 7.9 C 31 %
2896 25-12-2019 02:32:18 7.9 C 31 %
2897 25-12-2019 02:42:18 7.9 C 31 %
2898 25-12-2019 02:52:17 7.9 C 31 %
2899 25-12-2019 03:02:17 7.8 C 31 %
2900 25-12-2019 03:12:17 7.9 C 32 %
Sensor: Nr:Datum:Temp:Feuchte:
Aussen-T/F 2901 25-12-2019 03:22:17 8.1 C 31 %
2902 25-12-2019 03:32:17 8.3 C 30 %
2903 25-12-2019 03:42:17 8.2 C 30 %
2904 25-12-2019 03:52:18 8.2 C 30 %
2905 25-12-2019 04:02:17 7.9 C 34 %
2906 25-12-2019 04:12:17 8 C 34 %
2907 25-12-2019 04:22:18 7.9 C 35 %
2908 25-12-2019 04:32:17 7.9 C 36 %
2909 25-12-2019 04:42:17 7.9 C 38 %
2910 25-12-2019 04:52:17 7.9 C 36 %
2911 25-12-2019 05:02:17 7.9 C 37 %
2912 25-12-2019 05:12:17 7.8 C 37 %
2913 25-12-2019 05:22:18 7.6 C 38 %
2914 25-12-2019 05:32:17 8 C 36 %
2915 25-12-2019 05:42:17 7.9 C 35 %
2916 25-12-2019 05:52:17 7.5 C 35 %
2917 25-12-2019 06:02:18 7.5 C 35 %
2918 25-12-2019 06:12:18 7.2 C 36 %
2919 25-12-2019 06:22:17 7.2 C 37 %
2920 25-12-2019 06:32:18 7.3 C 37 %
2921 25-12-2019 06:42:18 7.3 C 36 %
2922 25-12-2019 06:52:17 7.1 C 39 %
2923 25-12-2019 07:02:18 7.3 C 33 %
2924 25-12-2019 07:12:18 7.1 C 32 %
2925 25-12-2019 07:22:17 6.9 C 35 %
Sensor: Nr:Datum:Temp:Feuchte:
Aussen-T/F 2926 25-12-2019 07:32:18 6.8 C 38 %
2927 25-12-2019 07:42:18 6.9 C 38 %
2928 25-12-2019 07:52:17 7 C 35 %
2929 25-12-2019 08:02:18 6.8 C 32 %
2930 25-12-2019 08:12:18 6.4 C 32 %
2931 25-12-2019 08:22:17 6.2 C 33 %
2932 25-12-2019 08:32:17 6.2 C 32 %
2933 25-12-2019 08:42:17 6.5 C 32 %
2934 25-12-2019 08:52:17 6.7 C 31 %
2935 25-12-2019 09:02:17 6.9 C 30 %
2936 25-12-2019 09:12:17 6.9 C 30 %
2937 25-12-2019 09:22:18 6.8 C 30 %
2938 25-12-2019 09:32:17 7.3 C 28 %
2939 25-12-2019 09:42:17 7.3 C 27 %
2940 25-12-2019 09:52:17 7.3 C 27 %
2941 25-12-2019 10:02:17 7.1 C 29 %
2942 25-12-2019 10:12:17 7.3 C 27 %
2943 25-12-2019 10:22:18 7.6 C 26 %
2944 25-12-2019 10:32:17 7.7 C 26 %
2945 25-12-2019 10:42:17 7.8 C 25 %
2946 25-12-2019 10:52:17 7.5 C 26 %
2947 25-12-2019 11:02:17 7.5 C 26 %
2948 25-12-2019 11:12:17 7.5 C 26 %
2949 25-12-2019 11:22:17 7.7 C 26 %
2950 25-12-2019 11:32:17 7.4 C 26 %
Sensor: Nr:Datum:Temp:Feuchte:
Aussen-T/F 2951 25-12-2019 11:42:17 7.4 C 27 %
2952 25-12-2019 11:52:18 7.1 C 28 %
2953 25-12-2019 12:02:17 7.1 C 29 %
2954 25-12-2019 12:12:17 7.6 C 27 %
2955 25-12-2019 12:22:17 7.6 C 27 %
2956 25-12-2019 12:32:17 7.7 C 27 %
2957 25-12-2019 12:42:17 7.8 C 27 %
2958 25-12-2019 12:52:18 7.6 C 27 %
2959 25-12-2019 13:02:17 7.1 C 29 %
2960 25-12-2019 13:12:17 7 C 31 %
2961 25-12-2019 13:22:18 6.9 C 31 %
2962 25-12-2019 13:32:17 7.1 C 30 %
2963 25-12-2019 13:42:17 7 C 30 %
2964 25-12-2019 13:52:17 6.9 C 30 %
2965 25-12-2019 14:02:17 7.1 C 30 %
2966 25-12-2019 14:12:17 7.4 C 29 %
2967 25-12-2019 14:22:18 7.6 C 28 %
2968 25-12-2019 14:32:17 7.7 C 29 %
2969 25-12-2019 14:42:17 7.6 C 29 %
2970 25-12-2019 14:52:17 7.1 C 31 %
2971 25-12-2019 15:02:17 7.1 C 32 %
2972 25-12-2019 15:12:17 7.1 C 30 %
2973 25-12-2019 15:22:18 7.1 C 31 %
2974 25-12-2019 15:32:17 7.4 C 30 %
2975 25-12-2019 15:42:17 7.3 C 31 %
Sensor: Nr:Datum:Temp:Feuchte:
Aussen-T/F 2976 25-12-2019 15:52:17 7.2 C 30 %
2977 25-12-2019 16:02:17 7.2 C 30 %
2978 25-12-2019 16:12:17 6.9 C 31 %
2979 25-12-2019 16:22:17 6.8 C 32 %
2980 25-12-2019 16:32:17 6.7 C 35 %
2981 25-12-2019 16:42:17 6.9 C 32 %
2982 25-12-2019 16:52:17 6.9 C 31 %
2983 25-12-2019 17:02:17 6.8 C 30 %
2984 25-12-2019 17:12:17 6.7 C 30 %
2985 25-12-2019 17:22:18 6.6 C 31 %
2986 25-12-2019 17:32:17 6.2 C 31 %
2987 25-12-2019 17:42:17 5.7 C 35 %
2988 25-12-2019 17:52:18 5.9 C 35 %
2989 25-12-2019 18:02:17 6 C 33 %
2990 25-12-2019 18:12:17 6.1 C 32 %
2991 25-12-2019 18:22:17 6.2 C 33 %
2992 25-12-2019 18:32:17 6.2 C 33 %
2993 25-12-2019 18:42:17 6.2 C 32 %
2994 25-12-2019 18:52:17 6.2 C 32 %
2995 25-12-2019 19:02:17 6 C 33 %
2996 25-12-2019 19:12:17 5.9 C 33 %
2997 25-12-2019 19:22:17 6.1 C 32 %
2998 25-12-2019 19:32:18 6.1 C 32 %
2999 25-12-2019 19:42:18 6 C 33 %
3000 25-12-2019 19:52:17 5.9 C 33 %
Sensor: Nr:Datum:Temp:Feuchte:
Aussen-T/F 3001 25-12-2019 20:02:17 5.8 C 35 %
3002 25-12-2019 20:12:17 5.9 C 35 %
3003 25-12-2019 20:22:18 5.9 C 34 %
3004 25-12-2019 20:32:17 5.8 C 34 %
3005 25-12-2019 20:42:17 5.6 C 37 %
3006 25-12-2019 20:52:17 5.5 C 38 %
3007 25-12-2019 21:02:18 5.5 C 38 %
3008 25-12-2019 21:12:18 5.4 C 40 %
3009 25-12-2019 21:22:17 5.3 C 41 %
3010 25-12-2019 21:32:17 5.3 C 43 %
3011 25-12-2019 21:42:17 5.3 C 42 %
3012 25-12-2019 21:52:17 5.2 C 42 %
3013 25-12-2019 22:02:18 5.2 C 42 %
3014 25-12-2019 22:12:18 5.1 C 43 %
3015 25-12-2019 22:22:17 5.2 C 42 %
3016 25-12-2019 22:32:18 5.1 C 41 %
3017 25-12-2019 22:42:18 5.1 C 42 %
3018 25-12-2019 22:52:17 5.2 C 42 %
3019 25-12-2019 23:02:18 5.2 C 42 %
3020 25-12-2019 23:12:18 5.2 C 42 %
3021 25-12-2019 23:22:17 5.2 C 42 %
3022 25-12-2019 23:32:17 5.1 C 42 %
3023 25-12-2019 23:42:17 4.7 C 42 %
3024 25-12-2019 23:52:17 4.5 C 42 %
3025 26-12-2019 00:02:17 4.6 C 43 %
Sensor: Nr:Datum:Temp:Feuchte:
Aussen-T/F 3026 26-12-2019 00:12:18 4 C 42 %
3027 26-12-2019 00:22:17 3.6 C 42 %
3028 26-12-2019 00:32:18 3.9 C 44 %
3029 26-12-2019 00:42:18 3.9 C 44 %
3030 26-12-2019 00:52:17 4.1 C 43 %
3031 26-12-2019 01:02:18 4.4 C 43 %
3032 26-12-2019 01:12:18 4.3 C 43 %
3033 26-12-2019 01:22:17 4.3 C 43 %
3034 26-12-2019 01:32:17 4.4 C 43 %
3035 26-12-2019 01:42:17 4.4 C 43 %
3036 26-12-2019 01:52:17 4.3 C 42 %
3037 26-12-2019 02:02:18 4.3 C 42 %
3038 26-12-2019 02:12:18 4.4 C 42 %
3039 26-12-2019 02:22:17 4.2 C 42 %
3040 26-12-2019 02:32:17 4 C 42 %
3041 26-12-2019 02:42:17 4 C 42 %
3042 26-12-2019 02:52:17 4.2 C 42 %
3043 26-12-2019 03:02:18 4.2 C 42 %
3044 26-12-2019 03:12:18 4.1 C 42 %
3045 26-12-2019 03:22:17 4.1 C 42 %
3046 26-12-2019 03:32:17 4.1 C 42 %
3047 26-12-2019 03:42:17 4.1 C 42 %
3048 26-12-2019 03:52:17 3.9 C 43 %
3049 26-12-2019 04:02:17 3.6 C 42 %
3050 26-12-2019 04:12:17 3.6 C 42 %
Sensor: Nr:Datum:Temp:Feuchte:
Aussen-T/F 3051 26-12-2019 04:22:18 3.4 C 42 %
3052 26-12-2019 04:32:17 3 C 42 %
3053 26-12-2019 04:42:17 3.1 C 42 %
3054 26-12-2019 04:52:17 3.1 C 43 %
3055 26-12-2019 05:02:17 3.3 C 43 %
3056 26-12-2019 05:12:17 3.5 C 43 %
3057 26-12-2019 05:22:17 3.4 C 43 %
3058 26-12-2019 05:32:18 3.5 C 43 %
3059 26-12-2019 05:42:18 3.4 C 43 %
3060 26-12-2019 05:52:17 3.5 C 43 %
3061 26-12-2019 06:02:17 3.6 C 43 %
3062 26-12-2019 06:12:18 3.6 C 43 %
3063 26-12-2019 06:22:17 3.5 C 43 %
3064 26-12-2019 06:32:18 3.6 C 43 %
3065 26-12-2019 06:42:18 3.5 C 43 %
3066 26-12-2019 06:52:17 3.5 C 43 %
3067 26-12-2019 07:02:18 3.5 C 43 %
3068 26-12-2019 07:12:18 3.5 C 43 %
3069 26-12-2019 07:22:17 3.4 C 43 %
3070 26-12-2019 07:32:17 3.4 C 43 %
3071 26-12-2019 07:42:17 3.4 C 43 %
3072 26-12-2019 07:52:17 3.4 C 43 %
3073 26-12-2019 08:02:18 3.4 C 43 %
3074 26-12-2019 08:12:18 3.4 C 43 %
3075 26-12-2019 08:22:17 3.5 C 43 %
Sensor: Nr:Datum:Temp:Feuchte:
Aussen-T/F 3076 26-12-2019 08:32:17 3.4 C 43 %
3077 26-12-2019 08:42:17 3.4 C 43 %
3078 26-12-2019 08:52:17 3.5 C 43 %
3079 26-12-2019 09:02:17 3.5 C 43 %
3080 26-12-2019 09:12:17 3.5 C 43 %
3081 26-12-2019 09:22:17 3.4 C 42 %
3082 26-12-2019 09:32:17 3.5 C 43 %
3083 26-12-2019 09:42:17 3.6 C 42 %
3084 26-12-2019 09:52:18 3.6 C 42 %
3085 26-12-2019 10:02:17 3.6 C 42 %
3086 26-12-2019 10:12:17 3.6 C 42 %
3087 26-12-2019 10:22:18 3.8 C 42 %
3088 26-12-2019 10:32:17 4 C 41 %
3089 26-12-2019 10:42:17 4.3 C 41 %
3090 26-12-2019 10:52:18 4.5 C 41 %
3091 26-12-2019 11:02:17 4.7 C 41 %
3092 26-12-2019 11:12:17 4.8 C 41 %
3093 26-12-2019 11:22:17 5 C 40 %
3094 26-12-2019 11:32:17 5.4 C 40 %
3095 26-12-2019 11:42:17 5.5 C 39 %
3096 26-12-2019 11:52:17 5.6 C 37 %
3097 26-12-2019 12:02:17 5.7 C 36 %
3098 26-12-2019 12:12:17 5.7 C 36 %
3099 26-12-2019 12:22:17 5.7 C 35 %
3100 26-12-2019 12:32:18 5.9 C 35 %
Sensor: Nr:Datum:Temp:Feuchte:
Aussen-T/F 3101 26-12-2019 12:42:18 6 C 35 %
3102 26-12-2019 12:52:17 6 C 36 %
3103 26-12-2019 13:02:18 5.9 C 36 %
3104 26-12-2019 13:12:18 5.9 C 37 %
3105 26-12-2019 13:22:17 5.8 C 36 %
3106 26-12-2019 13:32:18 5.8 C 36 %
3107 26-12-2019 13:42:18 5.7 C 36 %
3108 26-12-2019 13:52:17 5.7 C 36 %
3109 26-12-2019 14:02:18 5.7 C 36 %
3110 26-12-2019 14:12:18 5.8 C 35 %
3111 26-12-2019 14:22:17 6 C 35 %
3112 26-12-2019 14:32:17 6 C 35 %
3113 26-12-2019 14:42:17 5.7 C 35 %
3114 26-12-2019 14:52:17 5.6 C 36 %
3115 26-12-2019 15:02:17 5.5 C 36 %
3116 26-12-2019 15:12:17 5.4 C 36 %
3117 26-12-2019 15:22:17 5.1 C 38 %
3118 26-12-2019 15:32:17 5 C 37 %
3119 26-12-2019 15:42:17 4.8 C 39 %
3120 26-12-2019 15:52:18 4.8 C 39 %
3121 26-12-2019 16:02:17 4.7 C 38 %
3122 26-12-2019 16:12:17 4.6 C 39 %
3123 26-12-2019 16:22:17 4.5 C 40 %
3124 26-12-2019 16:32:17 4.4 C 41 %
3125 26-12-2019 16:42:18 4.4 C 40 %
Sensor: Nr:Datum:Temp:Feuchte:
Aussen-T/F 3126 26-12-2019 16:53:17 4.3 C 41 %
3127 26-12-2019 17:02:17 4.4 C 40 %
3128 26-12-2019 17:12:17 4.3 C 40 %
3129 26-12-2019 17:22:17 4.3 C 40 %
3130 26-12-2019 17:32:17 4.4 C 40 %
3131 26-12-2019 17:42:17 4.1 C 40 %
3132 26-12-2019 17:52:17 4.1 C 40 %
3133 26-12-2019 18:02:17 4 C 40 %
3134 26-12-2019 18:12:17 4 C 41 %
3135 26-12-2019 18:22:17 4.1 C 41 %
3136 26-12-2019 18:32:17 4.1 C 41 %
3137 26-12-2019 18:42:18 4.1 C 40 %
3138 26-12-2019 18:53:17 4.1 C 40 %
3139 26-12-2019 19:02:17 4 C 40 %
3140 26-12-2019 19:12:17 4 C 41 %
3141 26-12-2019 19:23:17 4 C 41 %
3142 26-12-2019 19:32:17 3.8 C 41 %
3143 26-12-2019 19:42:17 4 C 41 %
3144 26-12-2019 19:53:17 3.8 C 41 %
3145 26-12-2019 20:02:17 3.8 C 42 %
3146 26-12-2019 20:12:17 3.9 C 42 %
3147 26-12-2019 20:23:17 4 C 41 %
3148 26-12-2019 20:32:17 4.1 C 40 %
3149 26-12-2019 20:42:17 4.2 C 39 %
3150 26-12-2019 20:53:17 4.1 C 38 %
Sensor: Nr:Datum:Temp:Feuchte:
Aussen-T/F 3151 26-12-2019 21:02:17 4.3 C 37 %
3152 26-12-2019 21:12:17 4.2 C 38 %
3153 26-12-2019 21:23:17 4.1 C 38 %
3154 26-12-2019 21:32:18 4.1 C 38 %
3155 26-12-2019 21:42:18 4.2 C 37 %
3156 26-12-2019 21:52:17 4.3 C 37 %
3157 26-12-2019 22:02:18 4.1 C 39 %
3158 26-12-2019 22:12:18 4.1 C 41 %
3159 26-12-2019 22:22:17 4.1 C 41 %
3160 26-12-2019 22:33:17 4.1 C 41 %
3161 26-12-2019 22:43:17 4.1 C 42 %
3162 26-12-2019 22:52:17 4.1 C 42 %
3163 26-12-2019 23:03:17 4.1 C 43 %
3164 26-12-2019 23:13:17 4.1 C 43 %
3165 26-12-2019 23:23:17 4 C 43 %
3166 26-12-2019 23:32:17 4 C 43 %
3167 26-12-2019 23:42:17 4 C 42 %
3168 26-12-2019 23:53:17 4 C 42 %
3169 27-12-2019 00:02:17 4 C 42 %
3170 27-12-2019 00:12:17 4 C 42 %
3171 27-12-2019 00:23:17 4 C 42 %
3172 27-12-2019 00:32:17 4 C 42 %
3173 27-12-2019 00:42:18 4.1 C 42 %
3174 27-12-2019 00:53:17 4.1 C 42 %
3175 27-12-2019 01:03:18 4.1 C 42 %
Sensor: Nr:Datum:Temp:Feuchte:
Aussen-T/F 3176 27-12-2019 01:13:18 4.1 C 42 %
3177 27-12-2019 01:23:17 4.1 C 42 %
3178 27-12-2019 01:33:17 4.1 C 42 %
3179 27-12-2019 01:43:17 4.1 C 42 %
3180 27-12-2019 01:53:18 4.1 C 42 %
3181 27-12-2019 02:03:17 4.1 C 42 %
3182 27-12-2019 02:13:17 4.1 C 42 %
3183 27-12-2019 02:23:17 4.1 C 42 %
3184 27-12-2019 02:33:18 4.1 C 42 %
3185 27-12-2019 02:43:19 4.1 C 42 %
3186 27-12-2019 02:53:17 4.2 C 42 %
3187 27-12-2019 03:03:17 4.3 C 42 %
3188 27-12-2019 03:13:17 4.2 C 42 %
3189 27-12-2019 03:23:17 4.3 C 42 %
3190 27-12-2019 03:33:17 4.3 C 42 %
3191 27-12-2019 03:43:18 4.3 C 42 %
3192 27-12-2019 03:53:17 4.3 C 42 %
3193 27-12-2019 04:03:17 4.3 C 42 %
3194 27-12-2019 04:13:17 4.3 C 42 %
3195 27-12-2019 04:23:17 4.3 C 42 %
3196 27-12-2019 04:33:17 4.3 C 42 %
3197 27-12-2019 04:43:17 4.3 C 42 %
3198 27-12-2019 04:53:18 4.4 C 42 %
3199 27-12-2019 05:03:17 4.4 C 42 %
3200 27-12-2019 05:13:17 4.4 C 42 %
Sensor: Nr:Datum:Temp:Feuchte:
Aussen-T/F 3201 27-12-2019 05:23:17 4.4 C 42 %
3202 27-12-2019 05:33:17 4.3 C 42 %
3203 27-12-2019 05:43:17 4.4 C 42 %
3204 27-12-2019 05:53:17 4.4 C 42 %
3205 27-12-2019 06:03:17 4.4 C 42 %
3206 27-12-2019 06:13:17 4.4 C 42 %
3207 27-12-2019 06:23:17 4.4 C 42 %
3208 27-12-2019 06:33:17 4.4 C 42 %
3209 27-12-2019 06:43:17 4.4 C 42 %
3210 27-12-2019 06:53:17 4.4 C 42 %
3211 27-12-2019 07:03:17 4.5 C 42 %
3212 27-12-2019 07:13:17 4.4 C 42 %
3213 27-12-2019 07:23:18 4.4 C 42 %
3214 27-12-2019 07:33:17 4.4 C 42 %
3215 27-12-2019 07:43:17 4.4 C 42 %
3216 27-12-2019 07:53:17 4.3 C 42 %
3217 27-12-2019 08:03:17 4.3 C 42 %
3218 27-12-2019 08:13:17 4.3 C 42 %
3219 27-12-2019 08:23:17 4.3 C 42 %
3220 27-12-2019 08:33:17 4.3 C 42 %
3221 27-12-2019 08:43:17 4.3 C 42 %
3222 27-12-2019 08:53:18 4.3 C 42 %
3223 27-12-2019 09:03:17 4.4 C 42 %
3224 27-12-2019 09:13:17 4.4 C 42 %
3225 27-12-2019 09:23:17 4.3 C 42 %
Sensor: Nr:Datum:Temp:Feuchte:
Aussen-T/F 3226 27-12-2019 09:33:17 4.5 C 42 %
3227 27-12-2019 09:43:17 4.6 C 42 %
3228 27-12-2019 09:53:17 4.8 C 41 %
3229 27-12-2019 10:03:17 4.9 C 41 %
3230 27-12-2019 10:13:17 4.8 C 40 %
3231 27-12-2019 10:23:17 4.8 C 40 %
3232 27-12-2019 10:33:18 4.9 C 40 %
3233 27-12-2019 10:43:18 4.9 C 40 %
3234 27-12-2019 10:53:17 5 C 38 %
3235 27-12-2019 11:03:18 5 C 38 %
3236 27-12-2019 11:13:18 5.1 C 37 %
3237 27-12-2019 11:23:17 5.1 C 37 %
3238 27-12-2019 11:33:17 5.2 C 36 %
3239 27-12-2019 11:43:17 5.7 C 33 %
3240 27-12-2019 11:53:17 6 C 31 %
3241 27-12-2019 12:03:17 6.1 C 31 %
3242 27-12-2019 12:13:17 5.9 C 31 %
3243 27-12-2019 12:23:17 5.9 C 31 %
3244 27-12-2019 12:33:17 6 C 31 %
3245 27-12-2019 12:43:17 6 C 31 %
3246 27-12-2019 12:53:17 5.9 C 31 %
3247 27-12-2019 13:03:17 5.7 C 31 %
3248 27-12-2019 13:13:17 5.7 C 31 %
3249 27-12-2019 13:23:17 5.6 C 31 %
3250 27-12-2019 13:33:17 5.7 C 31 %
Sensor: Nr:Datum:Temp:Feuchte:
Aussen-T/F 3251 27-12-2019 13:43:17 5.7 C 30 %
3252 27-12-2019 13:53:17 5.8 C 30 %
3253 27-12-2019 14:03:18 5.9 C 30 %
3254 27-12-2019 14:13:18 6.1 C 29 %
3255 27-12-2019 14:23:18 5.9 C 29 %
3256 27-12-2019 14:33:17 6 C 30 %
3257 27-12-2019 14:43:17 5.9 C 28 %
3258 27-12-2019 14:53:18 5.8 C 26 %
3259 27-12-2019 15:03:17 5.7 C 27 %
3260 27-12-2019 15:13:17 5.7 C 28 %
3261 27-12-2019 15:23:18 5.6 C 29 %
3262 27-12-2019 15:33:17 5.6 C 29 %
3263 27-12-2019 15:43:17 5.4 C 30 %
3264 27-12-2019 15:53:17 5.3 C 31 %
3265 27-12-2019 16:03:17 5.1 C 33 %
3266 27-12-2019 16:13:17 4.9 C 33 %
3267 27-12-2019 16:23:17 4.9 C 33 %
3268 27-12-2019 16:33:17 4.8 C 34 %
3269 27-12-2019 16:43:17 4.7 C 33 %
3270 27-12-2019 16:53:17 4.6 C 34 %
3271 27-12-2019 17:03:17 4.5 C 34 %
3272 27-12-2019 17:13:17 4.5 C 35 %
3273 27-12-2019 17:23:17 4.5 C 33 %
3274 27-12-2019 17:33:18 4.5 C 34 %
3275 27-12-2019 17:43:18 4.5 C 34 %
Sensor: Nr:Datum:Temp:Feuchte:
Aussen-T/F 3276 27-12-2019 17:53:17 4.4 C 34 %
3277 27-12-2019 18:03:18 4.4 C 33 %
3278 27-12-2019 18:13:18 4.4 C 33 %
3279 27-12-2019 18:23:17 4.4 C 32 %
3280 27-12-2019 18:33:18 4.4 C 34 %
3281 27-12-2019 18:43:18 4.3 C 34 %
3282 27-12-2019 18:53:17 4.2 C 33 %
3283 27-12-2019 19:03:17 4.2 C 33 %
3284 27-12-2019 19:13:17 4.2 C 33 %
3285 27-12-2019 19:23:17 4.3 C 32 %
3286 27-12-2019 19:33:17 4.2 C 33 %
3287 27-12-2019 19:43:17 4.1 C 34 %
3288 27-12-2019 19:53:18 3.9 C 35 %
3289 27-12-2019 20:03:17 3.8 C 34 %
3290 27-12-2019 20:13:17 4 C 32 %
3291 27-12-2019 20:23:17 4 C 32 %
3292 27-12-2019 20:33:18 4 C 32 %
3293 27-12-2019 20:43:18 4 C 31 %
3294 27-12-2019 20:53:17 4.1 C 31 %
3295 27-12-2019 21:03:18 4.1 C 31 %
3296 27-12-2019 21:13:18 4 C 31 %
3297 27-12-2019 21:23:17 4 C 31 %
3298 27-12-2019 21:33:18 3.9 C 33 %
3299 27-12-2019 21:43:18 3.9 C 32 %
3300 27-12-2019 21:53:17 3.7 C 32 %
Sensor: Nr:Datum:Temp:Feuchte:
Aussen-T/F 3301 27-12-2019 22:03:17 3.6 C 32 %
3302 27-12-2019 22:13:17 3.3 C 32 %
3303 27-12-2019 22:23:17 3.2 C 32 %
3304 27-12-2019 22:33:17 2.7 C 33 %
3305 27-12-2019 22:43:17 2.2 C 34 %
3306 27-12-2019 22:53:17 2 C 35 %
3307 27-12-2019 23:03:18 1.7 C 38 %
3308 27-12-2019 23:13:18 1.3 C 39 %
3309 27-12-2019 23:23:17 1.2 C 41 %
3310 27-12-2019 23:33:17 0.9 C 42 %
3311 27-12-2019 23:43:17 0.8 C 41 %
3312 27-12-2019 23:53:17 0.7 C 41 %
3313 28-12-2019 00:03:17 0.5 C 40 %
3314 28-12-2019 00:13:17 0.4 C 41 %
3315 28-12-2019 00:23:18 0.4 C 41 %
3316 28-12-2019 00:33:17 0.3 C 41 %
3317 28-12-2019 00:43:17 0.3 C 41 %
3318 28-12-2019 00:53:17 0.2 C 40 %
3319 28-12-2019 01:03:17 0.1 C 40 %
3320 28-12-2019 01:13:17 -0.2 C 43 %
3321 28-12-2019 01:23:17 -0.5 C 43 %
3322 28-12-2019 01:33:17 -0.3 C 44 %
3323 28-12-2019 01:43:17 -0.7 C 42 %
3324 28-12-2019 01:53:17 -1.1 C 43 %
3325 28-12-2019 02:03:17 -1.3 C 45 %
Sensor: Nr:Datum:Temp:Feuchte:
Aussen-T/F 3326 28-12-2019 02:13:17 -1.5 C 44 %
3327 28-12-2019 02:23:17 -1.7 C 44 %
3328 28-12-2019 02:33:18 -1.5 C 45 %
3329 28-12-2019 02:43:18 -1.5 C 45 %
3330 28-12-2019 02:53:17 -1.6 C 45 %
3331 28-12-2019 03:03:17 -1.9 C 45 %
3332 28-12-2019 03:13:18 -1.7 C 45 %
3333 28-12-2019 03:23:17 -2.1 C 45 %
3334 28-12-2019 03:33:17 -2.1 C 45 %
3335 28-12-2019 03:43:17 -2.1 C 45 %
3336 28-12-2019 03:53:18 -2.4 C 45 %
3337 28-12-2019 04:03:17 -2.4 C 45 %
3338 28-12-2019 04:13:17 -2.4 C 45 %
3339 28-12-2019 04:23:17 -2.3 C 45 %
3340 28-12-2019 04:33:17 -2.4 C 45 %
3341 28-12-2019 04:43:18 -2.3 C 45 %
3342 28-12-2019 04:53:17 -2.4 C 45 %
3343 28-12-2019 05:03:18 -2.6 C 44 %
3344 28-12-2019 05:13:18 -2.7 C 44 %
3345 28-12-2019 05:23:17 -2.5 C 45 %
3346 28-12-2019 05:33:18 -2.5 C 45 %
3347 28-12-2019 05:43:18 -2.1 C 45 %
3348 28-12-2019 05:53:17 -2.3 C 45 %
3349 28-12-2019 06:03:17 -1.8 C 45 %
3350 28-12-2019 06:13:18 -2.1 C 44 %
Sensor: Nr:Datum:Temp:Feuchte:
Aussen-T/F 3351 28-12-2019 06:23:17 -2.2 C 43 %
3352 28-12-2019 06:33:17 -2 C 44 %
3353 28-12-2019 06:43:18 -1.9 C 44 %
3354 28-12-2019 06:53:17 -2.1 C 43 %
3355 28-12-2019 07:03:18 -2 C 43 %
3356 28-12-2019 07:13:18 -2.3 C 43 %
3357 28-12-2019 07:23:17 -2.8 C 42 %
3358 28-12-2019 07:33:17 -2.3 C 43 %
3359 28-12-2019 07:43:17 -2.4 C 43 %
3360 28-12-2019 07:53:17 -2.2 C 44 %
3361 28-12-2019 08:03:17 -2.6 C 43 %
3362 28-12-2019 08:13:17 -3 C 42 %
3363 28-12-2019 08:23:18 -3.1 C 42 %
3364 28-12-2019 08:33:17 -3.2 C 42 %
3365 28-12-2019 08:43:17 -3.2 C 42 %
3366 28-12-2019 08:53:17 -2.9 C 43 %
3367 28-12-2019 09:03:18 -2.9 C 43 %
3368 28-12-2019 09:13:18 -2.8 C 43 %
3369 28-12-2019 09:23:17 -2.7 C 43 %
3370 28-12-2019 09:33:17 -2.5 C 43 %
3371 28-12-2019 09:43:17 -1.9 C 45 %
3372 28-12-2019 09:53:17 -1.7 C 45 %
3373 28-12-2019 10:03:17 -1.6 C 45 %
3374 28-12-2019 10:13:17 -1.4 C 45 %
3375 28-12-2019 10:23:17 -1.5 C 45 %
Sensor: Nr:Datum:Temp:Feuchte:
Aussen-T/F 3376 28-12-2019 10:33:18 -1.3 C 45 %
3377 28-12-2019 10:43:18 -1.3 C 45 %
3378 28-12-2019 10:53:17 -1.1 C 45 %
3379 28-12-2019 11:03:18 -1 C 44 %
3380 28-12-2019 11:13:18 -0.9 C 44 %
3381 28-12-2019 11:23:17 -0.6 C 44 %
3382 28-12-2019 11:33:17 -0.5 C 43 %
3383 28-12-2019 11:43:18 -0.3 C 42 %
3384 28-12-2019 11:53:17 -0.2 C 42 %
3385 28-12-2019 12:03:17 -0.2 C 41 %
3386 28-12-2019 12:13:17 0 C 41 %
3387 28-12-2019 12:23:17 0.2 C 41 %
3388 28-12-2019 12:33:17 0.3 C 41 %
3389 28-12-2019 12:43:18 0.4 C 40 %
3390 28-12-2019 12:53:17 0.5 C 40 %
3391 28-12-2019 13:03:18 0.7 C 40 %
3392 28-12-2019 13:13:18 0.8 C 40 %
3393 28-12-2019 13:23:17 0.8 C 40 %
3394 28-12-2019 13:33:17 0.9 C 40 %
3395 28-12-2019 13:43:17 0.8 C 40 %
3396 28-12-2019 13:53:17 0.6 C 40 %
3397 28-12-2019 14:03:17 0.6 C 41 %
3398 28-12-2019 14:13:17 0.7 C 41 %
3399 28-12-2019 14:23:17 0.8 C 40 %
3400 28-12-2019 14:33:17 0.7 C 40 %
Sensor: Nr:Datum:Temp:Feuchte:
Aussen-T/F 3401 28-12-2019 14:43:17 0.6 C 40 %
3402 28-12-2019 14:53:17 0.5 C 40 %
3403 28-12-2019 15:03:17 0.5 C 40 %
3404 28-12-2019 15:13:18 0.5 C 40 %
3405 28-12-2019 15:23:17 0.2 C 40 %
3406 28-12-2019 15:33:17 0.4 C 40 %
3407 28-12-2019 15:43:17 0.3 C 39 %
3408 28-12-2019 15:53:18 0.4 C 39 %
3409 28-12-2019 16:03:17 0.3 C 38 %
3410 28-12-2019 16:13:17 0.2 C 38 %
3411 28-12-2019 16:23:17 0 C 39 %
3412 28-12-2019 16:33:17 0 C 39 %
3413 28-12-2019 16:43:17 -0.1 C 38 %
3414 28-12-2019 16:53:17 -0.3 C 39 %
3415 28-12-2019 17:03:17 -0.4 C 39 %
3416 28-12-2019 17:13:17 -0.4 C 40 %
3417 28-12-2019 17:23:17 -0.5 C 40 %
3418 28-12-2019 17:33:18 -0.6 C 40 %
3419 28-12-2019 17:43:18 -0.7 C 41 %
3420 28-12-2019 17:53:17 -1.3 C 41 %
3421 28-12-2019 18:03:17 -1.2 C 44 %
3422 28-12-2019 18:13:17 -1.1 C 43 %
3423 28-12-2019 18:23:17 -1.1 C 43 %
3424 28-12-2019 18:33:17 -0.9 C 43 %
3425 28-12-2019 18:43:17 -1.2 C 43 %
Sensor: Nr:Datum:Temp:Feuchte:
Aussen-T/F 3426 28-12-2019 18:53:17 -0.9 C 43 %
3427 28-12-2019 19:03:17 -1.2 C 42 %
3428 28-12-2019 19:13:18 -1.7 C 42 %
3429 28-12-2019 19:23:17 -1.9 C 43 %
3430 28-12-2019 19:33:18 -1.9 C 44 %
3431 28-12-2019 19:43:18 -1.9 C 44 %
3432 28-12-2019 19:53:17 -1.8 C 44 %
3433 28-12-2019 20:03:17 -1.9 C 44 %
3434 28-12-2019 20:13:17 -1.7 C 45 %
3435 28-12-2019 20:23:17 -1.2 C 45 %
3436 28-12-2019 20:33:18 -1.2 C 43 %
3437 28-12-2019 20:43:18 -1.4 C 43 %
3438 28-12-2019 20:53:18 -1.2 C 44 %
3439 28-12-2019 21:03:17 -1.6 C 43 %
3440 28-12-2019 21:13:17 -1.3 C 44 %
3441 28-12-2019 21:23:17 -1.4 C 41 %
3442 28-12-2019 21:33:17 -1.8 C 41 %
3443 28-12-2019 21:43:18 -1.6 C 43 %
3444 28-12-2019 21:53:17 -1.7 C 42 %
3445 28-12-2019 22:03:18 -1.7 C 42 %
3446 28-12-2019 22:13:18 -2.2 C 41 %
3447 28-12-2019 22:23:17 -2.3 C 42 %
3448 28-12-2019 22:33:17 -2.3 C 42 %
3449 28-12-2019 22:43:17 -2.5 C 42 %
3450 28-12-2019 22:53:17 -2.2 C 43 %
Sensor: Nr:Datum:Temp:Feuchte:
Aussen-T/F 3451 28-12-2019 23:03:17 -2.5 C 42 %
3452 28-12-2019 23:13:17 -2.3 C 43 %
3453 28-12-2019 23:23:17 -2.3 C 43 %
3454 28-12-2019 23:33:17 -2.7 C 42 %
3455 28-12-2019 23:43:17 -2.6 C 43 %
3456 28-12-2019 23:53:17 -2.9 C 42 %
3457 29-12-2019 00:03:18 -2.6 C 43 %
3458 29-12-2019 00:13:18 -2.9 C 43 %
3459 29-12-2019 00:23:17 -3.1 C 42 %
3460 29-12-2019 00:33:17 -3.2 C 43 %
3461 29-12-2019 00:43:17 -3.1 C 43 %
3462 29-12-2019 00:53:17 -3.1 C 43 %
3463 29-12-2019 01:03:17 -3.3 C 42 %
3464 29-12-2019 01:13:17 -3.3 C 43 %
3465 29-12-2019 01:23:17 -3.5 C 42 %
3466 29-12-2019 01:33:17 -3.7 C 42 %
3467 29-12-2019 01:43:17 -3 C 44 %
3468 29-12-2019 01:53:17 -3.5 C 42 %
3469 29-12-2019 02:03:17 -3.7 C 41 %
3470 29-12-2019 02:13:17 -3.8 C 42 %
3471 29-12-2019 02:23:17 -3.3 C 43 %
3472 29-12-2019 02:33:17 -3.7 C 41 %
3473 29-12-2019 02:43:17 -3.7 C 42 %
3474 29-12-2019 02:53:18 -3.8 C 41 %
3475 29-12-2019 03:03:17 -4 C 41 %
Sensor: Nr:Datum:Temp:Feuchte:
Aussen-T/F 3476 29-12-2019 03:13:17 -4 C 42 %
3477 29-12-2019 03:23:17 -4 C 41 %
3478 29-12-2019 03:33:17 -4.1 C 41 %
3479 29-12-2019 03:43:17 -4.1 C 41 %
3480 29-12-2019 03:53:18 -4 C 42 %
3481 29-12-2019 04:03:17 -4.2 C 41 %
3482 29-12-2019 04:13:17 -3.9 C 42 %
3483 29-12-2019 04:23:17 -4.1 C 41 %
3484 29-12-2019 04:33:17 -4.1 C 41 %
3485 29-12-2019 04:43:17 -4.4 C 41 %
3486 29-12-2019 04:53:17 -4.2 C 41 %
3487 29-12-2019 05:03:17 -4.3 C 41 %
3488 29-12-2019 05:13:17 -4.5 C 41 %
3489 29-12-2019 05:23:17 -4.5 C 41 %
3490 29-12-2019 05:33:18 -4.4 C 41 %
3491 29-12-2019 05:43:18 -4.5 C 41 %
3492 29-12-2019 05:53:17 -4.7 C 41 %
3493 29-12-2019 06:03:17 -4.6 C 41 %
3494 29-12-2019 06:13:17 -4.7 C 41 %
3495 29-12-2019 06:23:17 -4.8 C 41 %
3496 29-12-2019 06:33:17 -4.8 C 41 %
3497 29-12-2019 06:43:17 -4.8 C 41 %
3498 29-12-2019 06:53:17 -4.8 C 41 %
3499 29-12-2019 07:03:17 -4.9 C 41 %
3500 29-12-2019 07:13:17 -4.9 C 41 %
Sensor: Nr:Datum:Temp:Feuchte:
Aussen-T/F 3501 29-12-2019 07:23:17 -5 C 41 %
3502 29-12-2019 07:33:17 -4.5 C 42 %
3503 29-12-2019 07:43:17 -4.7 C 41 %
3504 29-12-2019 07:53:17 -4.7 C 41 %
3505 29-12-2019 08:03:17 -4.4 C 42 %
3506 29-12-2019 08:13:17 -4.3 C 42 %
3507 29-12-2019 08:23:18 -3.9 C 43 %
3508 29-12-2019 08:33:17 -4.1 C 41 %
3509 29-12-2019 08:43:17 -4.3 C 41 %
3510 29-12-2019 08:53:17 -4.5 C 40 %
3511 29-12-2019 09:03:17 -4.1 C 42 %
3512 29-12-2019 09:13:17 -3.9 C 42 %
3513 29-12-2019 09:23:18 -4 C 41 %
3514 29-12-2019 09:33:17 -4.1 C 41 %
3515 29-12-2019 09:43:17 -4 C 41 %
3516 29-12-2019 09:53:17 -4 C 41 %
3517 29-12-2019 10:03:18 -4 C 40 %
3518 29-12-2019 10:13:18 -3.9 C 41 %
3519 29-12-2019 10:23:17 -3.5 C 42 %
3520 29-12-2019 10:33:17 -3.3 C 42 %
3521 29-12-2019 10:43:17 -3.1 C 42 %
3522 29-12-2019 10:53:17 -2.6 C 43 %
3523 29-12-2019 11:03:17 -2.1 C 43 %
3524 29-12-2019 11:13:17 -1.8 C 42 %
3525 29-12-2019 11:23:17 -1.4 C 43 %
Sensor: Nr:Datum:Temp:Feuchte:
Aussen-T/F 3526 29-12-2019 11:33:17 -1.3 C 42 %
3527 29-12-2019 11:43:18 -0.8 C 43 %
3528 29-12-2019 11:53:17 -0.4 C 42 %
3529 29-12-2019 12:03:18 -0.5 C 41 %
3530 29-12-2019 12:13:18 -0.3 C 41 %
3531 29-12-2019 12:23:17 0.1 C 40 %
3532 29-12-2019 12:33:17 0.3 C 40 %
3533 29-12-2019 12:43:17 0.5 C 40 %
3534 29-12-2019 12:53:17 0.4 C 40 %
3535 29-12-2019 13:03:17 0.7 C 38 %
3536 29-12-2019 13:13:17 1 C 37 %
3537 29-12-2019 13:23:17 1 C 37 %
3538 29-12-2019 13:33:18 1.4 C 36 %
3539 29-12-2019 13:43:18 1.4 C 38 %
3540 29-12-2019 13:53:17 1.5 C 37 %
3541 29-12-2019 14:03:17 1.5 C 36 %
3542 29-12-2019 14:13:17 1.4 C 37 %
3543 29-12-2019 14:23:17 1.7 C 36 %
3544 29-12-2019 14:33:18 1.9 C 36 %
3545 29-12-2019 14:43:18 2.2 C 34 %
3546 29-12-2019 14:53:17 2.1 C 33 %
3547 29-12-2019 15:03:17 1.9 C 34 %
3548 29-12-2019 15:13:18 2 C 31 %
3549 29-12-2019 15:23:17 2 C 27 %
3550 29-12-2019 15:33:17 1.9 C 30 %
Sensor: Nr:Datum:Temp:Feuchte:
Aussen-T/F 3551 29-12-2019 15:43:17 1.5 C 32 %
3552 29-12-2019 15:53:18 1.1 C 32 %
3553 29-12-2019 16:03:17 0.5 C 35 %
3554 29-12-2019 16:13:17 0.2 C 38 %
3555 29-12-2019 16:23:17 0.2 C 39 %
3556 29-12-2019 16:33:18 -0.3 C 39 %
3557 29-12-2019 16:43:18 -0.1 C 40 %
3558 29-12-2019 16:53:17 -0.2 C 40 %
3559 29-12-2019 17:03:17 -0.2 C 40 %
3560 29-12-2019 17:13:17 -0.3 C 39 %
3561 29-12-2019 17:23:17 -0.3 C 37 %
3562 29-12-2019 17:33:17 -0.3 C 37 %
3563 29-12-2019 17:43:17 -0.1 C 36 %
3564 29-12-2019 17:53:17 -0.2 C 38 %
3565 29-12-2019 18:03:17 -0.1 C 37 %
3566 29-12-2019 18:13:17 0.1 C 37 %
3567 29-12-2019 18:23:17 0.2 C 36 %
3568 29-12-2019 18:33:17 -0.2 C 38 %
3569 29-12-2019 18:43:17 -0.5 C 40 %
3570 29-12-2019 18:53:17 -0.8 C 40 %
3571 29-12-2019 19:03:17 -0.5 C 41 %
3572 29-12-2019 19:13:17 -0.7 C 38 %
3573 29-12-2019 19:23:18 -0.6 C 37 %
3574 29-12-2019 19:33:18 -0.6 C 35 %
3575 29-12-2019 19:43:18 -1 C 35 %
Sensor: Nr:Datum:Temp:Feuchte:
Aussen-T/F 3576 29-12-2019 19:53:17 -1.1 C 36 %
3577 29-12-2019 20:03:18 -0.9 C 34 %
3578 29-12-2019 20:13:18 -1.2 C 36 %
3579 29-12-2019 20:23:17 -0.7 C 35 %
3580 29-12-2019 20:33:17 -1.3 C 37 %
3581 29-12-2019 20:43:17 -0.9 C 39 %
3582 29-12-2019 20:53:17 -1.5 C 39 %
3583 29-12-2019 21:03:17 -1.2 C 38 %
3584 29-12-2019 21:13:17 -1.8 C 37 %
3585 29-12-2019 21:23:17 -1.8 C 40 %
3586 29-12-2019 21:33:18 -1.8 C 41 %
3587 29-12-2019 21:43:18 -2.1 C 42 %
3588 29-12-2019 21:53:17 -2.3 C 42 %
3589 29-12-2019 22:03:17 -2.2 C 43 %
3590 29-12-2019 22:13:17 -2.1 C 43 %
3591 29-12-2019 22:23:17 -2.4 C 42 %
3592 29-12-2019 22:33:17 -2.7 C 42 %
3593 29-12-2019 22:43:18 -2.7 C 43 %
3594 29-12-2019 22:53:17 -2.7 C 43 %
3595 29-12-2019 23:03:17 -2.8 C 43 %
3596 29-12-2019 23:13:17 -2.7 C 44 %
3597 29-12-2019 23:23:17 -2.8 C 43 %
3598 29-12-2019 23:33:18 -3 C 43 %
3599 29-12-2019 23:43:18 -3 C 43 %
3600 29-12-2019 23:53:17 -3 C 42 %
Sensor: Nr:Datum:Temp:Feuchte:
Aussen-T/F 3601 30-12-2019 00:03:17 -3 C 42 %
3602 30-12-2019 00:13:17 -3.1 C 41 %
3603 30-12-2019 00:23:17 -3.1 C 41 %
3604 30-12-2019 00:33:17 -3 C 42 %
3605 30-12-2019 00:43:17 -3.2 C 42 %
3606 30-12-2019 00:53:17 -3.2 C 42 %
3607 30-12-2019 01:03:17 -3.2 C 42 %
3608 30-12-2019 01:13:18 -3.1 C 44 %
3609 30-12-2019 01:23:17 -3.1 C 43 %
3610 30-12-2019 01:33:18 -3.2 C 42 %
3611 30-12-2019 01:43:18 -3.4 C 42 %
3612 30-12-2019 01:53:17 -3.5 C 42 %
3613 30-12-2019 02:03:17 -3.2 C 43 %
3614 30-12-2019 02:13:17 -3.4 C 43 %
3615 30-12-2019 02:23:17 -3.4 C 43 %
3616 30-12-2019 02:33:18 -3.4 C 43 %
3617 30-12-2019 02:43:18 -3.4 C 43 %
3618 30-12-2019 02:53:17 -3.4 C 43 %
3619 30-12-2019 03:03:17 -3.3 C 43 %
3620 30-12-2019 03:13:17 -3.4 C 43 %
3621 30-12-2019 03:23:17 -3.1 C 43 %
3622 30-12-2019 03:33:18 -3.2 C 43 %
3623 30-12-2019 03:43:18 -3.3 C 43 %
3624 30-12-2019 03:53:17 -3.5 C 43 %
3625 30-12-2019 04:03:17 -3.7 C 42 %
Sensor: Nr:Datum:Temp:Feuchte:
Aussen-T/F 3626 30-12-2019 04:13:17 -3.8 C 42 %
3627 30-12-2019 04:23:17 -3.8 C 42 %
3628 30-12-2019 04:33:17 -3.9 C 42 %
3629 30-12-2019 04:43:17 -3.9 C 42 %
3630 30-12-2019 04:53:17 -4 C 42 %
3631 30-12-2019 05:03:17 -3.9 C 42 %
3632 30-12-2019 05:13:17 -3.8 C 42 %
3633 30-12-2019 05:23:17 -3.9 C 42 %
3634 30-12-2019 05:33:17 -3.7 C 43 %
3635 30-12-2019 05:43:17 -3.8 C 43 %
3636 30-12-2019 05:53:18 -4 C 42 %
3637 30-12-2019 06:03:17 -4 C 42 %
3638 30-12-2019 06:13:17 -4 C 42 %
3639 30-12-2019 06:23:17 -3.9 C 42 %
3640 30-12-2019 06:33:17 -3.7 C 43 %
3641 30-12-2019 06:43:17 -3.9 C 42 %
3642 30-12-2019 06:53:17 -4 C 42 %
3643 30-12-2019 07:03:17 -4 C 42 %
3644 30-12-2019 07:13:17 -4.2 C 41 %
3645 30-12-2019 07:23:17 -4.4 C 42 %
3646 30-12-2019 07:33:18 -4.4 C 41 %
3647 30-12-2019 07:43:18 -4.4 C 42 %
3648 30-12-2019 07:53:17 -4.2 C 42 %
3649 30-12-2019 08:03:17 -4.4 C 41 %
3650 30-12-2019 08:13:17 -4.3 C 42 %
Sensor: Nr:Datum:Temp:Feuchte:
Aussen-T/F 3651 30-12-2019 08:23:17 -4.4 C 42 %
3652 30-12-2019 08:33:17 -4.5 C 41 %
3653 30-12-2019 08:43:17 -4 C 43 %
3654 30-12-2019 08:53:17 -4.2 C 41 %
3655 30-12-2019 09:03:18 -4.1 C 42 %
3656 30-12-2019 09:13:18 -3.9 C 42 %
3657 30-12-2019 09:23:17 -3.8 C 42 %
3658 30-12-2019 09:33:17 -3.6 C 43 %
3659 30-12-2019 09:43:17 -3.7 C 42 %
3660 30-12-2019 09:53:17 -3.7 C 42 %
3661 30-12-2019 10:03:17 -3.5 C 42 %
3662 30-12-2019 10:13:17 -3.3 C 43 %
3663 30-12-2019 10:23:17 -3.3 C 42 %
3664 30-12-2019 10:33:17 -3.3 C 42 %
3665 30-12-2019 10:43:17 -3 C 43 %
3666 30-12-2019 10:53:17 -2.9 C 42 %
3667 30-12-2019 11:03:17 -2.9 C 42 %
3668 30-12-2019 11:13:17 -2.8 C 42 %
3669 30-12-2019 11:23:17 -2.4 C 43 %
3670 30-12-2019 11:33:17 -2.1 C 42 %
3671 30-12-2019 11:43:17 -2 C 41 %
3672 30-12-2019 11:53:18 -2.1 C 40 %
3673 30-12-2019 12:03:17 -1.7 C 41 %
3674 30-12-2019 12:13:17 -1.5 C 40 %
3675 30-12-2019 12:23:17 -1.6 C 40 %
Sensor: Nr:Datum:Temp:Feuchte:
Aussen-T/F 3676 30-12-2019 12:33:17 -1.4 C 41 %
3677 30-12-2019 12:43:17 -0.7 C 39 %
3678 30-12-2019 12:53:17 -0.8 C 39 %
3679 30-12-2019 13:03:17 -0.8 C 38 %
3680 30-12-2019 13:13:17 -1 C 40 %
3681 30-12-2019 13:23:17 -1 C 41 %
3682 30-12-2019 13:33:17 -1 C 42 %
3683 30-12-2019 13:43:17 -0.6 C 42 %
3684 30-12-2019 13:53:17 -0.2 C 41 %
3685 30-12-2019 14:03:17 0.3 C 37 %
3686 30-12-2019 14:13:17 0.1 C 35 %
3687 30-12-2019 14:23:17 0.6 C 35 %
3688 30-12-2019 14:33:17 0.5 C 35 %
3689 30-12-2019 14:43:17 1 C 32 %
3690 30-12-2019 14:53:17 0.6 C 35 %
3691 30-12-2019 15:03:17 0.9 C 36 %
3692 30-12-2019 15:13:17 1.1 C 33 %
3693 30-12-2019 15:23:17 0.6 C 35 %
3694 30-12-2019 15:33:18 0.6 C 36 %
3695 30-12-2019 15:43:18 0.7 C 35 %
3696 30-12-2019 15:53:17 1.6 C 32 %
3697 30-12-2019 16:03:18 1.7 C 32 %
3698 30-12-2019 16:13:18 1.9 C 31 %
3699 30-12-2019 16:23:18 1.6 C 33 %
3700 30-12-2019 16:33:17 1.1 C 35 %
Sensor: Nr:Datum:Temp:Feuchte:
Aussen-T/F 3701 30-12-2019 16:43:17 0.8 C 37 %
3702 30-12-2019 16:53:17 0.6 C 40 %
3703 30-12-2019 17:03:17 0.7 C 40 %
3704 30-12-2019 17:13:17 0.7 C 40 %
3705 30-12-2019 17:23:18 0.6 C 40 %
3706 30-12-2019 17:33:17 0.5 C 40 %
3707 30-12-2019 17:43:17 0.5 C 40 %
3708 30-12-2019 17:53:17 0.5 C 37 %
3709 30-12-2019 18:03:17 0.3 C 36 %
3710 30-12-2019 18:13:17 -0.3 C 36 %
3711 30-12-2019 18:23:18 -0.7 C 37 %
3712 30-12-2019 18:33:18 -0.4 C 36 %
3713 30-12-2019 18:43:18 -0.2 C 36 %
3714 30-12-2019 18:53:17 -0.6 C 34 %
3715 30-12-2019 19:03:17 -1.3 C 36 %
3716 30-12-2019 19:13:17 -1 C 36 %
3717 30-12-2019 19:23:18 -1.4 C 36 %
3718 30-12-2019 19:33:17 -1.4 C 39 %
3719 30-12-2019 19:43:17 -0.4 C 33 %
3720 30-12-2019 19:53:18 0 C 32 %
3721 30-12-2019 20:03:17 -0.3 C 31 %
3722 30-12-2019 20:13:17 -1.2 C 32 %
3723 30-12-2019 20:23:17 -1.6 C 35 %
3724 30-12-2019 20:33:17 -1.6 C 36 %
3725 30-12-2019 20:43:17 -1.7 C 36 %
Sensor: Nr:Datum:Temp:Feuchte:
Aussen-T/F 3726 30-12-2019 20:53:17 -1.5 C 37 %
3727 30-12-2019 21:03:17 -1.9 C 37 %
3728 30-12-2019 21:13:17 -0.8 C 35 %
3729 30-12-2019 21:23:17 -1.1 C 35 %
3730 30-12-2019 21:33:17 -0.9 C 35 %
3731 30-12-2019 21:43:17 -0.8 C 36 %
3732 30-12-2019 21:53:17 -1.1 C 33 %
3733 30-12-2019 22:03:17 -1.5 C 35 %
3734 30-12-2019 22:13:17 -1.7 C 35 %
3735 30-12-2019 22:23:17 -1.7 C 35 %
3736 30-12-2019 22:33:17 -2.3 C 35 %
3737 30-12-2019 22:43:17 -1.8 C 35 %
3738 30-12-2019 22:53:17 -2 C 36 %
3739 30-12-2019 23:03:17 -2.3 C 36 %
3740 30-12-2019 23:13:17 -1.5 C 36 %
3741 30-12-2019 23:23:17 -0.9 C 32 %
3742 30-12-2019 23:33:17 -0.3 C 31 %
3743 30-12-2019 23:43:17 -0.9 C 31 %
3744 30-12-2019 23:53:17 -1 C 31 %
3745 31-12-2019 00:03:17 -1.2 C 32 %
3746 31-12-2019 00:13:18 -1.4 C 34 %
3747 31-12-2019 00:23:17 -1.6 C 36 %
3748 31-12-2019 00:33:18 -1.2 C 35 %
3749 31-12-2019 00:43:18 -1.5 C 35 %
3750 31-12-2019 00:53:17 -1.5 C 36 %
Sensor: Nr:Datum:Temp:Feuchte:
Aussen-T/F 3751 31-12-2019 01:03:17 -1.5 C 36 %
3752 31-12-2019 01:13:17 -0.8 C 34 %
3753 31-12-2019 01:23:18 -1.3 C 34 %
3754 31-12-2019 01:33:17 -1.6 C 37 %
3755 31-12-2019 01:43:17 -2 C 37 %
3756 31-12-2019 01:53:17 -2.3 C 38 %
3757 31-12-2019 02:03:17 -2.5 C 40 %
3758 31-12-2019 02:13:17 -2.7 C 40 %
3759 31-12-2019 02:23:18 -2.8 C 41 %
3760 31-12-2019 02:33:17 -3 C 41 %
3761 31-12-2019 02:43:17 -2.9 C 43 %
3762 31-12-2019 02:53:17 -2 C 45 %
3763 31-12-2019 03:03:17 -1.7 C 42 %
3764 31-12-2019 03:13:18 -2 C 40 %
3765 31-12-2019 03:23:17 -2.4 C 40 %
3766 31-12-2019 03:33:18 -2.5 C 41 %
3767 31-12-2019 03:43:18 -2.9 C 41 %
3768 31-12-2019 03:53:17 -2.8 C 42 %
3769 31-12-2019 04:03:17 -2.6 C 43 %
3770 31-12-2019 04:13:17 -3.1 C 42 %
3771 31-12-2019 04:23:17 -3.2 C 42 %
3772 31-12-2019 04:33:17 -3.3 C 42 %
3773 31-12-2019 04:43:18 -3.3 C 42 %
3774 31-12-2019 04:53:17 -3.2 C 43 %
3775 31-12-2019 05:03:17 -3.3 C 42 %
Sensor: Nr:Datum:Temp:Feuchte:
Aussen-T/F 3776 31-12-2019 05:13:17 -3.6 C 42 %
3777 31-12-2019 05:23:17 -3.4 C 43 %
3778 31-12-2019 05:33:17 -3.1 C 44 %
3779 31-12-2019 05:43:17 -3 C 44 %
3780 31-12-2019 05:53:17 -2.9 C 44 %
3781 31-12-2019 06:03:17 -3.1 C 43 %
3782 31-12-2019 06:13:17 -3.3 C 43 %
3783 31-12-2019 06:23:17 -3.2 C 43 %
3784 31-12-2019 06:33:17 -3.3 C 43 %
3785 31-12-2019 06:43:17 -3.4 C 43 %
3786 31-12-2019 06:53:18 -3.2 C 44 %
3787 31-12-2019 07:03:17 -3.2 C 44 %
3788 31-12-2019 07:13:17 -3 C 44 %
3789 31-12-2019 07:23:17 -3.1 C 44 %
3790 31-12-2019 07:33:17 -3 C 44 %
3791 31-12-2019 07:43:17 -2.6 C 45 %
3792 31-12-2019 07:53:18 -2.1 C 45 %
3793 31-12-2019 08:03:17 -2 C 45 %
3794 31-12-2019 08:13:17 -2 C 45 %
3795 31-12-2019 08:23:17 -1.3 C 45 %
3796 31-12-2019 08:33:17 -1 C 44 %
3797 31-12-2019 08:43:17 -1 C 43 %
3798 31-12-2019 08:53:17 -1.1 C 42 %
3799 31-12-2019 09:03:17 -1 C 43 %
3800 31-12-2019 09:13:17 -0.9 C 44 %
Sensor: Nr:Datum:Temp:Feuchte:
Aussen-T/F 3801 31-12-2019 09:23:17 -1.1 C 42 %
3802 31-12-2019 09:33:17 -1.1 C 42 %
3803 31-12-2019 09:43:17 -1.1 C 42 %
3804 31-12-2019 09:53:17 -0.9 C 43 %
3805 31-12-2019 10:03:17 -0.6 C 44 %
3806 31-12-2019 10:13:17 -0.2 C 43 %
3807 31-12-2019 10:23:17 0.1 C 41 %
3808 31-12-2019 10:33:17 0.3 C 40 %
3809 31-12-2019 10:43:17 0.3 C 38 %
3810 31-12-2019 10:53:18 0.5 C 40 %
3811 31-12-2019 11:03:17 0.8 C 41 %
3812 31-12-2019 11:13:17 0.7 C 41 %
3813 31-12-2019 11:23:17 1.2 C 40 %
3814 31-12-2019 11:33:17 1.1 C 38 %
3815 31-12-2019 11:43:17 1.5 C 40 %
3816 31-12-2019 11:53:17 1.5 C 40 %
3817 31-12-2019 12:03:18 1.8 C 31 %
3818 31-12-2019 12:13:18 2.4 C 35 %
3819 31-12-2019 12:23:17 2.6 C 33 %
3820 31-12-2019 12:33:18 2.4 C 32 %
3821 31-12-2019 12:43:18 2.8 C 30 %
3822 31-12-2019 12:53:17 2.3 C 29 %
3823 31-12-2019 13:03:18 2.4 C 28 %
3824 31-12-2019 13:13:18 2.4 C 27 %
3825 31-12-2019 13:23:17 2.8 C 27 %
Sensor: Nr:Datum:Temp:Feuchte:
Aussen-T/F 3826 31-12-2019 13:33:17 2.8 C 26 %
3827 31-12-2019 13:43:17 3.3 C 26 %
3828 31-12-2019 13:53:17 2.9 C 26 %
3829 31-12-2019 14:03:18 2.7 C 27 %
3830 31-12-2019 14:13:18 2.9 C 27 %
3831 31-12-2019 14:23:17 3.1 C 26 %
3832 31-12-2019 14:33:17 3.4 C 26 %
3833 31-12-2019 14:43:17 3.2 C 26 %
3834 31-12-2019 14:53:17 3 C 26 %
3835 31-12-2019 15:03:17 2.8 C 27 %
3836 31-12-2019 15:13:17 2.9 C 27 %
3837 31-12-2019 15:23:18 3 C 27 %
3838 31-12-2019 15:33:17 3 C 27 %
3839 31-12-2019 15:43:17 2.9 C 28 %
3840 31-12-2019 15:53:17 2.7 C 29 %
3841 31-12-2019 16:03:17 2.1 C 30 %
3842 31-12-2019 16:13:17 0.9 C 35 %
3843 31-12-2019 16:23:18 0.6 C 38 %
3844 31-12-2019 16:33:17 0.3 C 40 %
3845 31-12-2019 16:43:17 0.2 C 39 %
3846 31-12-2019 16:53:18 0.2 C 40 %
3847 31-12-2019 17:03:17 -0.1 C 41 %
3848 31-12-2019 17:13:17 -0.4 C 41 %
3849 31-12-2019 17:23:17 -0.3 C 40 %
3850 31-12-2019 17:33:17 -0.3 C 41 %
Sensor: Nr:Datum:Temp:Feuchte:
Aussen-T/F 3851 31-12-2019 17:43:17 -0.6 C 43 %
3852 31-12-2019 17:53:18 -0.7 C 43 %
3853 31-12-2019 18:03:17 -1.1 C 43 %
3854 31-12-2019 18:13:17 -1.2 C 45 %
3855 31-12-2019 18:23:17 -0.9 C 45 %
3856 31-12-2019 18:33:17 -0.8 C 45 %
3857 31-12-2019 18:43:17 -0.4 C 46 %
3858 31-12-2019 18:53:18 -0.4 C 46 %
3859 31-12-2019 19:03:17 -0.3 C 45 %
3860 31-12-2019 19:13:17 -0.1 C 46 %
3861 31-12-2019 19:23:18 0 C 45 %
3862 31-12-2019 19:33:17 0.1 C 45 %
3863 31-12-2019 19:43:17 0.2 C 45 %
3864 31-12-2019 19:53:17 0.4 C 45 %
3865 31-12-2019 20:03:18 0.5 C 45 %
3866 31-12-2019 20:13:18 0.5 C 45 %
3867 31-12-2019 20:23:17 0.4 C 45 %
3868 31-12-2019 20:33:17 0.4 C 45 %
3869 31-12-2019 20:43:17 0.3 C 43 %
3870 31-12-2019 20:53:17 0.2 C 43 %
3871 31-12-2019 21:03:17 0.2 C 43 %
3872 31-12-2019 21:13:17 0.4 C 44 %
3873 31-12-2019 21:23:18 0.4 C 44 %
3874 31-12-2019 21:33:17 0.5 C 44 %
3875 31-12-2019 21:43:17 0.6 C 43 %
Sensor: Nr:Datum:Temp:Feuchte:
Aussen-T/F 3876 31-12-2019 21:53:17 0.5 C 43 %
3877 31-12-2019 22:03:17 0.6 C 42 %
3878 31-12-2019 22:13:17 0.5 C 42 %
3879 31-12-2019 22:23:18 0.2 C 41 %
3880 31-12-2019 22:33:17 0 C 41 %
3881 31-12-2019 22:43:17 -0.2 C 42 %
3882 31-12-2019 22:53:17 -0.4 C 43 %
3883 31-12-2019 23:03:17 -0.3 C 44 %
3884 31-12-2019 23:13:17 -0.1 C 45 %
3885 31-12-2019 23:23:18 0 C 45 %
3886 31-12-2019 23:33:17 0 C 45 %
3887 31-12-2019 23:43:17 0.4 C 45 %
3888 31-12-2019 23:53:18 0.3 C 45 %
3889 01-01-2020 00:03:17 0.4 C 45 %
3890 01-01-2020 00:13:17 0.4 C 45 %
3891 01-01-2020 00:23:17 0.3 C 45 %
3892 01-01-2020 00:33:17 -0.9 C 41 %
3893 01-01-2020 00:43:17 -0.3 C 45 %
3894 01-01-2020 00:53:18 -0.5 C 44 %
3895 01-01-2020 01:03:17 -0.5 C 44 %
3896 01-01-2020 01:13:17 -0.6 C 44 %
3897 01-01-2020 01:23:17 -0.6 C 45 %
3898 01-01-2020 01:33:17 -0.7 C 45 %
3899 01-01-2020 01:43:17 -1.1 C 44 %
3900 01-01-2020 01:53:18 -0.9 C 45 %
Sensor: Nr:Datum:Temp:Feuchte:
Aussen-T/F 3901 01-01-2020 02:03:17 -0.9 C 45 %
3902 01-01-2020 02:13:17 -0.5 C 46 %
3903 01-01-2020 02:23:17 -0.2 C 45 %
3904 01-01-2020 02:33:18 -0.1 C 45 %
3905 01-01-2020 02:43:18 0 C 45 %
3906 01-01-2020 02:53:17 0.1 C 45 %
3907 01-01-2020 03:03:17 0.1 C 45 %
3908 01-01-2020 03:13:18 0.1 C 45 %
3909 01-01-2020 03:23:17 0.2 C 45 %
3910 01-01-2020 03:33:18 0.1 C 45 %
3911 01-01-2020 03:43:18 0.1 C 45 %
3912 01-01-2020 03:53:17 0.1 C 45 %
3913 01-01-2020 04:03:18 0.2 C 45 %
3914 01-01-2020 04:13:18 0.2 C 45 %
3915 01-01-2020 04:23:17 0.3 C 45 %
3916 01-01-2020 04:33:18 0.3 C 45 %
3917 01-01-2020 04:43:18 0.3 C 44 %
3918 01-01-2020 04:53:17 0.3 C 44 %
3919 01-01-2020 05:03:18 0.4 C 44 %
3920 01-01-2020 05:13:18 0.5 C 44 %
3921 01-01-2020 05:23:17 0.4 C 44 %
3922 01-01-2020 05:33:18 0.4 C 44 %
3923 01-01-2020 05:43:18 0.4 C 44 %
3924 01-01-2020 05:53:17 0.4 C 43 %
3925 01-01-2020 06:03:17 0.4 C 43 %
Sensor: Nr:Datum:Temp:Feuchte:
Aussen-T/F 3926 01-01-2020 06:13:17 0.5 C 43 %
3927 01-01-2020 06:23:17 0.4 C 42 %
3928 01-01-2020 06:33:17 0.6 C 42 %
3929 01-01-2020 06:43:17 0.6 C 42 %
3930 01-01-2020 06:53:17 0.6 C 42 %
3931 01-01-2020 07:03:18 0.6 C 41 %
3932 01-01-2020 07:13:18 0.6 C 41 %
3933 01-01-2020 07:23:17 0.6 C 41 %
3934 01-01-2020 07:33:17 0.6 C 41 %
3935 01-01-2020 07:43:17 0.6 C 41 %
3936 01-01-2020 07:53:17 0.6 C 41 %
3937 01-01-2020 08:03:17 0.6 C 41 %
3938 01-01-2020 08:13:17 0.6 C 41 %
3939 01-01-2020 08:23:18 0.7 C 40 %
3940 01-01-2020 08:33:17 0.7 C 40 %
3941 01-01-2020 08:43:17 0.7 C 40 %
3942 01-01-2020 08:53:17 0.8 C 40 %
3943 01-01-2020 09:03:17 0.8 C 40 %
3944 01-01-2020 09:13:17 1.1 C 38 %
3945 01-01-2020 09:23:17 1.3 C 38 %
3946 01-01-2020 09:33:17 1.4 C 37 %
3947 01-01-2020 09:43:17 1.5 C 37 %
3948 01-01-2020 09:53:17 1.7 C 36 %
3949 01-01-2020 10:03:18 1.9 C 36 %
3950 01-01-2020 10:13:18 2 C 34 %
Sensor: Nr:Datum:Temp:Feuchte:
Aussen-T/F 3951 01-01-2020 10:23:17 2.1 C 33 %
3952 01-01-2020 10:33:17 2.2 C 32 %
3953 01-01-2020 10:43:17 2.3 C 32 %
3954 01-01-2020 10:53:17 2.4 C 32 %
3955 01-01-2020 11:03:17 2.4 C 31 %
3956 01-01-2020 11:13:17 2.7 C 31 %
3957 01-01-2020 11:23:18 2.7 C 30 %
3958 01-01-2020 11:33:17 2.7 C 30 %
3959 01-01-2020 11:43:17 2.8 C 30 %
3960 01-01-2020 11:53:18 2.9 C 30 %
3961 01-01-2020 12:03:17 3.2 C 28 %
3962 01-01-2020 12:13:17 3 C 29 %
3963 01-01-2020 12:23:18 2.7 C 30 %
3964 01-01-2020 12:33:17 2.7 C 30 %
3965 01-01-2020 12:43:17 2.5 C 30 %
3966 01-01-2020 12:53:18 2.1 C 32 %
3967 01-01-2020 13:03:17 1.6 C 36 %
3968 01-01-2020 13:13:17 1.6 C 37 %
3969 01-01-2020 13:23:18 1.4 C 37 %
3970 01-01-2020 13:33:17 1.5 C 38 %
3971 01-01-2020 13:43:17 1.5 C 38 %
3972 01-01-2020 13:53:17 1.6 C 39 %
3973 01-01-2020 14:03:17 1.6 C 39 %
3974 01-01-2020 14:13:17 1.6 C 39 %
3975 01-01-2020 14:23:17 1.6 C 40 %
Sensor: Nr:Datum:Temp:Feuchte:
Aussen-T/F 3976 01-01-2020 14:33:17 1.4 C 40 %
3977 01-01-2020 14:43:17 1.3 C 41 %
3978 01-01-2020 14:53:17 1.2 C 41 %
3979 01-01-2020 15:03:17 1.3 C 41 %
3980 01-01-2020 15:13:17 1.2 C 41 %
3981 01-01-2020 15:23:17 1.6 C 41 %
3982 01-01-2020 15:33:17 1.7 C 38 %
3983 01-01-2020 15:43:17 1.1 C 38 %
3984 01-01-2020 15:53:17 0.7 C 40 %
3985 01-01-2020 16:03:17 0.5 C 43 %
3986 01-01-2020 16:13:17 -0.1 C 43 %
3987 01-01-2020 16:23:17 -0.3 C 44 %
3988 01-01-2020 16:33:18 -0.7 C 44 %
3989 01-01-2020 16:43:18 -0.7 C 45 %
3990 01-01-2020 16:53:17 -0.8 C 45 %
3991 01-01-2020 17:03:17 -1 C 45 %
3992 01-01-2020 17:13:17 -1.3 C 45 %
3993 01-01-2020 17:23:18 -1.5 C 45 %
3994 01-01-2020 17:33:17 -1.8 C 45 %
3995 01-01-2020 17:43:17 -1.9 C 45 %
3996 01-01-2020 17:53:18 -1.8 C 45 %
3997 01-01-2020 18:03:17 -1.9 C 45 %
3998 01-01-2020 18:13:17 -1.9 C 45 %
3999 01-01-2020 18:23:17 -2.1 C 45 %
4000 01-01-2020 18:33:17 -2.1 C 45 %
Sensor: Nr:Datum:Temp:Feuchte:
Aussen-T/F 4001 01-01-2020 18:43:18 -2.1 C 45 %
4002 01-01-2020 18:53:17 -2.2 C 45 %
4003 01-01-2020 19:03:17 -2.4 C 45 %
4004 01-01-2020 19:13:18 -2.5 C 45 %
4005 01-01-2020 19:23:17 -2.4 C 45 %
4006 01-01-2020 19:33:17 -2.3 C 45 %
4007 01-01-2020 19:43:17 -2.2 C 45 %
4008 01-01-2020 19:53:17 -2.4 C 45 %
4009 01-01-2020 20:03:17 -2.2 C 45 %
4010 01-01-2020 20:13:17 -2.1 C 45 %
4011 01-01-2020 20:23:18 -2.3 C 45 %
4012 01-01-2020 20:33:17 -2.1 C 45 %
4013 01-01-2020 20:43:17 -2.6 C 43 %
4014 01-01-2020 20:53:17 -2.8 C 43 %
4015 01-01-2020 21:03:17 -2.8 C 43 %
4016 01-01-2020 21:13:17 -3 C 43 %
4017 01-01-2020 21:23:18 -3.1 C 43 %
4018 01-01-2020 21:33:17 -3.1 C 43 %
4019 01-01-2020 21:43:17 -3.2 C 42 %
4020 01-01-2020 21:53:17 -2.8 C 43 %
4021 01-01-2020 22:03:17 -3.1 C 42 %
4022 01-01-2020 22:13:17 -3.2 C 42 %
4023 01-01-2020 22:23:17 -3 C 43 %
4024 01-01-2020 22:33:17 -2.8 C 43 %
4025 01-01-2020 22:43:17 -2.8 C 43 %
Sensor: Nr:Datum:Temp:Feuchte:
Aussen-T/F 4026 01-01-2020 22:53:17 -3.2 C 42 %
4027 01-01-2020 23:03:17 -3.2 C 42 %
4028 01-01-2020 23:13:17 -2.7 C 44 %
4029 01-01-2020 23:23:17 -2.3 C 45 %
4030 01-01-2020 23:33:17 -2.4 C 44 %
4031 01-01-2020 23:43:17 -2.2 C 45 %
4032 01-01-2020 23:53:17 -2.2 C 45 %
4033 02-01-2020 00:03:17 -2.3 C 44 %
4034 02-01-2020 00:13:17 -2.4 C 44 %
4035 02-01-2020 00:23:17 -2.6 C 43 %
4036 02-01-2020 00:33:17 -2.4 C 43 %
4037 02-01-2020 00:43:17 -2.4 C 44 %
4038 02-01-2020 00:53:17 -2.6 C 43 %
4039 02-01-2020 01:03:17 -2.3 C 44 %
4040 02-01-2020 01:13:17 -2.1 C 45 %
4041 02-01-2020 01:23:17 -1.9 C 45 %
4042 02-01-2020 01:33:17 -1.9 C 45 %
4043 02-01-2020 01:43:17 -1.8 C 45 %
4044 02-01-2020 01:53:17 -1.7 C 45 %
4045 02-01-2020 02:03:17 -1.6 C 45 %
4046 02-01-2020 02:13:17 -1.5 C 45 %
4047 02-01-2020 02:23:17 -1.4 C 45 %
4048 02-01-2020 02:33:17 -1.3 C 45 %
4049 02-01-2020 02:43:17 -1.3 C 45 %
4050 02-01-2020 02:53:17 -1.3 C 45 %
Sensor: Nr:Datum:Temp:Feuchte:
Aussen-T/F 4051 02-01-2020 03:03:17 -1.2 C 45 %
4052 02-01-2020 03:13:18 -1.1 C 45 %
4053 02-01-2020 03:23:17 -1.1 C 45 %
4054 02-01-2020 03:33:18 -1 C 45 %
4055 02-01-2020 03:43:18 -0.9 C 45 %
4056 02-01-2020 03:53:17 -0.9 C 45 %
4057 02-01-2020 04:03:18 -0.8 C 45 %
4058 02-01-2020 04:13:18 -0.7 C 45 %
4059 02-01-2020 04:23:17 -0.7 C 45 %
4060 02-01-2020 04:33:17 -0.7 C 45 %
4061 02-01-2020 04:43:17 -0.7 C 45 %
4062 02-01-2020 04:53:17 -0.8 C 45 %
4063 02-01-2020 05:03:17 -0.9 C 45 %
4064 02-01-2020 05:13:17 -0.9 C 45 %
4065 02-01-2020 05:23:18 -0.9 C 45 %
4066 02-01-2020 05:33:17 -0.9 C 45 %
4067 02-01-2020 05:43:17 -0.8 C 44 %
4068 02-01-2020 05:53:18 -0.8 C 44 %
4069 02-01-2020 06:03:17 -0.9 C 44 %
4070 02-01-2020 06:13:17 -0.9 C 43 %
4071 02-01-2020 06:23:17 -0.9 C 43 %
4072 02-01-2020 06:33:18 -0.7 C 42 %
4073 02-01-2020 06:43:18 -0.7 C 41 %
4074 02-01-2020 06:53:17 -0.7 C 40 %
4075 02-01-2020 07:03:18 -0.7 C 40 %
Sensor: Nr:Datum:Temp:Feuchte:
Aussen-T/F 4076 02-01-2020 07:13:18 -0.7 C 40 %
4077 02-01-2020 07:23:17 -0.7 C 39 %
4078 02-01-2020 07:33:17 -0.7 C 39 %
4079 02-01-2020 07:43:17 -0.7 C 40 %
4080 02-01-2020 07:53:17 -0.6 C 41 %
4081 02-01-2020 08:03:18 -0.6 C 41 %
4082 02-01-2020 08:13:18 -0.5 C 41 %
4083 02-01-2020 08:23:17 -0.4 C 41 %
4084 02-01-2020 08:33:17 -0.3 C 40 %
4085 02-01-2020 08:43:17 -0.3 C 41 %
4086 02-01-2020 08:53:17 -0.2 C 42 %
4087 02-01-2020 09:03:17 -0.1 C 42 %
4088 02-01-2020 09:13:17 0.1 C 42 %
4089 02-01-2020 09:23:17 0.1 C 40 %
4090 02-01-2020 09:33:18 0.4 C 38 %
4091 02-01-2020 09:43:18 0.5 C 37 %
4092 02-01-2020 09:53:17 0.4 C 39 %
4093 02-01-2020 10:03:17 0.4 C 40 %
4094 02-01-2020 10:13:18 0.7 C 41 %
4095 02-01-2020 10:23:17 1.1 C 42 %
4096 02-01-2020 10:33:18 1.1 C 39 %
4097 02-01-2020 10:43:18 1.3 C 39 %
4098 02-01-2020 10:53:17 1.5 C 38 %
4099 02-01-2020 11:03:18 1.7 C 38 %
4100 02-01-2020 11:13:18 1.6 C 35 %
Sensor: Nr:Datum:Temp:Feuchte:
Aussen-T/F 4101 02-01-2020 11:23:17 1.9 C 37 %
4102 02-01-2020 11:33:17 2.1 C 36 %
4103 02-01-2020 11:43:17 2.1 C 35 %
4104 02-01-2020 11:53:17 2.1 C 34 %
4105 02-01-2020 12:03:17 2.2 C 34 %
4106 02-01-2020 12:13:17 2.3 C 35 %
4107 02-01-2020 12:23:17 2.3 C 35 %
4108 02-01-2020 12:33:17 2.6 C 34 %
4109 02-01-2020 12:43:17 3 C 35 %
4110 02-01-2020 12:53:17 2.8 C 32 %
4111 02-01-2020 13:03:17 2.9 C 31 %
4112 02-01-2020 13:13:17 3.1 C 30 %
4113 02-01-2020 13:23:17 3.3 C 29 %
4114 02-01-2020 13:33:17 3.6 C 29 %
4115 02-01-2020 13:43:17 3.3 C 29 %
4116 02-01-2020 13:53:18 3.1 C 30 %
4117 02-01-2020 14:03:17 3.4 C 30 %
4118 02-01-2020 14:13:17 3.4 C 30 %
4119 02-01-2020 14:23:18 3.5 C 30 %
4120 02-01-2020 14:33:17 3.4 C 30 %
4121 02-01-2020 14:43:17 3.7 C 30 %
4122 02-01-2020 14:53:17 3.4 C 30 %
4123 02-01-2020 15:03:17 3.1 C 31 %
4124 02-01-2020 15:13:17 3 C 31 %
4125 02-01-2020 15:23:18 2.7 C 32 %
Sensor: Nr:Datum:Temp:Feuchte:
Aussen-T/F 4126 02-01-2020 15:33:17 2.5 C 33 %
4127 02-01-2020 15:43:17 2.5 C 34 %
4128 02-01-2020 15:53:17 2.4 C 35 %
4129 02-01-2020 16:03:17 2.4 C 35 %
4130 02-01-2020 16:13:17 2.3 C 35 %
4131 02-01-2020 16:23:18 2.2 C 36 %
4132 02-01-2020 16:33:17 2.2 C 37 %
4133 02-01-2020 16:43:17 2.3 C 37 %
4134 02-01-2020 16:53:17 2.2 C 37 %
4135 02-01-2020 17:03:17 2.1 C 38 %
4136 02-01-2020 17:13:17 2 C 38 %
4137 02-01-2020 17:23:18 2.1 C 40 %
4138 02-01-2020 17:33:17 2.1 C 40 %
4139 02-01-2020 17:43:17 2.1 C 40 %
4140 02-01-2020 17:53:17 2.1 C 40 %
4141 02-01-2020 18:03:17 2.1 C 40 %
4142 02-01-2020 18:13:17 2.1 C 40 %
4143 02-01-2020 18:23:17 2.1 C 40 %
4144 02-01-2020 18:33:17 2.1 C 40 %
4145 02-01-2020 18:43:18 2.2 C 39 %
4146 02-01-2020 18:53:17 2.3 C 40 %
4147 02-01-2020 19:03:17 2.2 C 40 %
4148 02-01-2020 19:13:18 2.2 C 40 %
4149 02-01-2020 19:23:17 2.3 C 40 %
4150 02-01-2020 19:33:17 2.3 C 40 %
Sensor: Nr:Datum:Temp:Feuchte:
Aussen-T/F 4151 02-01-2020 19:43:18 2.3 C 40 %
4152 02-01-2020 19:53:17 2.3 C 40 %
4153 02-01-2020 20:03:18 2.3 C 40 %
4154 02-01-2020 20:13:18 2.4 C 40 %
4155 02-01-2020 20:23:17 2.5 C 40 %
4156 02-01-2020 20:33:17 2.6 C 40 %
4157 02-01-2020 20:43:17 2.6 C 40 %
4158 02-01-2020 20:53:17 2.5 C 39 %
4159 02-01-2020 21:03:18 2.5 C 40 %
4160 02-01-2020 21:13:18 2.5 C 40 %
4161 02-01-2020 21:23:17 2.5 C 40 %
4162 02-01-2020 21:33:18 2.5 C 40 %
4163 02-01-2020 21:43:18 2.3 C 40 %
4164 02-01-2020 21:53:17 1.9 C 42 %
4165 02-01-2020 22:03:17 2.3 C 43 %
4166 02-01-2020 22:13:17 2.4 C 43 %
4167 02-01-2020 22:23:17 2.5 C 43 %
4168 02-01-2020 22:33:17 2.6 C 43 %
4169 02-01-2020 22:43:18 2.7 C 43 %
4170 02-01-2020 22:53:17 2.7 C 42 %
4171 02-01-2020 23:03:17 2.8 C 42 %
4172 02-01-2020 23:13:17 2.8 C 42 %
4173 02-01-2020 23:23:17 2.8 C 41 %
4174 02-01-2020 23:33:18 2.8 C 42 %
4175 02-01-2020 23:43:18 2.9 C 42 %
Sensor: Nr:Datum:Temp:Feuchte:
Aussen-T/F 4176 02-01-2020 23:53:17 2.8 C 41 %
Sensor: Nr:Datum:Temp:Feuchte:
G-T/H 1 05-12-2019 00:01:17 8.7 C 69 %
2 05-12-2019 00:11:17 8.6 C 69 %
3 05-12-2019 00:21:17 8.6 C 69 %
4 05-12-2019 00:31:18 8.6 C 69 %
5 05-12-2019 00:41:18 8.6 C 69 %
6 05-12-2019 00:51:17 8.6 C 69 %
7 05-12-2019 01:01:17 8.6 C 69 %
8 05-12-2019 01:11:17 8.6 C 69 %
9 05-12-2019 01:21:17 8.6 C 69 %
10 05-12-2019 01:31:18 8.5 C 69 %
11 05-12-2019 01:41:18 8.6 C 69 %
12 05-12-2019 01:51:17 8.5 C 69 %
13 05-12-2019 02:01:17 8.5 C 69 %
14 05-12-2019 02:11:18 8.5 C 69 %
15 05-12-2019 02:21:17 8.5 C 69 %
16 05-12-2019 02:31:17 8.5 C 69 %
17 05-12-2019 02:41:17 8.4 C 69 %
18 05-12-2019 02:51:17 8.4 C 69 %
19 05-12-2019 03:01:17 8.4 C 69 %
20 05-12-2019 03:11:17 8.4 C 69 %
21 05-12-2019 03:21:17 8.4 C 69 %
22 05-12-2019 03:31:17 8.3 C 69 %
23 05-12-2019 03:41:17 8.3 C 69 %
24 05-12-2019 03:51:17 8.3 C 69 %
25 05-12-2019 04:01:17 8.2 C 69 %
Sensor: Nr:Datum:Temp:Feuchte:
G-T/H 26 05-12-2019 04:11:17 8.2 C 69 %
27 05-12-2019 04:21:17 8.2 C 69 %
28 05-12-2019 04:31:18 8.2 C 69 %
29 05-12-2019 04:41:18 8.2 C 69 %
30 05-12-2019 04:51:17 8.1 C 69 %
31 05-12-2019 05:01:17 8.1 C 69 %
32 05-12-2019 05:11:17 8.1 C 69 %
33 05-12-2019 05:21:17 8.1 C 69 %
34 05-12-2019 05:31:17 8.1 C 69 %
35 05-12-2019 05:41:18 8 C 69 %
36 05-12-2019 05:51:17 8 C 69 %
37 05-12-2019 06:01:17 8 C 69 %
38 05-12-2019 06:11:17 8 C 69 %
39 05-12-2019 06:21:17 8 C 69 %
40 05-12-2019 06:31:17 8 C 69 %
41 05-12-2019 06:41:17 7.9 C 70 %
42 05-12-2019 06:51:17 8 C 69 %
43 05-12-2019 07:01:17 7.9 C 70 %
44 05-12-2019 07:11:17 7.7 C 68 %
45 05-12-2019 07:21:17 7.7 C 68 %
46 05-12-2019 07:31:17 7.7 C 68 %
47 05-12-2019 07:41:18 7.8 C 68 %
48 05-12-2019 07:51:17 7.8 C 68 %
49 05-12-2019 08:01:17 7.8 C 68 %
50 05-12-2019 08:11:17 7.8 C 68 %
Sensor: Nr:Datum:Temp:Feuchte:
G-T/H 51 05-12-2019 08:21:18 7.8 C 69 %
52 05-12-2019 08:31:17 7.8 C 69 %
53 05-12-2019 08:41:17 7.8 C 69 %
54 05-12-2019 08:51:17 7.8 C 69 %
55 05-12-2019 09:01:18 7.8 C 69 %
56 05-12-2019 09:11:18 7.8 C 69 %
57 05-12-2019 09:21:17 7.7 C 69 %
58 05-12-2019 09:31:17 7.8 C 69 %
59 05-12-2019 09:41:17 7.7 C 69 %
60 05-12-2019 09:51:17 7.7 C 69 %
61 05-12-2019 10:01:18 7.8 C 69 %
62 05-12-2019 10:11:18 7.7 C 69 %
63 05-12-2019 10:21:17 7.8 C 69 %
64 05-12-2019 10:31:17 7.7 C 69 %
65 05-12-2019 10:41:17 7.7 C 69 %
66 05-12-2019 10:51:18 7.7 C 69 %
67 05-12-2019 11:01:17 7.7 C 69 %
68 05-12-2019 11:11:17 7.7 C 69 %
69 05-12-2019 11:21:17 7.7 C 69 %
70 05-12-2019 11:31:18 7.7 C 69 %
71 05-12-2019 11:41:18 7.7 C 69 %
72 05-12-2019 11:51:17 7.7 C 69 %
73 05-12-2019 12:01:18 7.7 C 69 %
74 05-12-2019 12:11:18 7.7 C 69 %
75 05-12-2019 12:21:17 7.7 C 69 %
Sensor: Nr:Datum:Temp:Feuchte:
G-T/H 76 05-12-2019 12:31:17 7.7 C 69 %
77 05-12-2019 12:41:17 7.7 C 69 %
78 05-12-2019 12:51:18 7.6 C 70 %
79 05-12-2019 13:01:17 7.6 C 70 %
80 05-12-2019 13:11:17 7.6 C 70 %
81 05-12-2019 13:21:17 7.7 C 70 %
82 05-12-2019 13:31:17 7.6 C 70 %
83 05-12-2019 13:41:17 7.6 C 70 %
84 05-12-2019 13:51:17 7.6 C 70 %
85 05-12-2019 14:01:18 7.6 C 70 %
86 05-12-2019 14:11:18 7.6 C 70 %
87 05-12-2019 14:21:17 7.6 C 70 %
88 05-12-2019 14:31:17 7.6 C 70 %
89 05-12-2019 14:41:17 7.6 C 70 %
90 05-12-2019 14:51:17 7.6 C 70 %
91 05-12-2019 15:01:17 7.6 C 70 %
92 05-12-2019 15:11:17 7.6 C 70 %
93 05-12-2019 15:21:17 7.6 C 70 %
94 05-12-2019 15:31:17 7.7 C 70 %
95 05-12-2019 15:41:17 7.6 C 70 %
96 05-12-2019 15:51:18 7.6 C 70 %
97 05-12-2019 16:01:17 7.6 C 70 %
98 05-12-2019 16:11:17 7.6 C 70 %
99 05-12-2019 16:21:17 7.6 C 70 %
100 05-12-2019 16:31:18 7.6 C 70 %
Sensor: Nr:Datum:Temp:Feuchte:
G-T/H 101 05-12-2019 16:41:18 7.6 C 70 %
102 05-12-2019 16:51:17 7.6 C 70 %
103 05-12-2019 17:01:17 7.6 C 70 %
104 05-12-2019 17:11:17 7.6 C 70 %
105 05-12-2019 17:21:18 7.6 C 70 %
106 05-12-2019 17:31:17 7.6 C 70 %
107 05-12-2019 17:41:17 7.6 C 70 %
108 05-12-2019 17:51:17 7.6 C 70 %
109 05-12-2019 18:01:18 7.6 C 70 %
110 05-12-2019 18:11:18 7.6 C 70 %
111 05-12-2019 18:21:17 7.6 C 70 %
112 05-12-2019 18:31:17 7.1 C 68 %
113 05-12-2019 18:41:17 7.5 C 69 %
114 05-12-2019 18:51:18 7.7 C 69 %
115 05-12-2019 19:01:17 7.8 C 69 %
116 05-12-2019 19:11:17 7.9 C 69 %
117 05-12-2019 19:21:17 7.9 C 70 %
118 05-12-2019 19:31:17 8 C 69 %
119 05-12-2019 19:41:17 8 C 69 %
120 05-12-2019 19:51:18 8.1 C 69 %
121 05-12-2019 20:01:17 8.1 C 69 %
122 05-12-2019 20:11:17 8.1 C 69 %
123 05-12-2019 20:21:17 8.1 C 69 %
124 05-12-2019 20:31:17 8.1 C 69 %
125 05-12-2019 20:41:17 8.1 C 69 %
Sensor: Nr:Datum:Temp:Feuchte:
G-T/H 126 05-12-2019 20:51:18 8.1 C 68 %
127 05-12-2019 21:01:17 8.1 C 68 %
128 05-12-2019 21:11:17 8.1 C 68 %
129 05-12-2019 21:21:17 8 C 68 %
130 05-12-2019 21:31:17 8 C 68 %
131 05-12-2019 21:41:17 8 C 68 %
132 05-12-2019 21:51:17 8 C 68 %
133 05-12-2019 22:01:17 8 C 68 %
134 05-12-2019 22:11:17 7.9 C 69 %
135 05-12-2019 22:21:18 7.9 C 69 %
136 05-12-2019 22:31:17 7.9 C 69 %
137 05-12-2019 22:41:17 7.9 C 69 %
138 05-12-2019 22:51:17 7.9 C 69 %
139 05-12-2019 23:01:17 7.9 C 69 %
140 05-12-2019 23:11:17 7.9 C 69 %
141 05-12-2019 23:21:18 7.9 C 69 %
142 05-12-2019 23:31:17 7.9 C 69 %
143 05-12-2019 23:41:17 7.8 C 69 %
144 05-12-2019 23:51:17 7.8 C 69 %
145 06-12-2019 00:01:18 7.8 C 69 %
146 06-12-2019 00:11:18 7.8 C 69 %
147 06-12-2019 00:21:17 7.8 C 69 %
148 06-12-2019 00:31:17 7.8 C 69 %
149 06-12-2019 00:41:17 7.8 C 69 %
150 06-12-2019 00:51:17 7.7 C 68 %
Sensor: Nr:Datum:Temp:Feuchte:
G-T/H 151 06-12-2019 01:01:17 7.8 C 68 %
152 06-12-2019 01:11:17 7.7 C 68 %
153 06-12-2019 01:21:17 7.7 C 69 %
154 06-12-2019 01:31:18 7.7 C 69 %
155 06-12-2019 01:41:18 7.7 C 69 %
156 06-12-2019 01:51:17 7.7 C 69 %
157 06-12-2019 02:01:17 7.6 C 69 %
158 06-12-2019 02:11:17 7.6 C 69 %
159 06-12-2019 02:21:17 7.6 C 69 %
160 06-12-2019 02:31:17 7.6 C 69 %
161 06-12-2019 02:41:17 7.6 C 69 %
162 06-12-2019 02:51:17 7.6 C 69 %
163 06-12-2019 03:01:18 7.6 C 69 %
164 06-12-2019 03:11:18 7.6 C 69 %
165 06-12-2019 03:21:17 7.6 C 69 %
166 06-12-2019 03:31:17 7.6 C 69 %
167 06-12-2019 03:41:17 7.6 C 69 %
168 06-12-2019 03:51:17 7.5 C 69 %
169 06-12-2019 04:01:17 7.5 C 69 %
170 06-12-2019 04:11:17 7.5 C 69 %
171 06-12-2019 04:21:17 7.5 C 69 %
172 06-12-2019 04:31:17 7.5 C 69 %
173 06-12-2019 04:41:17 7.5 C 69 %
174 06-12-2019 04:51:17 7.5 C 69 %
175 06-12-2019 05:01:17 7.4 C 69 %
Sensor: Nr:Datum:Temp:Feuchte:
G-T/H 176 06-12-2019 05:11:17 7.4 C 69 %
177 06-12-2019 05:21:17 7.4 C 69 %
178 06-12-2019 05:31:18 7.4 C 69 %
179 06-12-2019 05:41:18 7.4 C 69 %
180 06-12-2019 05:51:17 7.4 C 69 %
181 06-12-2019 06:01:17 7.4 C 69 %
182 06-12-2019 06:11:17 7.4 C 69 %
183 06-12-2019 06:21:17 7.4 C 69 %
184 06-12-2019 06:31:17 7.4 C 69 %
185 06-12-2019 06:41:17 7.4 C 69 %
186 06-12-2019 06:51:18 7.4 C 69 %
187 06-12-2019 07:01:17 7.4 C 69 %
188 06-12-2019 07:11:17 7.4 C 69 %
189 06-12-2019 07:21:17 7.4 C 69 %
190 06-12-2019 07:31:17 7.2 C 69 %
191 06-12-2019 07:41:17 7.2 C 68 %
192 06-12-2019 07:51:18 7.3 C 68 %
193 06-12-2019 08:01:17 7.3 C 68 %
194 06-12-2019 08:11:17 7.3 C 69 %
195 06-12-2019 08:21:17 7.3 C 69 %
196 06-12-2019 08:31:17 7.3 C 69 %
197 06-12-2019 08:41:17 7.3 C 69 %
198 06-12-2019 08:51:18 7.3 C 69 %
199 06-12-2019 09:01:17 7.3 C 69 %
200 06-12-2019 09:11:17 7.3 C 69 %
Sensor: Nr:Datum:Temp:Feuchte:
G-T/H 201 06-12-2019 09:21:17 7.3 C 69 %
202 06-12-2019 09:31:17 7.3 C 69 %
203 06-12-2019 09:41:17 7.3 C 69 %
204 06-12-2019 09:51:17 7.3 C 70 %
205 06-12-2019 10:01:17 7.3 C 70 %
206 06-12-2019 10:11:17 7.3 C 70 %
207 06-12-2019 10:21:18 7.3 C 70 %
208 06-12-2019 10:31:17 7.3 C 70 %
209 06-12-2019 10:41:17 7.3 C 70 %
210 06-12-2019 10:51:17 7.3 C 70 %
211 06-12-2019 11:01:18 7.3 C 70 %
212 06-12-2019 11:11:18 7.3 C 70 %
213 06-12-2019 11:21:17 7.4 C 70 %
214 06-12-2019 11:31:17 7.4 C 70 %
215 06-12-2019 11:41:17 7.3 C 70 %
216 06-12-2019 11:51:17 7.3 C 70 %
217 06-12-2019 12:01:17 7.3 C 71 %
218 06-12-2019 12:11:17 7.4 C 71 %
219 06-12-2019 12:21:17 7.4 C 71 %
220 06-12-2019 12:31:18 7.4 C 71 %
221 06-12-2019 12:41:18 7.4 C 71 %
222 06-12-2019 12:51:17 7.4 C 71 %
223 06-12-2019 13:01:17 7.4 C 71 %
224 06-12-2019 13:11:17 7.4 C 71 %
225 06-12-2019 13:21:17 7.4 C 71 %
Sensor: Nr:Datum:Temp:Feuchte:
G-T/H 226 06-12-2019 13:31:18 7.4 C 71 %
227 06-12-2019 13:41:18 7.4 C 71 %
228 06-12-2019 13:51:17 7.4 C 71 %
229 06-12-2019 14:01:17 7.4 C 71 %
230 06-12-2019 14:11:17 7.5 C 71 %
231 06-12-2019 14:21:17 7.5 C 71 %
232 06-12-2019 14:31:18 7.5 C 71 %
233 06-12-2019 14:41:18 7.5 C 72 %
234 06-12-2019 14:51:17 7.5 C 72 %
235 06-12-2019 15:01:17 7.5 C 72 %
236 06-12-2019 15:11:17 7.5 C 72 %
237 06-12-2019 15:21:17 7.5 C 72 %
238 06-12-2019 15:31:17 7.5 C 72 %
239 06-12-2019 15:41:17 7.5 C 72 %
240 06-12-2019 15:51:18 7.5 C 72 %
241 06-12-2019 16:01:18 7.6 C 72 %
242 06-12-2019 16:11:18 7.5 C 72 %
243 06-12-2019 16:21:17 7.5 C 72 %
244 06-12-2019 16:31:17 7.6 C 72 %
245 06-12-2019 16:41:17 7.6 C 72 %
246 06-12-2019 16:51:17 7.6 C 72 %
247 06-12-2019 17:01:17 7.6 C 72 %
248 06-12-2019 17:11:17 7.6 C 72 %
249 06-12-2019 17:21:17 7.6 C 72 %
250 06-12-2019 17:31:18 7.6 C 72 %
Sensor: Nr:Datum:Temp:Feuchte:
G-T/H 251 06-12-2019 17:41:18 7.7 C 72 %
252 06-12-2019 17:51:17 7.7 C 72 %
253 06-12-2019 18:01:17 7.7 C 73 %
254 06-12-2019 18:11:17 7.7 C 73 %
255 06-12-2019 18:21:18 7.7 C 73 %
256 06-12-2019 18:31:17 7.7 C 73 %
257 06-12-2019 18:41:17 7.8 C 73 %
258 06-12-2019 18:51:17 7.8 C 73 %
259 06-12-2019 19:01:17 7.8 C 73 %
260 06-12-2019 19:11:17 7.8 C 73 %
261 06-12-2019 19:21:17 7.8 C 73 %
262 06-12-2019 19:31:17 7.8 C 73 %
263 06-12-2019 19:41:17 7.8 C 73 %
264 06-12-2019 19:51:17 7.8 C 73 %
265 06-12-2019 20:01:17 7.8 C 73 %
266 06-12-2019 20:11:17 7.8 C 73 %
267 06-12-2019 20:21:17 7.8 C 73 %
268 06-12-2019 20:31:17 7.9 C 73 %
269 06-12-2019 20:41:17 7.9 C 73 %
270 06-12-2019 20:51:18 7.9 C 73 %
271 06-12-2019 21:01:17 7.9 C 73 %
272 06-12-2019 21:11:17 7.9 C 73 %
273 06-12-2019 21:21:17 7.9 C 73 %
274 06-12-2019 21:31:17 7.9 C 73 %
275 06-12-2019 21:41:17 7.9 C 73 %
Sensor: Nr:Datum:Temp:Feuchte:
G-T/H 276 06-12-2019 21:51:17 7.9 C 73 %
277 06-12-2019 22:01:17 7.9 C 73 %
278 06-12-2019 22:11:17 7.9 C 74 %
279 06-12-2019 22:21:17 8 C 73 %
280 06-12-2019 22:31:17 8 C 73 %
281 06-12-2019 22:41:17 8 C 73 %
282 06-12-2019 22:51:17 8 C 73 %
283 06-12-2019 23:01:18 8 C 73 %
284 06-12-2019 23:11:18 8 C 73 %
285 06-12-2019 23:21:17 8 C 73 %
286 06-12-2019 23:31:17 8 C 73 %
287 06-12-2019 23:41:17 8.1 C 73 %
288 06-12-2019 23:51:18 7.9 C 74 %
289 07-12-2019 00:01:17 8.1 C 73 %
290 07-12-2019 00:11:17 8.1 C 73 %
291 07-12-2019 00:21:17 8.1 C 73 %
292 07-12-2019 00:31:17 8.2 C 73 %
293 07-12-2019 00:41:17 8.1 C 73 %
294 07-12-2019 00:51:17 8.2 C 73 %
295 07-12-2019 01:01:17 8.2 C 73 %
296 07-12-2019 01:11:17 8.2 C 73 %
297 07-12-2019 01:21:17 8.2 C 73 %
298 07-12-2019 01:31:18 8.2 C 73 %
299 07-12-2019 01:41:18 8.2 C 73 %
300 07-12-2019 01:51:17 8.2 C 73 %
Sensor: Nr:Datum:Temp:Feuchte:
G-T/H 301 07-12-2019 02:01:17 8.3 C 73 %
302 07-12-2019 02:11:17 8.3 C 73 %
303 07-12-2019 02:21:17 8.3 C 74 %
304 07-12-2019 02:31:17 8.3 C 74 %
305 07-12-2019 02:41:17 8.3 C 74 %
306 07-12-2019 02:51:17 8.3 C 74 %
307 07-12-2019 03:01:17 8.3 C 74 %
308 07-12-2019 03:11:17 8.3 C 74 %
309 07-12-2019 03:21:17 8.4 C 74 %
310 07-12-2019 03:31:17 8.4 C 74 %
311 07-12-2019 03:41:17 8.4 C 74 %
312 07-12-2019 03:51:17 8.4 C 74 %
313 07-12-2019 04:01:18 8.4 C 74 %
314 07-12-2019 04:11:18 8.4 C 74 %
315 07-12-2019 04:21:17 8.4 C 74 %
316 07-12-2019 04:31:17 8.4 C 74 %
317 07-12-2019 04:41:17 8.5 C 74 %
318 07-12-2019 04:51:17 8.4 C 74 %
319 07-12-2019 05:01:17 8.4 C 74 %
320 07-12-2019 05:11:17 8.5 C 74 %
321 07-12-2019 05:21:17 8.5 C 74 %
322 07-12-2019 05:31:17 8.5 C 74 %
323 07-12-2019 05:41:17 8.5 C 74 %
324 07-12-2019 05:51:18 8.5 C 74 %
325 07-12-2019 06:01:18 8.5 C 74 %
Sensor: Nr:Datum:Temp:Feuchte:
G-T/H 326 07-12-2019 06:11:18 8.5 C 74 %
327 07-12-2019 06:21:17 8.6 C 74 %
328 07-12-2019 06:31:18 8.6 C 74 %
329 07-12-2019 06:41:18 8.6 C 74 %
330 07-12-2019 06:51:17 8.6 C 74 %
331 07-12-2019 07:01:17 8.6 C 74 %
332 07-12-2019 07:11:17 8.6 C 75 %
333 07-12-2019 07:21:17 8.6 C 75 %
334 07-12-2019 07:31:17 8.6 C 75 %
335 07-12-2019 07:41:17 8.6 C 75 %
336 07-12-2019 07:51:18 8.6 C 75 %
337 07-12-2019 08:01:18 8.6 C 75 %
338 07-12-2019 08:11:18 8.7 C 75 %
339 07-12-2019 08:21:17 8.7 C 75 %
340 07-12-2019 08:31:17 8.7 C 75 %
341 07-12-2019 08:41:17 8.7 C 75 %
342 07-12-2019 08:51:17 8.7 C 75 %
343 07-12-2019 09:01:17 8.7 C 75 %
344 07-12-2019 09:11:17 8.7 C 75 %
345 07-12-2019 09:21:17 8.7 C 75 %
346 07-12-2019 09:31:17 8.8 C 75 %
347 07-12-2019 09:41:17 8.8 C 75 %
348 07-12-2019 09:51:18 8.8 C 75 %
349 07-12-2019 10:01:17 8.8 C 75 %
350 07-12-2019 10:11:17 8.8 C 75 %
Sensor: Nr:Datum:Temp:Feuchte:
G-T/H 351 07-12-2019 10:21:17 8.8 C 75 %
352 07-12-2019 10:31:17 8.8 C 75 %
353 07-12-2019 10:41:17 8.8 C 75 %
354 07-12-2019 10:51:18 8.9 C 75 %
355 07-12-2019 11:01:18 8.9 C 75 %
356 07-12-2019 11:11:18 8.9 C 75 %
357 07-12-2019 11:21:17 8.9 C 75 %
358 07-12-2019 11:31:17 8.9 C 75 %
359 07-12-2019 11:41:17 8.9 C 75 %
360 07-12-2019 11:51:17 9 C 74 %
361 07-12-2019 12:01:17 9.1 C 74 %
362 07-12-2019 12:11:17 9.2 C 74 %
363 07-12-2019 12:21:17 9.2 C 74 %
364 07-12-2019 12:31:18 9.2 C 74 %
365 07-12-2019 12:41:18 9.2 C 74 %
366 07-12-2019 12:51:17 9.2 C 74 %
367 07-12-2019 13:01:17 9.2 C 74 %
368 07-12-2019 13:11:17 9.2 C 74 %
369 07-12-2019 13:21:17 9.2 C 74 %
370 07-12-2019 13:31:17 9.2 C 74 %
371 07-12-2019 13:41:17 9.2 C 74 %
372 07-12-2019 13:51:17 9.2 C 74 %
373 07-12-2019 14:01:17 9.2 C 74 %
374 07-12-2019 14:11:17 9.2 C 74 %
375 07-12-2019 14:21:17 9.2 C 74 %
Sensor: Nr:Datum:Temp:Feuchte:
G-T/H 376 07-12-2019 14:31:18 9.2 C 74 %
377 07-12-2019 14:41:18 9.2 C 74 %
378 07-12-2019 14:51:17 9.2 C 74 %
379 07-12-2019 15:01:17 9.3 C 74 %
380 07-12-2019 15:11:17 9.3 C 74 %
381 07-12-2019 15:21:17 9.2 C 74 %
382 07-12-2019 15:31:17 9.3 C 75 %
383 07-12-2019 15:41:17 9.3 C 75 %
384 07-12-2019 15:51:17 9.3 C 75 %
385 07-12-2019 16:01:17 9.3 C 75 %
386 07-12-2019 16:11:17 9.3 C 75 %
387 07-12-2019 16:21:18 9.3 C 75 %
388 07-12-2019 16:31:17 9.3 C 75 %
389 07-12-2019 16:41:18 9.3 C 75 %
390 07-12-2019 16:51:17 9.3 C 75 %
391 07-12-2019 17:01:17 9.4 C 75 %
392 07-12-2019 17:11:17 9.4 C 75 %
393 07-12-2019 17:21:17 9.3 C 75 %
394 07-12-2019 17:31:18 9.4 C 75 %
395 07-12-2019 17:41:18 9.4 C 75 %
396 07-12-2019 17:51:17 9.4 C 75 %
397 07-12-2019 18:01:18 9.4 C 75 %
398 07-12-2019 18:11:18 9.4 C 75 %
399 07-12-2019 18:21:17 9.5 C 75 %
400 07-12-2019 18:31:17 9.5 C 75 %
Sensor: Nr:Datum:Temp:Feuchte:
G-T/H 401 07-12-2019 18:41:17 9.5 C 75 %
402 07-12-2019 18:51:17 9.5 C 75 %
403 07-12-2019 19:01:17 9.5 C 75 %
404 07-12-2019 19:11:17 9.5 C 75 %
405 07-12-2019 19:21:17 9.5 C 75 %
406 07-12-2019 19:31:17 9.5 C 75 %
407 07-12-2019 19:41:17 9.6 C 75 %
408 07-12-2019 19:51:17 9.5 C 75 %
409 07-12-2019 20:01:18 9.5 C 75 %
410 07-12-2019 20:11:18 9.5 C 75 %
411 07-12-2019 20:21:17 9.6 C 75 %
412 07-12-2019 20:31:17 9.6 C 75 %
413 07-12-2019 20:41:17 9.6 C 75 %
414 07-12-2019 20:51:17 9.6 C 75 %
415 07-12-2019 21:01:17 9.6 C 75 %
416 07-12-2019 21:11:17 9.6 C 75 %
417 07-12-2019 21:21:17 9.6 C 75 %
418 07-12-2019 21:31:17 9.6 C 75 %
419 07-12-2019 21:41:17 9.6 C 75 %
420 07-12-2019 21:51:17 9.6 C 75 %
421 07-12-2019 22:01:17 9.6 C 75 %
422 07-12-2019 22:11:17 9.6 C 75 %
423 07-12-2019 22:21:17 9.7 C 75 %
424 07-12-2019 22:31:18 9.7 C 75 %
425 07-12-2019 22:41:18 9.6 C 75 %
Sensor: Nr:Datum:Temp:Feuchte:
G-T/H 426 07-12-2019 22:51:17 9.7 C 75 %
427 07-12-2019 23:01:17 9.7 C 75 %
428 07-12-2019 23:11:17 9.7 C 75 %
429 07-12-2019 23:21:17 9.7 C 75 %
430 07-12-2019 23:31:17 9.7 C 75 %
431 07-12-2019 23:41:17 9.7 C 75 %
432 07-12-2019 23:51:18 9.7 C 75 %
433 08-12-2019 00:01:17 9.7 C 75 %
434 08-12-2019 00:11:17 9.7 C 75 %
435 08-12-2019 00:21:17 9.7 C 75 %
436 08-12-2019 00:31:18 9.7 C 75 %
437 08-12-2019 00:41:18 9.7 C 75 %
438 08-12-2019 00:51:17 9.7 C 75 %
439 08-12-2019 01:01:18 9.7 C 75 %
440 08-12-2019 01:11:18 9.8 C 75 %
441 08-12-2019 01:21:17 9.8 C 76 %
442 08-12-2019 01:31:17 9.8 C 76 %
443 08-12-2019 01:41:17 9.8 C 76 %
444 08-12-2019 01:51:18 9.8 C 76 %
445 08-12-2019 02:01:17 9.8 C 76 %
446 08-12-2019 02:11:17 9.8 C 75 %
447 08-12-2019 02:21:17 9.8 C 75 %
448 08-12-2019 02:31:17 9.8 C 75 %
449 08-12-2019 02:41:18 9.8 C 75 %
450 08-12-2019 02:51:17 9.8 C 75 %
Sensor: Nr:Datum:Temp:Feuchte:
G-T/H 451 08-12-2019 03:01:17 9.8 C 75 %
452 08-12-2019 03:11:17 9.8 C 75 %
453 08-12-2019 03:21:17 9.8 C 75 %
454 08-12-2019 03:31:17 9.8 C 76 %
455 08-12-2019 03:41:17 9.8 C 75 %
456 08-12-2019 03:51:17 9.9 C 76 %
457 08-12-2019 04:01:17 9.8 C 75 %
458 08-12-2019 04:11:18 9.9 C 75 %
459 08-12-2019 04:21:17 9.9 C 76 %
460 08-12-2019 04:31:17 9.9 C 75 %
461 08-12-2019 04:41:17 9.9 C 76 %
462 08-12-2019 04:51:17 9.9 C 76 %
463 08-12-2019 05:01:17 9.9 C 75 %
464 08-12-2019 05:11:17 9.9 C 76 %
465 08-12-2019 05:21:17 9.9 C 76 %
466 08-12-2019 05:31:17 9.9 C 76 %
467 08-12-2019 05:41:17 9.9 C 76 %
468 08-12-2019 05:51:17 9.9 C 76 %
469 08-12-2019 06:01:17 10 C 74 %
470 08-12-2019 06:11:18 10 C 74 %
471 08-12-2019 06:21:17 10 C 74 %
472 08-12-2019 06:31:17 10 C 74 %
473 08-12-2019 06:41:17 10 C 74 %
474 08-12-2019 06:51:17 10 C 74 %
475 08-12-2019 07:01:18 10 C 74 %
Sensor: Nr:Datum:Temp:Feuchte:
G-T/H 476 08-12-2019 07:11:18 10 C 74 %
477 08-12-2019 07:21:17 10 C 74 %
478 08-12-2019 07:31:17 10 C 74 %
479 08-12-2019 07:41:17 10 C 74 %
480 08-12-2019 07:51:17 10 C 74 %
481 08-12-2019 08:01:17 10 C 74 %
482 08-12-2019 08:11:17 10 C 74 %
483 08-12-2019 08:21:17 10 C 74 %
484 08-12-2019 08:31:17 10 C 74 %
485 08-12-2019 08:41:17 10.1 C 74 %
486 08-12-2019 08:51:17 10.1 C 74 %
487 08-12-2019 09:01:17 10.1 C 74 %
488 08-12-2019 09:11:17 10.1 C 74 %
489 08-12-2019 09:21:17 10.1 C 74 %
490 08-12-2019 09:31:17 10.1 C 74 %
491 08-12-2019 09:41:17 10.1 C 74 %
492 08-12-2019 09:51:17 10.1 C 74 %
493 08-12-2019 10:01:17 10.1 C 74 %
494 08-12-2019 10:11:17 10.1 C 75 %
495 08-12-2019 10:21:17 10.1 C 75 %
496 08-12-2019 10:31:17 10.1 C 75 %
497 08-12-2019 10:41:17 10.1 C 75 %
498 08-12-2019 10:51:17 10.2 C 75 %
499 08-12-2019 11:01:17 10.2 C 75 %
500 08-12-2019 11:11:17 10.2 C 75 %
Sensor: Nr:Datum:Temp:Feuchte:
G-T/H 501 08-12-2019 11:21:17 10.2 C 75 %
502 08-12-2019 11:31:17 10.2 C 75 %
503 08-12-2019 11:41:17 10.2 C 75 %
504 08-12-2019 11:51:17 10.2 C 75 %
505 08-12-2019 12:01:18 10.2 C 75 %
506 08-12-2019 12:11:18 10.2 C 75 %
507 08-12-2019 12:21:17 10.3 C